Provisional Data: Kitchen Creek near Huntington Mills, PA


Please select a monitoring station.
Please select start date.
Please select start date.

Toggle Unit: C/F Toggle Unit: C/F
Sample Time Temperature (C) Temperature (F) Specific Conductivity (mS/cm) pH   Turbidity (NTU+) DO (mg/L)
3/7/2021 12:00:00 AM 0.58 33.044 0.093 6.55 0.49 14.13
3/7/2021 12:15:00 AM 0.57 33.026 0.093 6.6 0.43 14.13
3/7/2021 12:30:00 AM 0.55 32.99 0.093 6.56 0.44 14.14
3/7/2021 12:45:00 AM 0.53 32.954 0.093 6.59 0.43 14.15
3/7/2021 1:00:00 AM 0.52 32.936 0.093 6.59 0.44 14.16
3/7/2021 1:15:00 AM 0.51 32.918 0.093 6.59 0.45 14.16
3/7/2021 1:30:00 AM 0.49 32.882 0.093 6.57 0.4 14.17
3/7/2021 1:45:00 AM 0.47 32.846 0.093 6.6 0.45 14.18
3/7/2021 2:00:00 AM 0.45 32.81 0.093 6.56 0.48 14.19
3/7/2021 2:15:00 AM 0.42 32.756 0.093 6.58 0.42 14.2
3/7/2021 2:30:00 AM 0.4 32.72 0.093 6.58 0.45 14.21
3/7/2021 2:45:00 AM 0.36 32.648 0.093 6.59 0.41 14.22
3/7/2021 3:00:00 AM 0.33 32.594 0.093 6.59 0.41 14.24
3/7/2021 3:15:00 AM 0.3 32.54 0.093 6.59 0.38 14.24
3/7/2021 3:30:00 AM 0.26 32.468 0.093 6.56 0.41 14.27
3/7/2021 3:45:00 AM 0.22 32.396 0.093 6.59 0.38 14.28
3/7/2021 4:00:00 AM 0.19 32.342 0.093 6.58 0.42 14.29
3/7/2021 4:15:00 AM 0.15 32.27 0.093 6.56 0.44 14.31
3/7/2021 4:30:00 AM 0.1 32.18 0.093 6.59 0.45 14.33
3/7/2021 4:45:00 AM 0.06 32.108 0.093 6.58 0.42 14.35
3/7/2021 5:00:00 AM 0.02 32.036 0.093 6.56 0.45 14.37
3/7/2021 5:15:00 AM -0.02 31.964 0.093 6.59 0.41 14.39
3/7/2021 5:30:00 AM -0.07 31.874 0.093 6.56 0.46 14.41
3/7/2021 5:45:00 AM -0.1 31.82 0.093 6.57 0.44 14.43
3/7/2021 6:00:00 AM -0.07 31.874 0.093 6.57 0.41 14.46
3/7/2021 6:15:00 AM -0.07 31.874 0.093 6.58 0.47 14.47
3/7/2021 6:30:00 AM -0.07 31.874 0.093 6.58 0.42 14.48
3/7/2021 6:45:00 AM -0.07 31.874 0.093 6.6 0.45 14.49
3/7/2021 7:00:00 AM -0.07 31.874 0.093 6.61 0.45 14.52
3/7/2021 7:15:00 AM -0.07 31.874 0.093 6.61 0.51 14.53
3/7/2021 7:30:00 AM -0.07 31.874 0.093 6.65 0.45 14.56
3/7/2021 7:45:00 AM -0.07 31.874 0.094 6.65 0.43 14.57
3/7/2021 8:00:00 AM -0.06 31.892 0.094 6.64 0.48 14.59
3/7/2021 8:15:00 AM -0.06 31.892 0.094 6.67 0.41 14.59
3/7/2021 8:30:00 AM -0.06 31.892 0.094 6.66 0.42 14.6
3/7/2021 8:45:00 AM -0.05 31.91 0.095 6.67 0.41 14.6
3/7/2021 9:00:00 AM -0.04 31.928 0.095 6.67 0.42 14.59
3/7/2021 9:15:00 AM -0.01 31.982 0.096 6.64 0.4 14.6
3/7/2021 9:30:00 AM 0.04 32.072 0.096 6.64 0.49 14.6
3/7/2021 9:45:00 AM 0.06 32.108 0.097 6.65 0.48 14.59
3/7/2021 10:00:00 AM 0.07 32.126 0.097 6.65 0.5 14.59
3/7/2021 10:15:00 AM 0.08 32.144 0.096 6.65 0.48 14.58
3/7/2021 10:30:00 AM 0.07 32.126 0.096 6.64 0.53 14.57
3/7/2021 10:45:00 AM 0.2 32.36 0.094 6.66 0.51 14.52
3/7/2021 11:00:00 AM 0.46 32.828 0.092 6.62 0.5 14.45
3/7/2021 11:15:00 AM 0.69 33.242 0.091 6.66 0.45 14.38
3/7/2021 11:30:00 AM 0.93 33.674 0.091 6.63 0.48 14.31
3/7/2021 11:45:00 AM 1.16 34.088 0.091 6.67 0.45 14.22
3/7/2021 12:00:00 PM 1.36 34.448 0.091 6.66 0.49 14.15
3/7/2021 12:15:00 PM 1.53 34.754 0.092 6.67 0.48 14.08
3/7/2021 12:30:00 PM 1.69 35.042 0.095 6.65 0.47 14.02
3/7/2021 12:45:00 PM 1.81 35.258 0.096 6.68 0.41 13.96
3/7/2021 1:00:00 PM 1.88 35.384 0.095 6.65 0.44 13.92
3/7/2021 1:15:00 PM 1.9 35.42 0.094 6.67 0.4 13.89
3/7/2021 1:30:00 PM 1.9 35.42 0.093 6.67 0.37 13.89
3/7/2021 1:45:00 PM 1.87 35.366 0.092 6.68 0.42 13.89
3/7/2021 2:00:00 PM 1.83 35.294 0.091 6.68 0.45 13.88
3/7/2021 2:15:00 PM 1.81 35.258 0.09 6.69 0.4 13.87
3/7/2021 2:30:00 PM 1.79 35.222 0.09 6.69 0.4 13.87
3/7/2021 2:45:00 PM 1.77 35.186 0.09 6.69 0.39 13.86
3/7/2021 3:00:00 PM 1.77 35.186 0.089 6.69 0.44 13.86
3/7/2021 3:15:00 PM 1.77 35.186 0.089 6.68 0.41 13.85
3/7/2021 3:30:00 PM 1.76 35.168 0.089 6.65 0.38 13.84
3/7/2021 3:45:00 PM 1.73 35.114 0.089 6.67 0.42 13.86
3/7/2021 4:00:00 PM 1.69 35.042 0.089 6.67 0.45 13.87
3/7/2021 4:15:00 PM 1.64 34.952 0.088 6.67 0.4 13.86
3/7/2021 4:30:00 PM 1.59 34.862 0.089 6.67 0.42 13.89
3/7/2021 4:45:00 PM 1.55 34.79 0.089 6.65 0.43 13.89
3/7/2021 5:00:00 PM 1.5 34.7 0.089 6.66 0.37 13.9
3/7/2021 5:15:00 PM 1.45 34.61 0.089 6.64 0.38 13.91
3/7/2021 5:30:00 PM 1.41 34.538 0.089 6.65 0.42 13.92
3/7/2021 5:45:00 PM 1.37 34.466 0.09 6.65 0.43 13.92
3/7/2021 6:00:00 PM 1.32 34.376 0.09 6.6 0.47 13.92
3/7/2021 6:15:00 PM 1.28 34.304 0.09 6.62 0.43 13.93
3/7/2021 6:30:00 PM 1.22 34.196 0.09 6.63 0.44 13.94
3/7/2021 6:45:00 PM 1.17 34.106 0.09 6.61 0.4 13.95
3/7/2021 7:00:00 PM 1.12 34.016 0.09 6.62 0.42 13.97
3/7/2021 7:15:00 PM 1.07 33.926 0.09 6.58 0.46 13.98
3/7/2021 7:30:00 PM 1.03 33.854 0.09 6.62 0.4 14.01
3/7/2021 7:45:00 PM 0.99 33.782 0.09 6.61 0.43 14.02
3/7/2021 8:00:00 PM 0.96 33.728 0.09 6.59 0.4 14.03
3/7/2021 8:15:00 PM 0.92 33.656 0.091 6.6 0.47 14.05
3/7/2021 8:30:00 PM 0.89 33.602 0.091 6.6 0.45 14.06
3/7/2021 8:45:00 PM 0.86 33.548 0.091 6.61 0.48 14.07
3/7/2021 9:00:00 PM 0.83 33.494 0.091 6.61 0.44 14.09
3/7/2021 9:15:00 PM 0.8 33.44 0.091 6.6 0.43 14.1
3/7/2021 9:30:00 PM 0.76 33.368 0.09 6.61 0.37 14.12
3/7/2021 9:45:00 PM 0.73 33.314 0.09 6.58 0.43 14.12
3/7/2021 10:00:00 PM 0.69 33.242 0.091 6.6 0.46 14.14
3/7/2021 10:15:00 PM 0.66 33.188 0.091 6.61 0.46 14.15
3/7/2021 10:30:00 PM 0.62 33.116 0.091 6.61 0.39 14.17
3/7/2021 10:45:00 PM 0.59 33.062 0.091 6.61 0.45 14.18
3/7/2021 11:00:00 PM 0.54 32.972 0.091 6.6 0.46 14.21
3/7/2021 11:15:00 PM 0.5 32.9 0.091 6.61 0.47 14.22
3/7/2021 11:30:00 PM 0.46 32.828 0.091 6.61 0.45 14.25
3/7/2021 11:45:00 PM 0.41 32.738 0.091 6.57 0.43 14.26
3/8/2021 12:00:00 AM 0.36 32.648 0.091 6.59 0.43 14.29
3/8/2021 12:15:00 AM 0.31 32.558 0.091 6.61 0.43 14.31
3/8/2021 12:30:00 AM 0.26 32.468 0.091 6.6 0.42 14.33
3/8/2021 12:45:00 AM 0.21 32.378 0.091 6.6 0.44 14.35
3/8/2021 1:00:00 AM 0.15 32.27 0.091 6.57 0.42 14.38
3/8/2021 1:15:00 AM 0.1 32.18 0.091 6.6 0.41 14.4
3/8/2021 1:30:00 AM 0.05 32.09 0.091 6.59 0.46 14.42
3/8/2021 1:45:00 AM -0.01 31.982 0.091 6.6 0.43 14.44
3/8/2021 2:00:00 AM -0.06 31.892 0.091 6.6 0.46 14.47
3/8/2021 2:15:00 AM -0.1 31.82 0.091 6.59 0.44 14.49
3/8/2021 2:30:00 AM -0.07 31.874 0.091 6.56 0.44 14.51
3/8/2021 2:45:00 AM -0.07 31.874 0.091 6.55 0.5 14.53
3/8/2021 3:00:00 AM -0.07 31.874 0.091 6.58 0.55 14.52
3/8/2021 3:15:00 AM -0.07 31.874 0.074 6.59 0.47 14.53
3/8/2021 3:30:00 AM -0.07 31.874 0.092 6.59 0.52 14.53
3/8/2021 3:45:00 AM -0.07 31.874 0.092 6.63 0.53 14.54
3/8/2021 4:00:00 AM -0.07 31.874 0.092 6.63 0.57 14.53
3/8/2021 4:15:00 AM -0.07 31.874 0.092 6.61 0.56 14.54
3/8/2021 4:30:00 AM -0.07 31.874 0.093 6.65 0.53 14.54
3/8/2021 4:45:00 AM -0.07 31.874 0.093 6.65 0.52 14.54
3/8/2021 5:00:00 AM -0.07 31.874 0.094 6.64 0.5 14.54
3/8/2021 5:15:00 AM -0.07 31.874 0.095 6.63 0.49 14.54
3/8/2021 5:30:00 AM -0.07 31.874 0.095 6.66 0.48 14.55
3/8/2021 5:45:00 AM -0.07 31.874 0.096 6.66 0.49 14.54
3/8/2021 6:00:00 AM -0.06 31.892 0.096 6.65 0.45 14.55
3/8/2021 6:15:00 AM -0.06 31.892 0.096 6.66 0.45 14.55
3/8/2021 6:30:00 AM -0.06 31.892 0.096 6.65 0.45 14.55
3/8/2021 6:45:00 AM -0.06 31.892 0.097 6.67 0.45 14.56
3/8/2021 7:00:00 AM -0.06 31.892 0.097 6.67 0.49 14.59
3/8/2021 7:15:00 AM -0.06 31.892 0.097 6.68 0.42 14.61
3/8/2021 7:30:00 AM -0.06 31.892 0.097 6.68 0.47 14.63
3/8/2021 7:45:00 AM -0.06 31.892 0.097 6.7 0.44 14.65
3/8/2021 8:00:00 AM -0.06 31.892 0.097 6.7 0.47 14.67
3/8/2021 8:15:00 AM -0.06 31.892 0.097 6.71 0.44 14.67
3/8/2021 8:30:00 AM -0.06 31.892 0.097 6.68 0.41 14.67
3/8/2021 8:45:00 AM -0.06 31.892 0.096 6.72 0.46 14.68
3/8/2021 9:00:00 AM -0.06 31.892 0.095 6.71 0.49 14.67
3/8/2021 9:15:00 AM -0.06 31.892 0.093 6.72 0.44 14.67
3/8/2021 9:30:00 AM -0.06 31.892 0.092 6.73 0.46 14.66
3/8/2021 9:45:00 AM -0.06 31.892 0.091 6.72 0.54 14.65
3/8/2021 10:00:00 AM -0.06 31.892 0.09 6.73 0.54 14.64
3/8/2021 10:15:00 AM -0.05 31.91 0.09 6.73 0.52 14.64
3/8/2021 10:30:00 AM -0.03 31.946 0.089 6.71 0.59 14.61
3/8/2021 10:45:00 AM 0 32 0.087 6.65 0.98 14.62
3/8/2021 11:00:00 AM 0 32 0.086 6.68 0.69 14.61
3/8/2021 11:15:00 AM 0.01 32.018 0.085 6.64 0.69 14.6
3/8/2021 11:30:00 AM 0.04 32.072 0.086 6.65 0.72 14.57
3/8/2021 11:45:00 AM 0.09 32.162 0.088 6.66 0.89 14.53
3/8/2021 12:00:00 PM 0.35 32.63 0.091 6.69 0.83 14.46
3/8/2021 12:15:00 PM 0.68 33.224 0.093 6.66 0.77 14.38
3/8/2021 12:30:00 PM 0.93 33.674 0.095 6.69 0.77 14.31
3/8/2021 12:45:00 PM 1.11 33.998 0.096 6.67 0.84 14.26
3/8/2021 1:00:00 PM 1.19 34.142 0.096 6.69 0.78 14.23
3/8/2021 1:15:00 PM 1.26 34.268 0.096 6.65 0.74 14.2
3/8/2021 1:30:00 PM 1.3 34.34 0.095 6.7 0.73 14.17
3/8/2021 1:45:00 PM 1.33 34.394 0.094 6.68 0.68 14.16
3/8/2021 2:00:00 PM 1.32 34.376 0.092 6.69 0.68 14.14
3/8/2021 2:15:00 PM 1.33 34.394 0.091 6.69 0.64 14.13
3/8/2021 2:30:00 PM 1.32 34.376 0.09 6.68 0.59 14.13
3/8/2021 2:45:00 PM 1.32 34.376 0.089 6.7 0.57 14.13
3/8/2021 3:00:00 PM 1.35 34.43 0.088 6.69 0.55 14.11
3/8/2021 3:15:00 PM 1.39 34.502 0.087 6.7 0.54 14.1
3/8/2021 3:30:00 PM 1.41 34.538 0.086 6.71 0.55 14.09
3/8/2021 3:45:00 PM 1.43 34.574 0.086 6.64 0.58 14.07
3/8/2021 4:00:00 PM 1.44 34.592 0.085 6.7 0.55 14.04
3/8/2021 4:15:00 PM 1.47 34.646 0.085 6.69 0.5 14.03
3/8/2021 4:30:00 PM 1.49 34.682 0.084 6.68 0.5 14.01
3/8/2021 4:45:00 PM 1.49 34.682 0.084 6.67 0.46 14.01
3/8/2021 5:00:00 PM 1.48 34.664 0.084 6.66 0.5 14
3/8/2021 5:15:00 PM 1.47 34.646 0.084 6.68 0.53 13.97
3/8/2021 5:30:00 PM 1.47 34.646 0.085 6.67 0.46 13.95
3/8/2021 5:45:00 PM 1.46 34.628 0.085 6.63 0.5 13.93
3/8/2021 6:00:00 PM 1.45 34.61 0.085 6.63 0.47 13.91
3/8/2021 6:15:00 PM 1.42 34.556 0.086 6.65 0.48 13.89
3/8/2021 6:30:00 PM 1.39 34.502 0.086 6.61 0.51 13.89
3/8/2021 6:45:00 PM 1.35 34.43 0.087 6.63 0.56 13.9
3/8/2021 7:00:00 PM 1.32 34.376 0.087 6.64 0.51 13.91
3/8/2021 7:15:00 PM 1.28 34.304 0.087 6.63 0.5 13.92
3/8/2021 7:30:00 PM 1.25 34.25 0.087 6.63 0.47 13.92
3/8/2021 7:45:00 PM 1.22 34.196 0.087 6.59 0.48 13.93
3/8/2021 8:00:00 PM 1.19 34.142 0.088 6.61 0.53 13.94
3/8/2021 8:15:00 PM 1.16 34.088 0.088 6.63 0.5 13.95
3/8/2021 8:30:00 PM 1.14 34.052 0.088 6.6 0.49 13.96
3/8/2021 8:45:00 PM 1.12 34.016 0.088 6.63 0.5 13.97
3/8/2021 9:00:00 PM 1.1 33.98 0.088 6.62 0.47 13.97
3/8/2021 9:15:00 PM 1.08 33.944 0.089 6.62 0.44 13.98
3/8/2021 9:30:00 PM 1.07 33.926 0.089 6.58 0.46 13.98
3/8/2021 9:45:00 PM 1.06 33.908 0.089 6.62 0.46 13.99
3/8/2021 10:00:00 PM 1.05 33.89 0.089 6.61 0.47 14
3/8/2021 10:15:00 PM 1.05 33.89 0.089 6.61 0.46 13.99
3/8/2021 10:30:00 PM 1.05 33.89 0.089 6.59 0.44 13.99
3/8/2021 10:45:00 PM 1.05 33.89 0.089 6.61 0.45 13.99
3/8/2021 11:00:00 PM 1.05 33.89 0.089 6.61 0.45 13.99
3/8/2021 11:15:00 PM 1.05 33.89 0.089 6.58 0.47 14
3/8/2021 11:30:00 PM 1.05 33.89 0.089 6.6 0.44 14
3/8/2021 11:45:00 PM 1.06 33.908 0.089 6.59 0.45 13.99
3/9/2021 12:00:00 AM 1.06 33.908 0.089 6.61 0.44 13.99
3/9/2021 12:15:00 AM 1.06 33.908 0.089 6.61 0.43 13.99
3/9/2021 12:30:00 AM 1.06 33.908 0.089 6.6 0.47 13.99
3/9/2021 12:45:00 AM 1.06 33.908 0.089 6.61 0.43 13.99
3/9/2021 1:00:00 AM 1.06 33.908 0.089 6.61 0.42 13.98
3/9/2021 1:15:00 AM 1.05 33.89 0.089 6.59 0.41 13.98
3/9/2021 1:30:00 AM 1.05 33.89 0.089 6.6 0.4 13.98
3/9/2021 1:45:00 AM 1.05 33.89 0.089 6.6 0.45 13.99
3/9/2021 2:00:00 AM 1.05 33.89 0.089 6.61 0.41 13.98
3/9/2021 2:15:00 AM 1.06 33.908 0.089 6.6 0.41 13.98
3/9/2021 2:30:00 AM 1.05 33.89 0.089 6.6 0.43 13.97
3/9/2021 2:45:00 AM 1.05 33.89 0.089 6.61 0.4 13.97
3/9/2021 3:00:00 AM 1.04 33.872 0.089 6.6 0.38 13.97
3/9/2021 3:15:00 AM 1.02 33.836 0.089 6.6 0.43 13.98
3/9/2021 3:30:00 AM 1 33.8 0.089 6.57 0.43 13.98
3/9/2021 3:45:00 AM 0.98 33.764 0.089 6.61 0.43 13.99
3/9/2021 4:00:00 AM 0.96 33.728 0.089 6.57 0.46 14
3/9/2021 4:15:00 AM 0.94 33.692 0.089 6.6 0.42 14
3/9/2021 4:30:00 AM 0.93 33.674 0.089 6.6 0.39 14.01
3/9/2021 4:45:00 AM 0.91 33.638 0.089 6.61 0.39 14.02
3/9/2021 5:00:00 AM 0.9 33.62 0.089 6.56 0.44 14.03
3/9/2021 5:15:00 AM 0.88 33.584 0.089 6.6 0.41 14.04
3/9/2021 5:30:00 AM 0.86 33.548 0.089 6.6 0.42 14.04
3/9/2021 5:45:00 AM 0.85 33.53 0.089 6.56 0.41 14.05
3/9/2021 6:00:00 AM 0.83 33.494 0.089 6.59 0.41 14.06
3/9/2021 6:15:00 AM 0.81 33.458 0.089 6.6 0.41 14.07
3/9/2021 6:30:00 AM 0.79 33.422 0.089 6.6 0.45 14.08
3/9/2021 6:45:00 AM 0.77 33.386 0.089 6.6 0.41 14.11
3/9/2021 7:00:00 AM 0.76 33.368 0.089 6.6 0.46 14.13
3/9/2021 7:15:00 AM 0.75 33.35 0.089 6.62 0.47 14.17
3/9/2021 7:30:00 AM 0.75 33.35 0.089 6.64 0.55 14.2
3/9/2021 7:45:00 AM 0.76 33.368 0.089 6.61 0.48 14.22
3/9/2021 8:00:00 AM 0.78 33.404 0.089 6.64 0.44 14.24
3/9/2021 8:15:00 AM 0.81 33.458 0.089 6.65 0.47 14.25
3/9/2021 8:30:00 AM 0.85 33.53 0.089 6.64 0.44 14.26
3/9/2021 8:45:00 AM 0.9 33.62 0.089 6.65 0.44 14.26
3/9/2021 9:00:00 AM 0.97 33.746 0.089 6.67 0.37 14.25
3/9/2021 9:15:00 AM 1.06 33.908 0.089 6.68 0.35 14.23
3/9/2021 9:30:00 AM 1.17 34.106 0.089 6.63 0.39 14.21
3/9/2021 9:45:00 AM 1.29 34.322 0.088 6.68 0.37 14.18
3/9/2021 10:00:00 AM 1.43 34.574 0.088 6.66 0.32 14.14
3/9/2021 10:15:00 AM 1.58 34.844 0.088 6.69 0.35 14.08
3/9/2021 10:30:00 AM 1.75 35.15 0.088 6.69 0.34 14.01
3/9/2021 10:45:00 AM 1.94 35.492 0.088 6.7 0.33 13.95
3/9/2021 11:00:00 AM 2.17 35.906 0.088 6.7 0.41 13.85
3/9/2021 11:15:00 AM 2.44 36.392 0.088 6.69 0.38 13.76
3/9/2021 11:30:00 AM 2.72 36.896 0.088 6.73 0.36 13.67
3/9/2021 11:45:00 AM 3 37.4 0.088 6.7 0.31 13.56
3/9/2021 12:00:00 PM 3.24 37.832 0.088 6.73 0.3 13.48
3/9/2021 12:15:00 PM 3.44 38.192 0.087 6.72 0.32 13.4
3/9/2021 12:30:00 PM 3.63 38.534 0.087 6.73 0.31 13.33
3/9/2021 12:45:00 PM 3.78 38.804 0.087 6.74 0.31 13.27
3/9/2021 1:00:00 PM 3.87 38.966 0.087 6.75 0.28 13.22
3/9/2021 1:15:00 PM 3.94 39.092 0.087 6.74 0.33 13.18
3/9/2021 1:30:00 PM 3.98 39.164 0.087 6.73 0.33 13.17
3/9/2021 1:45:00 PM 4 39.2 0.087 6.75 0.35 13.14
3/9/2021 2:00:00 PM 4.01 39.218 0.087 6.74 0.36 13.12
3/9/2021 2:15:00 PM 4 39.2 0.087 6.76 0.38 13.11
3/9/2021 2:30:00 PM 4 39.2 0.087 6.74 0.38 13.1
3/9/2021 2:45:00 PM 3.98 39.164 0.087 6.75 0.39 13.08
3/9/2021 3:00:00 PM 3.99 39.182 0.087 6.74 0.45 13.06
3/9/2021 3:15:00 PM 3.99 39.182 0.086 6.73 0.49 13.06
3/9/2021 3:30:00 PM 3.98 39.164 0.086 6.74 0.46 13.05
3/9/2021 3:45:00 PM 3.95 39.11 0.086 6.74 0.5 13.05
3/9/2021 4:00:00 PM 3.91 39.038 0.086 6.75 0.54 13.06
3/9/2021 4:15:00 PM 3.86 38.948 0.086 6.76 0.55 13.07
3/9/2021 4:30:00 PM 3.81 38.858 0.086 6.75 0.6 13.08
3/9/2021 4:45:00 PM 3.75 38.75 0.086 6.75 0.63 13.09
3/9/2021 5:00:00 PM 3.69 38.642 0.085 6.74 0.67 13.1
3/9/2021 5:15:00 PM 3.63 38.534 0.085 6.75 0.71 13.1
3/9/2021 5:30:00 PM 3.56 38.408 0.085 6.67 0.79 13.1
3/9/2021 5:45:00 PM 3.5 38.3 0.085 6.73 0.88 13.11
3/9/2021 6:00:00 PM 3.44 38.192 0.085 6.72 0.84 13.12
3/9/2021 6:15:00 PM 3.37 38.066 0.085 6.67 0.79 13.12
3/9/2021 6:30:00 PM 3.31 37.958 0.085 6.68 0.92 13.14
3/9/2021 6:45:00 PM 3.24 37.832 0.084 6.7 0.98 13.16
3/9/2021 7:00:00 PM 3.18 37.724 0.084 6.65 0.93 13.18
3/9/2021 7:15:00 PM 3.13 37.634 0.084 6.69 0.91 13.2
3/9/2021 7:30:00 PM 3.08 37.544 0.084 6.68 0.97 13.22
3/9/2021 7:45:00 PM 3.04 37.472 0.084 6.65 1.04 13.24
3/9/2021 8:00:00 PM 3.01 37.418 0.084 6.68 0.98 13.24
3/9/2021 8:15:00 PM 2.97 37.346 0.084 6.67 0.98 13.26
3/9/2021 8:30:00 PM 2.94 37.292 0.083 6.65 1.06 13.28
3/9/2021 8:45:00 PM 2.9 37.22 0.083 6.64 1.05 13.29
3/9/2021 9:00:00 PM 2.87 37.166 0.083 6.66 1.09 13.31
3/9/2021 9:15:00 PM 2.83 37.094 0.083 6.6 1.09 13.32
3/9/2021 9:30:00 PM 2.8 37.04 0.083 6.64 1.08 13.33
3/9/2021 9:45:00 PM 2.76 36.968 0.084 6.65 1.08 13.35
3/9/2021 10:00:00 PM 2.72 36.896 0.084 6.65 1.08 13.37
3/9/2021 10:15:00 PM 2.68 36.824 0.084 6.64 1.09 13.38
3/9/2021 10:30:00 PM 2.64 36.752 0.085 6.6 1.11 13.4
3/9/2021 10:45:00 PM 2.6 36.68 0.085 6.64 1.15 13.41
3/9/2021 11:00:00 PM 2.56 36.608 0.086 6.62 1.11 13.43
3/9/2021 11:15:00 PM 2.52 36.536 0.086 6.62 1.15 13.45
3/9/2021 11:30:00 PM 2.48 36.464 0.086 6.62 1.09 13.46
3/9/2021 11:45:00 PM 2.44 36.392 0.087 6.63 1.06 13.48
3/10/2021 12:00:00 AM 2.4 36.32 0.087 6.63 1.11 13.5
3/10/2021 12:15:00 AM 2.36 36.248 0.087 6.62 1.03 13.52
3/10/2021 12:30:00 AM 2.32 36.176 0.088 6.61 1.06 13.53
3/10/2021 12:45:00 AM 2.28 36.104 0.088 6.61 1.04 13.55
3/10/2021 1:00:00 AM 2.24 36.032 0.088 6.6 1.04 13.56
3/10/2021 1:15:00 AM 2.2 35.96 0.089 6.62 0.96 13.58
3/10/2021 1:30:00 AM 2.16 35.888 0.089 6.58 0.98 13.6
3/10/2021 1:45:00 AM 2.12 35.816 0.089 6.6 1.02 13.62
3/10/2021 2:00:00 AM 2.09 35.762 0.089 6.61 0.95 13.63
3/10/2021 2:15:00 AM 2.05 35.69 0.089 6.59 0.99 13.64
3/10/2021 2:30:00 AM 2.01 35.618 0.089 6.6 0.92 13.66
3/10/2021 2:45:00 AM 1.98 35.564 0.089 6.61 0.9 13.68
3/10/2021 3:00:00 AM 1.94 35.492 0.089 6.61 0.91 13.68
3/10/2021 3:15:00 AM 1.91 35.438 0.089 6.6 0.9 13.7
3/10/2021 3:30:00 AM 1.88 35.384 0.089 6.6 0.85 13.72
3/10/2021 3:45:00 AM 1.84 35.312 0.089 6.6 0.82 13.73
3/10/2021 4:00:00 AM 1.81 35.258 0.089 6.59 0.82 13.75
3/10/2021 4:15:00 AM 1.78 35.204 0.089 6.6 0.81 13.75
3/10/2021 4:30:00 AM 1.75 35.15 0.089 6.6 0.75 13.77
3/10/2021 4:45:00 AM 1.72 35.096 0.089 6.61 0.84 13.78
3/10/2021 5:00:00 AM 1.69 35.042 0.089 6.6 0.76 13.8
3/10/2021 5:15:00 AM 1.66 34.988 0.089 6.6 0.76 13.82
3/10/2021 5:30:00 AM 1.63 34.934 0.089 6.59 0.76 13.81
3/10/2021 5:45:00 AM 1.61 34.898 0.089 6.59 0.8 13.83
3/10/2021 6:00:00 AM 1.58 34.844 0.089 6.59 0.68 13.85
3/10/2021 6:15:00 AM 1.55 34.79 0.089 6.57 0.79 13.86
3/10/2021 6:30:00 AM 1.52 34.736 0.089 6.6 0.69 13.88
3/10/2021 6:45:00 AM 1.5 34.7 0.089 6.6 0.79 13.9
3/10/2021 7:00:00 AM 1.49 34.682 0.089 6.58 0.77 13.93
3/10/2021 7:15:00 AM 1.48 34.664 0.089 6.62 0.7 13.97
3/10/2021 7:30:00 AM 1.48 34.664 0.089 6.6 0.7 13.98
3/10/2021 7:45:00 AM 1.48 34.664 0.089 6.62 0.65 14
3/10/2021 8:00:00 AM 1.49 34.682 0.089 6.63 0.68 14.03
3/10/2021 8:15:00 AM 1.51 34.718 0.089 6.63 0.65 14.03
3/10/2021 8:30:00 AM 1.55 34.79 0.089 6.63 0.66 14.05
3/10/2021 8:45:00 AM 1.6 34.88 0.088 6.64 0.6 14.05
3/10/2021 9:00:00 AM 1.67 35.006 0.088 6.65 0.69 14.04
3/10/2021 9:15:00 AM 1.75 35.15 0.088 6.66 0.65 14.02
3/10/2021 9:30:00 AM 1.85 35.33 0.088 6.65 0.63 14
3/10/2021 9:45:00 AM 1.96 35.528 0.088 6.66 0.63 13.97
3/10/2021 10:00:00 AM 2.08 35.744 0.088 6.67 0.62 13.93
3/10/2021 10:15:00 AM 2.22 35.996 0.088 6.67 0.58 13.89
3/10/2021 10:30:00 AM 2.38 36.284 0.088 6.69 0.57 13.82
3/10/2021 10:45:00 AM 2.57 36.626 0.088 6.68 0.58 13.75
3/10/2021 11:00:00 AM 2.78 37.004 0.088 6.69 0.58 13.68
3/10/2021 11:15:00 AM 3.01 37.418 0.088 6.69 0.57 13.6
3/10/2021 11:30:00 AM 3.26 37.868 0.088 6.69 0.54 13.52
3/10/2021 11:45:00 AM 3.49 38.282 0.088 6.69 0.49 13.43
3/10/2021 12:00:00 PM 3.7 38.66 0.087 6.71 0.56 13.36
3/10/2021 12:15:00 PM 3.88 38.984 0.087 6.7 0.55 13.29
3/10/2021 12:30:00 PM 4.03 39.254 0.087 6.71 0.51 13.22
3/10/2021 12:45:00 PM 4.15 39.47 0.087 6.72 0.52 13.16
3/10/2021 1:00:00 PM 4.24 39.632 0.087 6.72 0.56 13.13
3/10/2021 1:15:00 PM 4.29 39.722 0.087 6.74 0.51 13.08
3/10/2021 1:30:00 PM 4.34 39.812 0.087 6.71 0.48 13.07
3/10/2021 1:45:00 PM 4.36 39.848 0.087 6.74 0.57 13.04
3/10/2021 2:00:00 PM 4.38 39.884 0.087 6.7 0.54 13.01
3/10/2021 2:15:00 PM 4.4 39.92 0.087 6.74 0.6 12.98
3/10/2021 2:30:00 PM 4.42 39.956 0.087 6.74 0.59 12.97
3/10/2021 2:45:00 PM 4.42 39.956 0.087 6.71 0.67 12.95
3/10/2021 3:00:00 PM 4.42 39.956 0.087 6.73 0.72 12.94
3/10/2021 3:15:00 PM 4.42 39.956 0.086 6.75 0.72 12.92
3/10/2021 3:30:00 PM 4.41 39.938 0.086 6.71 0.79 12.92
3/10/2021 3:45:00 PM 4.38 39.884 0.086 6.74 0.87 12.92
3/10/2021 4:00:00 PM 4.34 39.812 0.086 6.74 0.87 12.92
3/10/2021 4:15:00 PM 4.29 39.722 0.086 6.73 0.93 12.91
3/10/2021 4:30:00 PM 4.24 39.632 0.086 6.7 1 12.93
3/10/2021 4:45:00 PM 4.19 39.542 0.085 6.72 1.04 12.93
3/10/2021 5:00:00 PM 4.15 39.47 0.085 6.73 1.14 12.94
3/10/2021 5:15:00 PM 4.1 39.38 0.085 6.72 1.2 12.94
3/10/2021 5:30:00 PM 4.05 39.29 0.085 6.72 1.27 12.96
3/10/2021 5:45:00 PM 4 39.2 0.085 6.68 1.38 12.95
3/10/2021 6:00:00 PM 3.94 39.092 0.085 6.68 1.38 12.95
3/10/2021 6:15:00 PM 3.88 38.984 0.084 6.7 1.52 12.96
3/10/2021 6:30:00 PM 3.83 38.894 0.084 6.68 1.65 12.97
3/10/2021 6:45:00 PM 3.78 38.804 0.084 6.63 1.65 12.98
3/10/2021 7:00:00 PM 3.74 38.732 0.084 6.67 1.63 12.99
3/10/2021 7:15:00 PM 3.7 38.66 0.084 6.65 1.69 13
3/10/2021 7:30:00 PM 3.66 38.588 0.083 6.62 1.81 13.02
3/10/2021 7:45:00 PM 3.64 38.552 0.084 6.64 1.9 13.02
3/10/2021 8:00:00 PM 3.61 38.498 0.084 6.64 1.9 13.03
3/10/2021 8:15:00 PM 3.58 38.444 0.084 6.62 1.89 13.04
3/10/2021 8:30:00 PM 3.55 38.39 0.084 6.64 1.96 13.06
3/10/2021 8:45:00 PM 3.52 38.336 0.084 6.61 1.88 13.07
3/10/2021 9:00:00 PM 3.49 38.282 0.084 6.63 1.88 13.07
3/10/2021 9:15:00 PM 3.46 38.228 0.084 6.62 1.88 13.09
3/10/2021 9:30:00 PM 3.43 38.174 0.085 6.61 2.09 13.09
3/10/2021 9:45:00 PM 3.4 38.12 0.085 6.62 2.03 13.11
3/10/2021 10:00:00 PM 3.36 38.048 0.086 6.62 2.05 13.12
3/10/2021 10:15:00 PM 3.32 37.976 0.086 6.61 2.01 13.13
3/10/2021 10:30:00 PM 3.28 37.904 0.086 6.61 2.07 13.15
3/10/2021 10:45:00 PM 3.24 37.832 0.086 6.6 2.05 13.16
3/10/2021 11:00:00 PM 3.2 37.76 0.086 6.62 2.19 13.18
3/10/2021 11:15:00 PM 3.16 37.688 0.086 6.61 1.92 13.19
3/10/2021 11:30:00 PM 3.12 37.616 0.087 6.6 1.87 13.21
3/10/2021 11:45:00 PM 3.07 37.526 0.087 6.6 1.8 13.22
3/11/2021 12:00:00 AM 3.04 37.472 0.087 6.58 1.81 13.24
3/11/2021 12:15:00 AM 3 37.4 0.087 6.61 1.87 13.25
3/11/2021 12:30:00 AM 2.96 37.328 0.087 6.59 1.88 13.27
3/11/2021 12:45:00 AM 2.93 37.274 0.088 6.6 1.85 13.27
3/11/2021 1:00:00 AM 2.9 37.22 0.088 6.59 1.84 13.28
3/11/2021 1:15:00 AM 2.87 37.166 0.088 6.6 1.75 13.29
3/11/2021 1:30:00 AM 2.84 37.112 0.088 6.55 1.79 13.31
3/11/2021 1:45:00 AM 2.81 37.058 0.088 6.61 1.85 13.32
3/11/2021 2:00:00 AM 2.78 37.004 0.088 6.55 1.8 13.32
3/11/2021 2:15:00 AM 2.75 36.95 0.088 6.6 1.7 13.34
3/11/2021 2:30:00 AM 2.73 36.914 0.088 6.59 1.58 13.34
3/11/2021 2:45:00 AM 2.71 36.878 0.088 6.56 1.68 13.35
3/11/2021 3:00:00 AM 2.69 36.842 0.088 6.6 1.6 13.35
3/11/2021 3:15:00 AM 2.67 36.806 0.087 6.57 1.65 13.36
3/11/2021 3:30:00 AM 2.65 36.77 0.087 6.59 1.51 13.36
3/11/2021 3:45:00 AM 2.64 36.752 0.087 6.56 1.55 13.37
3/11/2021 4:00:00 AM 2.62 36.716 0.087 6.59 1.56 13.38
3/11/2021 4:15:00 AM 2.61 36.698 0.087 6.56 1.42 13.38
3/11/2021 4:30:00 AM 2.6 36.68 0.087 6.57 1.42 13.39
3/11/2021 4:45:00 AM 2.59 36.662 0.087 6.58 1.45 13.39
3/11/2021 5:00:00 AM 2.58 36.644 0.086 6.56 1.4 13.4
3/11/2021 5:15:00 AM 2.58 36.644 0.086 6.57 1.62 13.4
3/11/2021 5:30:00 AM 2.57 36.626 0.086 6.57 1.45 13.4
3/11/2021 5:45:00 AM 2.56 36.608 0.086 6.56 1.44 13.4
3/11/2021 6:00:00 AM 2.55 36.59 0.086 6.58 1.39 13.41
3/11/2021 6:15:00 AM 2.54 36.572 0.086 6.54 1.34 13.41
3/11/2021 6:30:00 AM 2.53 36.554 0.086 6.58 1.36 13.41
3/11/2021 6:45:00 AM 2.53 36.554 0.086 6.54 1.48 13.42
3/11/2021 7:00:00 AM 2.53 36.554 0.086 6.58 1.39 13.44
3/11/2021 7:15:00 AM 2.54 36.572 0.086 6.57 1.26 13.46
3/11/2021 7:30:00 AM 2.55 36.59 0.086 6.59 1.25 13.48
3/11/2021 7:45:00 AM 2.57 36.626 0.086 6.57 1.24 13.5
3/11/2021 8:00:00 AM 2.59 36.662 0.086 6.6 1.25 13.51
3/11/2021 8:15:00 AM 2.64 36.752 0.086 6.58 1.17 13.52
3/11/2021 8:30:00 AM 2.69 36.842 0.086 6.59 1.16 13.51
3/11/2021 8:45:00 AM 2.75 36.95 0.087 6.62 1.15 13.51
3/11/2021 9:00:00 AM 2.83 37.094 0.087 6.61 1.16 13.5
3/11/2021 9:15:00 AM 2.93 37.274 0.087 6.61 1.12 13.48
3/11/2021 9:30:00 AM 3.02 37.436 0.087 6.61 1.08 13.44
3/11/2021 9:45:00 AM 3.12 37.616 0.087 6.64 1.1 13.41
3/11/2021 10:00:00 AM 3.24 37.832 0.087 6.64 1.17 13.37
3/11/2021 10:15:00 AM 3.39 38.102 0.087 6.66 1.11 13.32
3/11/2021 10:30:00 AM 3.55 38.39 0.087 6.66 1.2 13.26
3/11/2021 10:45:00 AM 3.73 38.714 0.087 6.64 1.13 13.21
3/11/2021 11:00:00 AM 3.92 39.056 0.087 6.67 1.11 13.14
3/11/2021 11:15:00 AM 4.12 39.416 0.087 6.68 1.14 13.08
3/11/2021 11:30:00 AM 4.33 39.794 0.087 6.69 1.19 13
3/11/2021 11:45:00 AM 4.53 40.154 0.086 6.7 1.18 12.93
3/11/2021 12:00:00 PM 4.72 40.496 0.086 6.7 1.17 12.88
3/11/2021 12:15:00 PM 4.83 40.694 0.086 6.71 1.23 12.82
3/11/2021 12:30:00 PM 4.91 40.838 0.086 6.72 1.22 12.79
3/11/2021 12:45:00 PM 4.99 40.982 0.086 6.71 1.35 12.75
3/11/2021 1:00:00 PM 5.06 41.108 0.086 6.73 1.34 12.72
3/11/2021 1:15:00 PM 5.15 41.27 0.086 6.71 1.65 12.68
3/11/2021 1:30:00 PM 5.2 41.36 0.085 6.73 1.8 12.65
3/11/2021 1:45:00 PM 5.21 41.378 0.085 6.71 1.77 12.62
3/11/2021 2:00:00 PM 5.24 41.432 0.085 6.73 1.92 12.6
3/11/2021 2:15:00 PM 5.21 41.378 0.085 6.73 2.15 12.6
3/11/2021 2:30:00 PM 5.15 41.27 0.084 6.65 2.12 12.59
3/11/2021 2:45:00 PM 5.1 41.18 0.084 6.69 2.5 12.58
3/11/2021 3:00:00 PM 5.07 41.126 0.084 6.69 2.85 12.59
3/11/2021 3:15:00 PM 5.02 41.036 0.084 6.68 3.28 12.61
3/11/2021 3:30:00 PM 4.98 40.964 0.083 6.7 3.34 12.62
3/11/2021 3:45:00 PM 4.96 40.928 0.083 6.69 3.49 12.63
3/11/2021 4:00:00 PM 4.94 40.892 0.083 6.67 3.79 12.64
3/11/2021 4:15:00 PM 4.9 40.82 0.082 6.65 3.97 12.65
3/11/2021 4:30:00 PM 4.88 40.784 0.082 6.66 4.29 12.63
3/11/2021 4:45:00 PM 4.87 40.766 0.082 6.67 4.83 12.62
3/11/2021 5:00:00 PM 4.86 40.748 0.082 6.64 4.61 12.61
3/11/2021 5:15:00 PM 4.83 40.694 0.081 6.65 5.05 12.6
3/11/2021 5:30:00 PM 4.79 40.622 0.081 6.57 5.01 12.6
3/11/2021 5:45:00 PM 4.77 40.586 0.081 6.63 5.31 12.61
3/11/2021 6:00:00 PM 4.73 40.514 0.081 6.62 5.32 12.61
3/11/2021 6:15:00 PM 4.67 40.406 0.081 6.56 5.63 12.62
3/11/2021 6:30:00 PM 4.62 40.316 0.081 6.6 5.9 12.64
3/11/2021 6:45:00 PM 4.57 40.226 0.081 6.54 6.02 12.65
3/11/2021 7:00:00 PM 4.51 40.118 0.081 6.58 5.39 12.67
3/11/2021 7:15:00 PM 4.46 40.028 0.082 6.57 5.68 12.69
3/11/2021 7:30:00 PM 4.41 39.938 0.082 6.53 5.86 12.7
3/11/2021 7:45:00 PM 4.37 39.866 0.082 6.55 5.8 12.71
3/11/2021 8:00:00 PM 4.32 39.776 0.082 6.57 5.85 12.72
3/11/2021 8:15:00 PM 4.26 39.668 0.082 6.55 6.28 12.75
3/11/2021 8:30:00 PM 4.21 39.578 0.082 6.54 5.98 12.77
3/11/2021 8:45:00 PM 4.15 39.47 0.082 6.52 6.06 12.79
3/11/2021 9:00:00 PM 4.09 39.362 0.082 6.54 6.01 12.81
3/11/2021 9:15:00 PM 4.04 39.272 0.082 6.53 5.97 12.83
3/11/2021 9:30:00 PM 3.98 39.164 0.082 6.55 6.09 12.84
3/11/2021 9:45:00 PM 3.93 39.074 0.082 6.53 6.39 12.86
3/11/2021 10:00:00 PM 3.89 39.002 0.081 6.49 6.1 12.88
3/11/2021 10:15:00 PM 3.85 38.93 0.081 6.53 6.3 12.89
3/11/2021 10:30:00 PM 3.81 38.858 0.081 6.47 5.63 12.91
3/11/2021 10:45:00 PM 3.78 38.804 0.08 6.53 5.98 12.92
3/11/2021 11:00:00 PM 3.75 38.75 0.08 6.47 5.71 12.94
3/11/2021 11:15:00 PM 3.72 38.696 0.08 6.5 5.47 12.94
3/11/2021 11:30:00 PM 3.69 38.642 0.079 6.51 5.3 12.95
3/11/2021 11:45:00 PM 3.67 38.606 0.079 6.45 5.34 12.96
3/12/2021 12:00:00 AM 3.65 38.57 0.079 6.5 5.1 12.97
3/12/2021 12:15:00 AM 3.63 38.534 0.079 6.49 5.08 12.97
3/12/2021 12:30:00 AM 3.61 38.498 0.079 6.48 4.82 12.98
3/12/2021 12:45:00 AM 3.6 38.48 0.079 6.47 5.29 12.98
3/12/2021 1:00:00 AM 3.59 38.462 0.079 6.49 4.76 12.99
3/12/2021 1:15:00 AM 3.58 38.444 0.079 6.43 4.62 12.99
3/12/2021 1:30:00 AM 3.58 38.444 0.078 6.49 4.56 12.99
3/12/2021 1:45:00 AM 3.58 38.444 0.078 6.43 4.43 13
3/12/2021 2:00:00 AM 3.58 38.444 0.078 6.48 4.33 13
3/12/2021 2:15:00 AM 3.57 38.426 0.078 6.46 4.21 13
3/12/2021 2:30:00 AM 3.57 38.426 0.078 6.48 4.3 12.99
3/12/2021 2:45:00 AM 3.57 38.426 0.078 6.45 4.57 13
3/12/2021 3:00:00 AM 3.58 38.444 0.078 6.48 4.34 13
3/12/2021 3:15:00 AM 3.58 38.444 0.078 6.45 4.56 12.99
3/12/2021 3:30:00 AM 3.58 38.444 0.078 6.46 4.56 13
3/12/2021 3:45:00 AM 3.59 38.462 0.078 6.48 4.68 12.99
3/12/2021 4:00:00 AM 3.59 38.462 0.078 6.43 4.45 12.99
3/12/2021 4:15:00 AM 3.6 38.48 0.078 6.47 4.35 12.99
3/12/2021 4:30:00 AM 3.62 38.516 0.078 6.45 4.76 12.99
3/12/2021 4:45:00 AM 3.63 38.534 0.078 6.43 4.45 12.99
3/12/2021 5:00:00 AM 3.64 38.552 0.078 6.47 4.28 12.99
3/12/2021 5:15:00 AM 3.64 38.552 0.078 6.45 4.35 12.99
3/12/2021 5:30:00 AM 3.64 38.552 0.078 6.46 4.75 13
3/12/2021 5:45:00 AM 3.64 38.552 0.078 6.44 4.56 13
3/12/2021 6:00:00 AM 3.64 38.552 0.078 6.47 4.32 13
3/12/2021 6:15:00 AM 3.64 38.552 0.078 6.41 4.72 13
3/12/2021 6:30:00 AM 3.62 38.516 0.078 6.45 4.63 13.01
3/12/2021 6:45:00 AM 3.6 38.48 0.078 6.47 4.4 13.02
3/12/2021 7:00:00 AM 3.57 38.426 0.078 6.46 4.51 13.05
3/12/2021 7:15:00 AM 3.55 38.39 0.078 6.45 4.26 13.06
3/12/2021 7:30:00 AM 3.53 38.354 0.078 6.43 4.41 13.08
3/12/2021 7:45:00 AM 3.52 38.336 0.078 6.46 4.03 13.09
3/12/2021 8:00:00 AM 3.51 38.318 0.078 6.44 4.17 13.12
3/12/2021 8:15:00 AM 3.52 38.336 0.078 6.47 4.08 13.13
3/12/2021 8:30:00 AM 3.53 38.354 0.078 6.45 4.18 13.13
3/12/2021 8:45:00 AM 3.57 38.426 0.078 6.46 4.21 13.13
3/12/2021 9:00:00 AM 3.62 38.516 0.078 6.41 4.02 13.13
3/12/2021 9:15:00 AM 3.67 38.606 0.078 6.46 3.9 13.13
3/12/2021 9:30:00 AM 3.74 38.732 0.078 6.47 4.15 13.11
3/12/2021 9:45:00 AM 3.83 38.894 0.078 6.46 4.12 13.09
3/12/2021 10:00:00 AM 3.92 39.056 0.078 6.49 3.92 13.07
3/12/2021 10:15:00 AM 4.01 39.218 0.078 6.48 3.74 13.03
3/12/2021 10:30:00 AM 4.12 39.416 0.078 6.48 3.68 13
3/12/2021 10:45:00 AM 4.23 39.614 0.078 6.49 3.55 12.97
3/12/2021 11:00:00 AM 4.35 39.83 0.078 6.5 3.65 12.92
3/12/2021 11:15:00 AM 4.48 40.064 0.078 6.49 3.35 12.89
3/12/2021 11:30:00 AM 4.59 40.262 0.078 6.51 3.44 12.85
3/12/2021 11:45:00 AM 4.7 40.46 0.078 6.48 3.43 12.82
3/12/2021 12:00:00 PM 4.8 40.64 0.078 6.49 3.37 12.79
3/12/2021 12:15:00 PM 4.89 40.802 0.077 6.51 3.51 12.74
3/12/2021 12:30:00 PM 4.97 40.946 0.077 6.5 3.27 12.72
3/12/2021 12:45:00 PM 5.04 41.072 0.078 6.49 3.34 12.68
3/12/2021 1:00:00 PM 5.1 41.18 0.078 6.49 3.34 12.65
3/12/2021 1:15:00 PM 5.15 41.27 0.077 6.49 3.26 12.62
3/12/2021 1:30:00 PM 5.2 41.36 0.077 6.5 3.44 12.59
3/12/2021 1:45:00 PM 5.23 41.414 0.077 6.51 3.52 12.57
3/12/2021 2:00:00 PM 5.26 41.468 0.077 6.48 3.49 12.55
3/12/2021 2:15:00 PM 5.28 41.504 0.077 6.51 3.48 12.52
3/12/2021 2:30:00 PM 5.29 41.522 0.077 6.5 3.71 12.51
3/12/2021 2:45:00 PM 5.31 41.558 0.077 6.51 3.87 12.5
3/12/2021 3:00:00 PM 5.33 41.594 0.077 6.5 3.81 12.48
3/12/2021 3:15:00 PM 5.34 41.612 0.077 6.47 4.2 12.47
3/12/2021 3:30:00 PM 5.35 41.63 0.077 6.47 3.99 12.46
3/12/2021 3:45:00 PM 5.35 41.63 0.032 6.49 5.74 12.45
3/12/2021 4:00:00 PM 5.35 41.63 0.077 6.49 4.64 12.43
3/12/2021 4:15:00 PM 5.34 41.612 0.077 6.48 4.5 12.43
3/12/2021 4:30:00 PM 5.32 41.576 0.077 6.47 4.61 12.43
3/12/2021 4:45:00 PM 5.3 41.54 0.077 6.47 5 12.43
3/12/2021 5:00:00 PM 5.27 41.486 0.077 6.46 4.67 12.43
3/12/2021 5:15:00 PM 5.24 41.432 0.077 6.46 4.51 12.44
3/12/2021 5:30:00 PM 5.2 41.36 0.077 6.46 4.93 12.45
3/12/2021 5:45:00 PM 5.16 41.288 0.076 6.44 4.48 12.45
3/12/2021 6:00:00 PM 5.11 41.198 0.076 6.44 4.73 12.47
3/12/2021 6:15:00 PM 5.06 41.108 0.076 6.41 4.58 12.48
3/12/2021 6:30:00 PM 5 41 0.076 6.44 4.53 12.5
3/12/2021 6:45:00 PM 4.94 40.892 0.076 6.43 4.96 12.51
3/12/2021 7:00:00 PM 4.87 40.766 0.076 6.43 4.98 12.54
3/12/2021 7:15:00 PM 4.81 40.658 0.076 6.41 4.63 12.56
3/12/2021 7:30:00 PM 4.74 40.532 0.076 6.42 4.33 12.59
3/12/2021 7:45:00 PM 4.68 40.424 0.076 6.42 4.19 12.61
3/12/2021 8:00:00 PM 4.62 40.316 0.076 6.42 4.2 12.63
3/12/2021 8:15:00 PM 4.56 40.208 0.076 6.41 4.4 12.66
3/12/2021 8:30:00 PM 4.5 40.1 0.076 6.42 4.07 12.68
3/12/2021 8:45:00 PM 4.44 39.992 0.031 6.41 3.88 12.7
3/12/2021 9:00:00 PM 4.38 39.884 0.076 6.41 3.95 12.73
3/12/2021 9:15:00 PM 4.33 39.794 0.076 6.39 4.17 12.75
3/12/2021 9:30:00 PM 4.27 39.686 0.076 6.41 3.75 12.76
3/12/2021 9:45:00 PM 4.22 39.596 0.076 6.4 3.65 12.79
3/12/2021 10:00:00 PM 4.17 39.506 0.076 6.41 3.48 12.81
3/12/2021 10:15:00 PM 4.12 39.416 0.076 6.41 3.49 12.83
3/12/2021 10:30:00 PM 4.07 39.326 0.076 6.39 3.14 12.86
3/12/2021 10:45:00 PM 4.02 39.236 0.076 6.35 3.13 12.87
3/12/2021 11:00:00 PM 3.98 39.164 0.076 6.4 3.07 12.89
3/12/2021 11:15:00 PM 3.93 39.074 0.076 6.39 3.09 12.9
3/12/2021 11:30:00 PM 3.88 38.984 0.076 6.41 3.06 12.93
3/12/2021 11:45:00 PM 3.83 38.894 0.076 6.4 3.05 12.95
3/13/2021 12:00:00 AM 3.78 38.804 0.076 6.35 2.89 12.97
3/13/2021 12:15:00 AM 3.72 38.696 0.076 6.39 3.05 12.99
3/13/2021 12:30:00 AM 3.66 38.588 0.076 6.4 2.82 13.01
3/13/2021 12:45:00 AM 3.6 38.48 0.076 6.37 2.71 13.03
3/13/2021 1:00:00 AM 3.55 38.39 0.076 6.38 2.92 13.05
3/13/2021 1:15:00 AM 3.48 38.264 0.076 6.4 2.72 13.08
3/13/2021 1:30:00 AM 3.42 38.156 0.076 6.39 2.59 13.11
3/13/2021 1:45:00 AM 3.36 38.048 0.076 6.39 2.64 13.13
3/13/2021 2:00:00 AM 3.3 37.94 0.076 6.37 2.72 13.16
3/13/2021 2:15:00 AM 3.24 37.832 0.076 6.39 2.74 13.18
3/13/2021 2:30:00 AM 3.18 37.724 0.076 6.38 2.58 13.21
3/13/2021 2:45:00 AM 3.12 37.616 0.076 6.38 2.67 13.23
3/13/2021 3:00:00 AM 3.06 37.508 0.076 6.39 2.5 13.25
3/13/2021 3:15:00 AM 2.99 37.382 0.075 6.39 2.48 13.28
3/13/2021 3:30:00 AM 2.93 37.274 0.075 6.39 2.42 13.31
3/13/2021 3:45:00 AM 2.86 37.148 0.075 6.37 2.5 13.33
3/13/2021 4:00:00 AM 2.79 37.022 0.075 6.38 2.32 13.36
3/13/2021 4:15:00 AM 2.72 36.896 0.075 6.38 2.26 13.39
3/13/2021 4:30:00 AM 2.65 36.77 0.075 6.39 2.25 13.42
3/13/2021 4:45:00 AM 2.58 36.644 0.075 6.38 2.41 13.44
3/13/2021 5:00:00 AM 2.51 36.518 0.075 6.37 2.35 13.47
3/13/2021 5:15:00 AM 2.44 36.392 0.075 6.39 2.36 13.5
3/13/2021 5:30:00 AM 2.37 36.266 0.075 6.35 2.3 13.53
3/13/2021 5:45:00 AM 2.31 36.158 0.076 6.37 2.22 13.55
3/13/2021 6:00:00 AM 2.24 36.032 0.076 6.39 2.31 13.58
3/13/2021 6:15:00 AM 2.18 35.924 0.076 6.39 2.42 13.6
3/13/2021 6:30:00 AM 2.13 35.834 0.076 6.39 2.21 13.63
3/13/2021 6:45:00 AM 2.07 35.726 0.076 6.38 2.21 13.66
3/13/2021 7:00:00 AM 2.02 35.636 0.076 6.39 2.07 13.69
3/13/2021 7:15:00 AM 1.96 35.528 0.076 6.38 2.04 13.73
3/13/2021 7:30:00 AM 1.92 35.456 0.077 6.4 2.13 13.76
3/13/2021 7:45:00 AM 1.88 35.384 0.077 6.41 2.12 13.77
3/13/2021 8:00:00 AM 1.85 35.33 0.077 6.4 2.19 13.8
3/13/2021 8:15:00 AM 1.84 35.312 0.077 6.4 2 13.82
3/13/2021 8:30:00 AM 1.84 35.312 0.077 6.42 1.93 13.85
3/13/2021 8:45:00 AM 1.85 35.33 0.077 6.4 1.8 13.85
3/13/2021 9:00:00 AM 1.87 35.366 0.077 6.42 1.77 13.87
3/13/2021 9:15:00 AM 1.91 35.438 0.077 6.43 1.84 13.85
3/13/2021 9:30:00 AM 1.96 35.528 0.077 6.41 1.8 13.86
3/13/2021 9:45:00 AM 2.03 35.654 0.077 6.39 1.8 13.83
3/13/2021 10:00:00 AM 2.11 35.798 0.077 6.42 1.67 13.81
3/13/2021 10:15:00 AM 2.2 35.96 0.077 6.45 1.7 13.77
3/13/2021 10:30:00 AM 2.3 36.14 0.077 6.45 1.64 13.74
3/13/2021 10:45:00 AM 2.42 36.356 0.077 6.46 1.66 13.69
3/13/2021 11:00:00 AM 2.55 36.59 0.076 6.46 1.55 13.65
3/13/2021 11:15:00 AM 2.68 36.824 0.076 6.41 1.63 13.61
3/13/2021 11:30:00 AM 2.81 37.058 0.076 6.47 1.59 13.56
3/13/2021 11:45:00 AM 2.93 37.274 0.076 6.47 1.49 13.53
3/13/2021 12:00:00 PM 3.03 37.454 0.075 6.47 1.59 13.48
3/13/2021 12:15:00 PM 3.12 37.616 0.075 6.45 1.5 13.45
3/13/2021 12:30:00 PM 3.19 37.742 0.075 6.46 1.55 13.41
3/13/2021 12:45:00 PM 3.24 37.832 0.075 6.43 1.71 13.38
3/13/2021 1:00:00 PM 3.28 37.904 0.074 6.47 1.77 13.35
3/13/2021 1:15:00 PM 3.32 37.976 0.073 6.45 1.84 13.32
3/13/2021 1:30:00 PM 3.35 38.03 0.072 6.45 1.84 13.3
3/13/2021 1:45:00 PM 3.37 38.066 0.071 6.45 1.72 13.28
3/13/2021 2:00:00 PM 3.4 38.12 0.07 6.44 1.88 13.26
3/13/2021 2:15:00 PM 3.42 38.156 0.07 6.44 1.87 13.23
3/13/2021 2:30:00 PM 3.44 38.192 0.069 6.42 1.85 13.22
3/13/2021 2:45:00 PM 3.46 38.228 0.069 6.43 1.89 13.2
3/13/2021 3:00:00 PM 3.47 38.246 0.069 6.45 1.97 13.18
3/13/2021 3:15:00 PM 3.48 38.264 0.069 6.43 1.81 13.17
3/13/2021 3:30:00 PM 3.49 38.282 0.069 6.4 1.85 13.16
3/13/2021 3:45:00 PM 3.5 38.3 0.069 6.44 1.83 13.15
3/13/2021 4:00:00 PM 3.5 38.3 0.07 6.44 1.82 13.13
3/13/2021 4:15:00 PM 3.51 38.318 0.07 6.43 1.72 13.12
3/13/2021 4:30:00 PM 3.52 38.336 0.07 6.43 1.75 13.11
3/13/2021 4:45:00 PM 3.52 38.336 0.07 6.45 1.7 13.1
3/13/2021 5:00:00 PM 3.53 38.354 0.07 6.45 1.79 13.09
3/13/2021 5:15:00 PM 3.53 38.354 0.07 6.44 1.65 13.08
3/13/2021 5:30:00 PM 3.53 38.354 0.07 6.4 1.72 13.08
3/13/2021 5:45:00 PM 3.52 38.336 0.07 6.45 1.63 13.06
3/13/2021 6:00:00 PM 3.52 38.336 0.07 6.4 1.73 13.06
3/13/2021 6:15:00 PM 3.5 38.3 0.07 6.42 1.64 13.05
3/13/2021 6:30:00 PM 3.49 38.282 0.07 6.42 1.76 13.05
3/13/2021 6:45:00 PM 3.47 38.246 0.07 6.42 1.67 13.04
3/13/2021 7:00:00 PM 3.44 38.192 0.07 6.43 1.69 13.05
3/13/2021 7:15:00 PM 3.4 38.12 0.07 6.42 1.65 13.06
3/13/2021 7:30:00 PM 3.37 38.066 0.07 6.43 1.64 13.07
3/13/2021 7:45:00 PM 3.33 37.994 0.07 6.42 1.7 13.09
3/13/2021 8:00:00 PM 3.29 37.922 0.07 6.43 1.63 13.1
3/13/2021 8:15:00 PM 3.24 37.832 0.07 6.42 1.68 13.11
3/13/2021 8:30:00 PM 3.2 37.76 0.07 6.43 1.62 13.13
3/13/2021 8:45:00 PM 3.15 37.67 0.07 6.42 1.82 13.14
3/13/2021 9:00:00 PM 3.1 37.58 0.07 6.42 1.66 13.16
3/13/2021 9:15:00 PM 3.06 37.508 0.07 6.4 1.71 13.18
3/13/2021 9:30:00 PM 3.01 37.418 0.07 6.43 1.78 13.19
3/13/2021 9:45:00 PM 2.97 37.346 0.07 6.42 1.7 13.2
3/13/2021 10:00:00 PM 2.93 37.274 0.07 6.43 1.78 13.21
3/13/2021 10:15:00 PM 2.89 37.202 0.07 6.43 1.74 13.23
3/13/2021 10:30:00 PM 2.85 37.13 0.07 6.43 1.69 13.25
3/13/2021 10:45:00 PM 2.8 37.04 0.07 6.41 1.65 13.26
3/13/2021 11:00:00 PM 2.76 36.968 0.07 6.44 1.72 13.27
3/13/2021 11:15:00 PM 2.72 36.896 0.07 6.42 1.57 13.29
3/13/2021 11:30:00 PM 2.68 36.824 0.07 6.43 1.67 13.31
3/13/2021 11:45:00 PM 2.63 36.734 0.07 6.43 1.64 13.32
3/14/2021 12:00:00 AM 2.59 36.662 0.07 6.43 1.56 13.34
3/14/2021 12:15:00 AM 2.55 36.59 0.07 6.43 1.68 13.35
3/14/2021 12:30:00 AM 2.51 36.518 0.07 6.42 1.68 13.37
3/14/2021 12:45:00 AM 2.48 36.464 0.07 6.43 1.57 13.38
3/14/2021 1:00:00 AM 2.46 36.428 0.07 6.37 1.56 13.39
3/14/2021 1:15:00 AM 2.44 36.392 0.07 6.41 1.55 13.39
3/14/2021 1:30:00 AM 2.42 36.356 0.07 6.42 1.61 13.4
3/14/2021 1:45:00 AM 2.39 36.302 0.07 6.43 1.5 13.41
3/14/2021 3:00:00 AM 2.29 36.122 0.07 6.44 1.47 13.42
3/14/2021 3:15:00 AM 2.28 36.104 0.07 6.43 1.43 13.44
3/14/2021 3:30:00 AM 2.26 36.068 0.07 6.44 1.53 13.44
3/14/2021 3:45:00 AM 2.24 36.032 0.07 6.44 1.42 13.44
3/14/2021 4:00:00 AM 2.23 36.014 0.07 6.37 1.53 13.45
3/14/2021 5:15:00 AM 2.21 35.978 0.07 6.44 1.47 13.45
3/14/2021 5:30:00 AM 2.19 35.942 0.07 6.44 1.47 13.46
3/14/2021 5:45:00 AM 2.17 35.906 0.07 6.42 1.42 13.47
3/14/2021 6:00:00 AM 2.15 35.87 0.07 6.45 1.35 13.47
3/14/2021 6:15:00 AM 2.13 35.834 0.069 6.43 1.38 13.48
3/14/2021 6:30:00 AM 2.11 35.798 0.069 6.45 1.39 13.49
3/14/2021 6:45:00 AM 2.1 35.78 0.069 6.45 1.42 13.49
3/14/2021 7:00:00 AM 2.08 35.744 0.069 6.42 1.35 13.49
3/14/2021 7:15:00 AM 2.06 35.708 0.069 6.45 1.34 13.5
3/14/2021 7:30:00 AM 2.04 35.672 0.069 6.43 1.38 13.51
3/14/2021 7:45:00 AM 2.03 35.654 0.069 6.46 1.33 13.53
3/14/2021 8:00:00 AM 2.01 35.618 0.069 6.45 1.38 13.55
3/14/2021 8:15:00 AM 2.01 35.618 0.069 6.45 1.31 13.57
3/14/2021 8:30:00 AM 2 35.6 0.069 6.46 1.3 13.58
3/14/2021 8:45:00 AM 2.01 35.618 0.069 6.46 1.38 13.6
3/14/2021 9:00:00 AM 2.02 35.636 0.069 6.48 1.31 13.61
3/14/2021 9:15:00 AM 2.05 35.69 0.069 6.47 1.32 13.61
3/14/2021 9:30:00 AM 2.08 35.744 0.069 6.49 1.15 13.62
3/14/2021 9:45:00 AM 2.14 35.852 0.069 6.5 1.16 13.61
3/14/2021 10:00:00 AM 2.21 35.978 0.069 6.44 1.06 13.6
3/14/2021 10:15:00 AM 2.29 36.122 0.069 6.51 1.16 13.58
3/14/2021 10:30:00 AM 2.38 36.284 0.069 6.52 1.2 13.56
3/14/2021 10:45:00 AM 2.49 36.482 0.069 6.52 1.13 13.52
3/14/2021 11:00:00 AM 2.62 36.716 0.069 6.51 1.12 13.48
3/14/2021 11:15:00 AM 2.76 36.968 0.069 6.54 1.18 13.44
3/14/2021 11:30:00 AM 2.91 37.238 0.069 6.54 1.07 13.39
3/14/2021 11:45:00 AM 3.07 37.526 0.069 6.53 1.12 13.33
3/14/2021 12:00:00 PM 3.25 37.85 0.069 6.51 1.1 13.27
3/14/2021 12:15:00 PM 3.43 38.174 0.069 6.55 1.16 13.22
3/14/2021 12:30:00 PM 3.61 38.498 0.068 6.54 1.16 13.16
3/14/2021 12:45:00 PM 3.75 38.75 0.068 6.56 1.1 13.1
3/14/2021 1:00:00 PM 3.84 38.912 0.068 6.57 1.12 13.06
3/14/2021 1:15:00 PM 3.99 39.182 0.068 6.57 1.06 13.03
3/14/2021 1:30:00 PM 4.02 39.236 0.068 6.56 1.09 12.99
3/14/2021 1:45:00 PM 4.03 39.254 0.068 6.57 1.08 12.98
3/14/2021 2:00:00 PM 4.06 39.308 0.068 6.57 1.1 12.97
3/14/2021 2:15:00 PM 4.11 39.398 0.068 6.58 1.07 12.94
3/14/2021 2:30:00 PM 4.19 39.542 0.068 6.56 1.1 12.9
3/14/2021 2:45:00 PM 4.22 39.596 0.068 6.58 1.12 12.88
3/14/2021 3:00:00 PM 4.27 39.686 0.068 6.56 1.16 12.87
3/14/2021 3:15:00 PM 4.33 39.794 0.068 6.57 1.13 12.84
3/14/2021 3:30:00 PM 4.38 39.884 0.068 6.57 1.16 12.81
3/14/2021 3:45:00 PM 4.4 39.92 0.068 6.54 1.17 12.8
3/14/2021 4:00:00 PM 4.4 39.92 0.068 6.58 1.18 12.79
3/14/2021 4:15:00 PM 4.39 39.902 0.068 6.57 1.14 12.79
3/14/2021 4:30:00 PM 4.4 39.92 0.068 6.57 1.2 12.78
3/14/2021 4:45:00 PM 4.38 39.884 0.068 6.58 1.18 12.79
3/14/2021 5:00:00 PM 4.37 39.866 0.068 6.58 1.17 12.79
3/14/2021 5:15:00 PM 4.33 39.794 0.068 6.54 1.42 12.77
3/14/2021 5:30:00 PM 4.31 39.758 0.068 6.55 1.27 12.77
3/14/2021 5:45:00 PM 4.27 39.686 0.068 6.56 1.25 12.77
3/14/2021 6:00:00 PM 4.22 39.596 0.068 6.55 1.34 12.78
3/14/2021 6:15:00 PM 4.17 39.506 0.068 6.55 1.27 12.78
3/14/2021 6:30:00 PM 4.11 39.398 0.068 6.53 1.3 12.8
3/14/2021 6:45:00 PM 4.07 39.326 0.068 6.53 1.23 12.8
3/14/2021 7:00:00 PM 4.01 39.218 0.068 6.53 1.39 12.82
3/14/2021 7:15:00 PM 3.95 39.11 0.068 6.48 1.28 12.83
3/14/2021 7:30:00 PM 3.87 38.966 0.068 6.51 1.32 12.86
3/14/2021 7:45:00 PM 3.79 38.822 0.068 6.52 1.27 12.89
3/14/2021 8:00:00 PM 3.7 38.66 0.068 6.49 1.34 12.92
3/14/2021 8:15:00 PM 3.61 38.498 0.068 6.5 1.35 12.95
3/14/2021 8:30:00 PM 3.52 38.336 0.068 6.47 1.29 12.99
3/14/2021 8:45:00 PM 3.44 38.192 0.067 6.49 1.47 13.02
3/14/2021 9:00:00 PM 3.37 38.066 0.067 6.51 1.28 13.05
3/14/2021 9:15:00 PM 3.28 37.904 0.067 6.49 1.24 13.08
3/14/2021 9:30:00 PM 3.21 37.778 0.067 6.5 1.31 13.11
3/14/2021 9:45:00 PM 3.12 37.616 0.067 6.49 1.27 13.15
3/14/2021 10:00:00 PM 3.04 37.472 0.067 6.51 1.25 13.19
3/14/2021 10:15:00 PM 2.95 37.31 0.067 6.5 1.26 13.22
3/14/2021 10:30:00 PM 2.87 37.166 0.067 6.5 1.28 13.26
3/14/2021 10:45:00 PM 2.8 37.04 0.067 6.48 1.26 13.29
3/14/2021 11:00:00 PM 2.72 36.896 0.067 6.48 1.33 13.33
3/14/2021 11:15:00 PM 2.65 36.77 0.067 6.48 1.26 13.36
3/14/2021 11:30:00 PM 2.58 36.644 0.067 6.49 1.24 13.39
3/14/2021 11:45:00 PM 2.51 36.518 0.067 6.49 1.26 13.41
3/15/2021 12:00:00 AM 2.43 36.374 0.067 6.5 1.19 13.45
3/15/2021 12:15:00 AM 2.35 36.23 0.067 6.5 1.24 13.48
3/15/2021 12:30:00 AM 2.27 36.086 0.067 6.48 1.22 13.51
3/15/2021 12:45:00 AM 2.19 35.942 0.067 6.48 1.17 13.54
3/15/2021 1:00:00 AM 2.12 35.816 0.067 6.48 1.23 13.57
3/15/2021 1:15:00 AM 2.05 35.69 0.067 6.48 1.2 13.6
3/15/2021 1:30:00 AM 1.97 35.546 0.067 6.48 1.19 13.64
3/15/2021 1:45:00 AM 1.9 35.42 0.067 6.49 1.15 13.67
3/15/2021 2:00:00 AM 1.83 35.294 0.067 6.47 1.12 13.7
3/15/2021 2:15:00 AM 1.76 35.168 0.067 6.49 1.16 13.72
3/15/2021 2:30:00 AM 1.7 35.06 0.067 6.49 1.25 13.74
3/15/2021 2:45:00 AM 1.65 34.97 0.067 6.49 1.12 13.77
3/15/2021 3:00:00 AM 1.58 34.844 0.067 6.43 1.15 13.79
3/15/2021 3:15:00 AM 1.52 34.736 0.067 6.49 1.15 13.83
3/15/2021 3:30:00 AM 1.45 34.61 0.067 6.49 1.21 13.86
3/15/2021 3:45:00 AM 1.38 34.484 0.067 6.47 1.23 13.88
3/15/2021 4:00:00 AM 1.32 34.376 0.068 6.49 1.21 13.9
3/15/2021 4:15:00 AM 1.26 34.268 0.068 6.49 1.17 13.93
3/15/2021 4:30:00 AM 1.2 34.16 0.068 6.48 1.25 13.95
3/15/2021 4:45:00 AM 1.14 34.052 0.068 6.46 1.13 13.97
3/15/2021 5:00:00 AM 1.08 33.944 0.068 6.48 1.19 14
3/15/2021 5:15:00 AM 1.02 33.836 0.069 6.48 1.13 14.03
3/15/2021 5:30:00 AM 0.96 33.728 0.069 6.47 1.15 14.05
3/15/2021 5:45:00 AM 0.91 33.638 0.069 6.48 1.11 14.08
3/15/2021 6:00:00 AM 0.85 33.53 0.069 6.48 1.15 14.1
3/15/2021 6:15:00 AM 0.8 33.44 0.069 6.48 1.05 14.13
3/15/2021 6:30:00 AM 0.74 33.332 0.069 6.49 1.15 14.15
3/15/2021 6:45:00 AM 0.68 33.224 0.069 6.48 1.09 14.18
3/15/2021 7:00:00 AM 0.63 33.134 0.069 6.48 1.07 14.21
3/15/2021 7:15:00 AM 0.58 33.044 0.07 6.47 1.15 14.23
3/15/2021 7:30:00 AM 0.54 32.972 0.07 6.49 1.1 14.25
3/15/2021 7:45:00 AM 0.5 32.9 0.07 6.48 1.22 14.29
3/15/2021 8:00:00 AM 0.46 32.828 0.07 6.48 1.12 14.33
3/15/2021 8:15:00 AM 0.43 32.774 0.07 6.49 1.02 14.36
3/15/2021 8:30:00 AM 0.4 32.72 0.07 6.49 1.12 14.38
3/15/2021 8:45:00 AM 0.37 32.666 0.07 6.51 0.94 14.41
3/15/2021 9:00:00 AM 0.35 32.63 0.07 6.49 0.97 14.44
3/15/2021 9:15:00 AM 0.33 32.594 0.07 6.48 1 14.46
3/15/2021 9:30:00 AM 0.34 32.612 0.07 6.52 0.99 14.48
3/15/2021 9:45:00 AM 0.35 32.63 0.07 6.5 0.91 14.49
3/15/2021 10:00:00 AM 0.38 32.684 0.07 6.52 0.96 14.49
3/15/2021 10:15:00 AM 0.43 32.774 0.07 6.52 0.95 14.49
3/15/2021 10:30:00 AM 0.49 32.882 0.07 6.52 0.87 14.49
3/15/2021 10:45:00 AM 0.56 33.008 0.07 6.53 0.94 14.46
3/15/2021 11:00:00 AM 0.66 33.188 0.07 6.54 0.95 14.43
3/15/2021 11:15:00 AM 0.77 33.386 0.07 6.54 0.94 14.39
3/15/2021 11:30:00 AM 0.89 33.602 0.07 6.53 0.89 14.34
3/15/2021 11:45:00 AM 1.05 33.89 0.07 6.53 0.99 14.29
3/15/2021 12:00:00 PM 1.22 34.196 0.07 6.54 1 14.22
3/15/2021 12:15:00 PM 1.38 34.484 0.07 6.56 0.86 14.17
3/15/2021 12:30:00 PM 1.57 34.826 0.07 6.55 0.91 14.1
3/15/2021 12:45:00 PM 1.74 35.132 0.07 6.56 0.88 14.04
3/15/2021 1:00:00 PM 1.86 35.348 0.07 6.57 0.9 13.98
3/15/2021 1:15:00 PM 1.94 35.492 0.07 6.54 1.05 13.96
3/15/2021 1:30:00 PM 2 35.6 0.069 6.58 1.13 13.92
3/15/2021 1:45:00 PM 2.04 35.672 0.068 6.58 1.1 13.89
3/15/2021 2:00:00 PM 2.07 35.726 0.067 6.58 1.02 13.87
3/15/2021 2:15:00 PM 2.1 35.78 0.066 6.58 1.06 13.85
3/15/2021 2:30:00 PM 2.12 35.816 0.066 6.57 0.98 13.82
3/15/2021 2:45:00 PM 2.13 35.834 0.066 6.56 0.97 13.8
3/15/2021 3:00:00 PM 2.13 35.834 0.065 6.57 1.01 13.79
3/15/2021 3:15:00 PM 2.13 35.834 0.065 6.57 1.05 13.78
3/15/2021 3:30:00 PM 2.11 35.798 0.065 6.57 1.12 13.77
3/15/2021 3:45:00 PM 2.09 35.762 0.065 6.52 1.03 13.77
3/15/2021 4:00:00 PM 2.07 35.726 0.064 6.58 1.03 13.77
3/15/2021 4:15:00 PM 2.05 35.69 0.064 6.53 1.1 13.78
3/15/2021 4:30:00 PM 2.04 35.672 0.064 6.55 0.98 13.78
3/15/2021 4:45:00 PM 2.02 35.636 0.064 6.57 1.04 13.78
3/15/2021 5:00:00 PM 2 35.6 0.064 6.54 1.03 13.77
3/15/2021 5:15:00 PM 1.98 35.564 0.064 6.57 1.1 13.77
3/15/2021 5:30:00 PM 1.96 35.528 0.064 6.53 1.06 13.76
3/15/2021 5:45:00 PM 1.94 35.492 0.065 6.56 1 13.76
3/15/2021 6:00:00 PM 1.92 35.456 0.065 6.53 1.1 13.76
3/15/2021 6:15:00 PM 1.92 35.456 0.065 6.54 0.98 13.75
3/15/2021 6:30:00 PM 1.91 35.438 0.065 6.56 0.98 13.74
3/15/2021 6:45:00 PM 1.9 35.42 0.065 6.55 1.03 13.74
3/15/2021 7:00:00 PM 1.88 35.384 0.065 6.54 0.93 13.73
3/15/2021 7:15:00 PM 1.87 35.366 0.065 6.51 0.98 13.71
3/15/2021 7:30:00 PM 1.85 35.33 0.065 6.53 1 13.7
3/15/2021 7:45:00 PM 1.83 35.294 0.066 6.51 0.96 13.7
3/15/2021 8:00:00 PM 1.8 35.24 0.066 6.51 1.01 13.72
3/15/2021 8:15:00 PM 1.78 35.204 0.066 6.52 1.01 13.72
3/15/2021 8:30:00 PM 1.76 35.168 0.066 6.51 0.93 13.72
3/15/2021 8:45:00 PM 1.73 35.114 0.066 6.52 1.01 13.73
3/15/2021 9:00:00 PM 1.7 35.06 0.066 6.46 0.99 13.75
3/15/2021 9:15:00 PM 1.68 35.024 0.066 6.52 0.99 13.75
3/15/2021 9:30:00 PM 1.64 34.952 0.066 6.52 1.01 13.76
3/15/2021 9:45:00 PM 1.61 34.898 0.066 6.52 1.03 13.78
3/15/2021 10:00:00 PM 1.57 34.826 0.066 6.53 0.95 13.8
3/15/2021 10:15:00 PM 1.53 34.754 0.066 6.5 0.99 13.82
3/15/2021 10:30:00 PM 1.49 34.682 0.066 6.48 0.93 13.83
3/15/2021 10:45:00 PM 1.46 34.628 0.066 6.53 0.98 13.86
3/15/2021 11:00:00 PM 1.42 34.556 0.066 6.52 0.92 13.87
3/15/2021 11:15:00 PM 1.38 34.484 0.066 6.52 0.98 13.88
3/15/2021 11:30:00 PM 1.35 34.43 0.066 6.52 0.95 13.9
3/15/2021 11:45:00 PM 1.32 34.376 0.066 6.52 0.95 13.91
3/16/2021 12:00:00 AM 1.3 34.34 0.066 6.52 0.95 13.91
3/16/2021 12:15:00 AM 1.28 34.304 0.066 6.51 0.93 13.92
3/16/2021 12:30:00 AM 1.27 34.286 0.066 6.52 0.93 13.93
3/16/2021 12:45:00 AM 1.25 34.25 0.066 6.5 0.94 13.93
3/16/2021 1:00:00 AM 1.23 34.214 0.066 6.51 0.9 13.94
3/16/2021 1:15:00 AM 1.21 34.178 0.066 6.51 0.89 13.94
3/16/2021 1:30:00 AM 1.19 34.142 0.066 6.52 0.94 13.95
3/16/2021 1:45:00 AM 1.17 34.106 0.066 6.52 0.99 13.95
3/16/2021 2:00:00 AM 1.16 34.088 0.066 6.52 0.97 13.96
3/16/2021 2:15:00 AM 1.14 34.052 0.066 6.53 0.88 13.97
3/16/2021 2:30:00 AM 1.13 34.034 0.066 6.47 0.91 13.97
3/16/2021 2:45:00 AM 1.11 33.998 0.066 6.53 0.89 13.97
3/16/2021 3:00:00 AM 1.09 33.962 0.066 6.52 0.92 13.98
3/16/2021 3:15:00 AM 1.08 33.944 0.066 6.51 0.9 13.99
3/16/2021 3:30:00 AM 1.06 33.908 0.066 6.53 0.87 13.99
3/16/2021 3:45:00 AM 1.05 33.89 0.066 6.47 0.87 14
3/16/2021 4:00:00 AM 1.03 33.854 0.066 6.53 0.91 14
3/16/2021 4:15:00 AM 1.02 33.836 0.066 6.52 0.88 14.01
3/16/2021 4:30:00 AM 1 33.8 0.066 6.51 0.87 14.01
3/16/2021 4:45:00 AM 0.99 33.782 0.066 6.52 0.87 14.01
3/16/2021 5:00:00 AM 0.97 33.746 0.066 6.52 0.86 14.02
3/16/2021 5:15:00 AM 0.95 33.71 0.066 6.5 0.82 14.02
3/16/2021 5:30:00 AM 0.94 33.692 0.066 6.51 0.87 14.03
3/16/2021 5:45:00 AM 0.92 33.656 0.066 6.53 0.95 14.04
3/16/2021 6:00:00 AM 0.9 33.62 0.066 6.52 0.88 14.04
3/16/2021 6:15:00 AM 0.89 33.602 0.066 6.51 0.87 14.04
3/16/2021 6:30:00 AM 0.88 33.584 0.066 6.52 0.91 14.05
3/16/2021 6:45:00 AM 0.87 33.566 0.066 6.5 0.82 14.05
3/16/2021 7:00:00 AM 0.86 33.548 0.066 6.52 0.84 14.06
3/16/2021 7:15:00 AM 0.85 33.53 0.066 6.52 0.9 14.06
3/16/2021 7:30:00 AM 0.85 33.53 0.066 6.52 0.88 14.07
3/16/2021 7:45:00 AM 0.84 33.512 0.067 6.52 0.82 14.08
3/16/2021 8:00:00 AM 0.84 33.512 0.067 6.53 0.87 14.1
3/16/2021 8:15:00 AM 0.85 33.53 0.067 6.54 0.83 14.12
3/16/2021 8:30:00 AM 0.85 33.53 0.067 6.55 0.8 14.12
3/16/2021 8:45:00 AM 0.86 33.548 0.067 6.54 0.82 14.13
3/16/2021 9:00:00 AM 0.87 33.566 0.067 6.54 0.84 14.14
3/16/2021 9:15:00 AM 0.89 33.602 0.067 6.57 0.83 14.17
3/16/2021 9:30:00 AM 0.91 33.638 0.067 6.52 0.88 14.17
3/16/2021 9:45:00 AM 0.96 33.728 0.067 6.58 0.78 14.18
3/16/2021 10:00:00 AM 1 33.8 0.067 6.59 0.76 14.17
3/16/2021 10:15:00 AM 1.05 33.89 0.067 6.53 0.81 14.16
3/16/2021 10:30:00 AM 1.09 33.962 0.067 6.57 0.8 14.14
3/16/2021 10:45:00 AM 1.14 34.052 0.067 6.6 0.78 14.12
3/16/2021 11:00:00 AM 1.16 34.088 0.067 6.54 0.72 14.11
3/16/2021 11:15:00 AM 1.16 34.088 0.067 6.59 0.74 14.09
3/16/2021 11:30:00 AM 1.16 34.088 0.067 6.58 0.72 14.08
3/16/2021 11:45:00 AM 1.18 34.124 0.066 6.6 0.75 14.08
3/16/2021 12:00:00 PM 1.21 34.178 0.066 6.59 0.72 14.07
3/16/2021 12:15:00 PM 1.21 34.178 0.066 6.59 0.71 14.06
3/16/2021 12:30:00 PM 1.24 34.232 0.066 6.59 0.75 14.06
3/16/2021 12:45:00 PM 1.27 34.286 0.066 6.6 0.69 14.06
3/16/2021 1:00:00 PM 1.31 34.358 0.066 6.6 0.67 14.05
3/16/2021 1:15:00 PM 1.32 34.376 0.066 6.58 0.67 14.04
3/16/2021 1:30:00 PM 1.34 34.412 0.066 6.61 0.71 14.02
3/16/2021 1:45:00 PM 1.36 34.448 0.066 6.61 0.74 14.01
3/16/2021 2:00:00 PM 1.39 34.502 0.066 6.58 0.65 14
3/16/2021 2:15:00 PM 1.43 34.574 0.066 6.6 0.79 14
3/16/2021 2:30:00 PM 1.45 34.61 0.066 6.56 0.69 13.97
3/16/2021 2:45:00 PM 1.47 34.646 0.066 6.61 0.69 13.95
3/16/2021 3:00:00 PM 1.49 34.682 0.066 6.6 0.72 13.93
3/16/2021 3:15:00 PM 1.51 34.718 0.066 6.6 0.71 13.93
3/16/2021 3:30:00 PM 1.53 34.754 0.066 6.6 0.71 13.91
3/16/2021 3:45:00 PM 1.55 34.79 0.066 6.58 0.75 13.89
3/16/2021 4:00:00 PM 1.58 34.844 0.066 6.59 0.66 13.89
3/16/2021 4:15:00 PM 1.6 34.88 0.066 6.61 0.71 13.88
3/16/2021 4:30:00 PM 1.61 34.898 0.066 6.55 0.71 13.86
3/16/2021 4:45:00 PM 1.62 34.916 0.066 6.6 0.7 13.85
3/16/2021 5:00:00 PM 1.63 34.934 0.066 6.6 0.67 13.84
3/16/2021 5:15:00 PM 1.64 34.952 0.066 6.54 0.69 13.82
3/16/2021 5:30:00 PM 1.66 34.988 0.066 6.6 0.69 13.82
3/16/2021 5:45:00 PM 1.67 35.006 0.066 6.6 0.72 13.82
3/16/2021 6:00:00 PM 1.69 35.042 0.066 6.53 0.72 13.81
3/16/2021 6:15:00 PM 1.7 35.06 0.066 6.6 0.7 13.78
3/16/2021 6:30:00 PM 1.71 35.078 0.066 6.58 0.65 13.77
3/16/2021 6:45:00 PM 1.71 35.078 0.066 6.58 0.7 13.73
3/16/2021 7:00:00 PM 1.72 35.096 0.066 6.58 0.7 13.71
3/16/2021 7:15:00 PM 1.72 35.096 0.066 6.55 0.72 13.69
3/16/2021 7:30:00 PM 1.73 35.114 0.066 6.57 0.73 13.67
3/16/2021 7:45:00 PM 1.73 35.114 0.066 6.56 0.77 13.66
3/16/2021 8:00:00 PM 1.74 35.132 0.066 6.56 0.7 13.65
3/16/2021 8:15:00 PM 1.74 35.132 0.066 6.56 0.7 13.66
3/16/2021 8:30:00 PM 1.75 35.15 0.066 6.54 0.74 13.66
3/16/2021 8:45:00 PM 1.75 35.15 0.066 6.56 0.74 13.65
3/16/2021 9:00:00 PM 1.75 35.15 0.066 6.48 0.75 13.65
3/16/2021 9:15:00 PM 1.75 35.15 0.067 6.56 0.76 13.66
3/16/2021 9:30:00 PM 1.75 35.15 0.066 6.55 0.72 13.64
3/16/2021 9:45:00 PM 1.75 35.15 0.066 6.51 0.67 13.66
3/16/2021 10:00:00 PM 1.75 35.15 0.066 6.55 0.71 13.66
3/16/2021 10:15:00 PM 1.76 35.168 0.066 6.56 0.67 13.64
3/16/2021 10:30:00 PM 1.76 35.168 0.066 6.53 0.74 13.65
3/16/2021 10:45:00 PM 1.76 35.168 0.066 6.54 0.65 13.66
3/16/2021 11:00:00 PM 1.76 35.168 0.066 6.55 0.69 13.64
3/16/2021 11:15:00 PM 1.76 35.168 0.066 6.55 0.71 13.64
3/16/2021 11:30:00 PM 1.77 35.186 0.066 6.55 0.69 13.65
3/16/2021 11:45:00 PM 1.77 35.186 0.066 6.55 0.7 13.65
3/17/2021 12:00:00 AM 1.77 35.186 0.066 6.5 0.7 13.65
3/17/2021 12:15:00 AM 1.77 35.186 0.067 6.57 0.64 13.63
3/17/2021 12:30:00 AM 1.77 35.186 0.066 6.54 0.68 13.63
3/17/2021 12:45:00 AM 1.78 35.204 0.066 6.52 0.73 13.64
3/17/2021 1:00:00 AM 1.78 35.204 0.066 6.56 0.7 13.63
3/17/2021 1:15:00 AM 1.78 35.204 0.066 6.55 0.68 13.64
3/17/2021 1:30:00 AM 1.78 35.204 0.066 6.56 0.71 13.64
3/17/2021 1:45:00 AM 1.78 35.204 0.066 6.55 0.64 13.62
3/17/2021 2:00:00 AM 1.78 35.204 0.066 6.52 0.7 13.63
3/17/2021 2:15:00 AM 1.78 35.204 0.066 6.56 0.69 13.63
3/17/2021 2:30:00 AM 1.79 35.222 0.066 6.54 0.72 13.63
3/17/2021 2:45:00 AM 1.79 35.222 0.066 6.55 0.66 13.63
3/17/2021 3:00:00 AM 1.79 35.222 0.066 6.55 0.7 13.63
3/17/2021 3:15:00 AM 1.79 35.222 0.066 6.51 0.73 13.62
3/17/2021 3:30:00 AM 1.8 35.24 0.066 6.55 0.71 13.63
3/17/2021 3:45:00 AM 1.8 35.24 0.066 6.54 0.68 13.61
3/17/2021 4:00:00 AM 1.8 35.24 0.066 6.56 0.69 13.61
3/17/2021 4:15:00 AM 1.8 35.24 0.066 6.55 0.7 13.63
3/17/2021 4:30:00 AM 1.81 35.258 0.066 6.53 0.71 13.62
3/17/2021 4:45:00 AM 1.81 35.258 0.066 6.56 0.73 13.62
3/17/2021 5:00:00 AM 1.81 35.258 0.066 6.56 0.7 13.61
3/17/2021 5:15:00 AM 1.82 35.276 0.066 6.49 0.73 13.62
3/17/2021 5:30:00 AM 1.82 35.276 0.066 6.56 0.75 13.6
3/17/2021 5:45:00 AM 1.82 35.276 0.066 6.54 0.77 13.62
3/17/2021 6:00:00 AM 1.83 35.294 0.066 6.56 0.74 13.6
3/17/2021 6:15:00 AM 1.83 35.294 0.066 6.56 0.68 13.61
3/17/2021 6:30:00 AM 1.83 35.294 0.066 6.55 0.7 13.62
3/17/2021 6:45:00 AM 1.84 35.312 0.066 6.53 0.68 13.61
3/17/2021 7:00:00 AM 1.84 35.312 0.066 6.54 0.71 13.62
3/17/2021 7:15:00 AM 1.84 35.312 0.066 6.56 0.69 13.62
3/17/2021 7:30:00 AM 1.85 35.33 0.066 6.56 0.69 13.61
3/17/2021 7:45:00 AM 1.85 35.33 0.066 6.52 0.67 13.62
3/17/2021 8:00:00 AM 1.86 35.348 0.066 6.57 0.71 13.63
3/17/2021 8:15:00 AM 1.87 35.366 0.066 6.5 0.67 13.66
3/17/2021 8:30:00 AM 1.89 35.402 0.066 6.58 0.68 13.67
3/17/2021 8:45:00 AM 1.91 35.438 0.066 6.6 0.66 13.7
3/17/2021 9:00:00 AM 1.94 35.492 0.066 6.6 0.7 13.7
3/17/2021 9:15:00 AM 1.97 35.546 0.066 6.6 0.66 13.71
3/17/2021 9:30:00 AM 2 35.6 0.066 6.58 0.64 13.71
3/17/2021 9:45:00 AM 2.03 35.654 0.066 6.63 0.58 13.71
3/17/2021 10:00:00 AM 2.06 35.708 0.066 6.62 0.62 13.7
3/17/2021 10:15:00 AM 2.11 35.798 0.066 6.62 0.64 13.7
3/17/2021 10:30:00 AM 2.15 35.87 0.066 6.64 0.6 13.69
3/17/2021 10:45:00 AM 2.2 35.96 0.066 6.64 0.65 13.68
3/17/2021 11:00:00 AM 2.26 36.068 0.066 6.65 0.58 13.67
3/17/2021 11:15:00 AM 2.32 36.176 0.066 6.65 0.6 13.65
3/17/2021 11:30:00 AM 2.38 36.284 0.066 6.63 0.63 13.63
3/17/2021 11:45:00 AM 2.42 36.356 0.066 6.64 0.59 13.61
3/17/2021 12:00:00 PM 2.45 36.41 0.066 6.64 0.62 13.59
3/17/2021 12:15:00 PM 2.5 36.5 0.066 6.62 0.63 13.58
3/17/2021 12:30:00 PM 2.55 36.59 0.066 6.65 0.59 13.57
3/17/2021 12:45:00 PM 2.61 36.698 0.066 6.65 0.57 13.54
3/17/2021 1:00:00 PM 2.68 36.824 0.066 6.66 0.54 13.52
3/17/2021 1:15:00 PM 2.74 36.932 0.066 6.66 0.59 13.5
3/17/2021 1:30:00 PM 2.82 37.076 0.066 6.66 0.57 13.48
3/17/2021 1:45:00 PM 2.88 37.184 0.066 6.65 0.61 13.45
3/17/2021 2:00:00 PM 2.95 37.31 0.066 6.64 0.64 13.43
3/17/2021 2:15:00 PM 3.02 37.436 0.066 6.68 0.6 13.4
3/17/2021 2:30:00 PM 3.09 37.562 0.066 6.67 0.61 13.37
3/17/2021 2:45:00 PM 3.15 37.67 0.066 6.67 0.56 13.34
3/17/2021 3:00:00 PM 3.21 37.778 0.066 6.67 0.62 13.32
3/17/2021 3:15:00 PM 3.26 37.868 0.066 6.67 0.57 13.29
3/17/2021 3:30:00 PM 3.3 37.94 0.066 6.67 0.58 13.27
3/17/2021 3:45:00 PM 3.34 38.012 0.066 6.67 0.55 13.25
3/17/2021 4:00:00 PM 3.39 38.102 0.066 6.68 0.58 13.24
3/17/2021 4:15:00 PM 3.42 38.156 0.066 6.66 0.56 13.22
3/17/2021 4:30:00 PM 3.45 38.21 0.066 6.68 0.59 13.21
3/17/2021 4:45:00 PM 3.48 38.264 0.066 6.68 0.6 13.19
3/17/2021 5:00:00 PM 3.52 38.336 0.066 6.68 0.67 13.17
3/17/2021 5:15:00 PM 3.54 38.372 0.066 6.67 0.64 13.15
3/17/2021 5:30:00 PM 3.55 38.39 0.066 6.67 0.67 13.14
3/17/2021 5:45:00 PM 3.57 38.426 0.066 6.67 0.66 13.12
3/17/2021 6:00:00 PM 3.56 38.408 0.066 6.66 0.61 13.1
3/17/2021 6:15:00 PM 3.56 38.408 0.066 6.64 0.66 13.07
3/17/2021 6:30:00 PM 3.55 38.39 0.066 6.64 0.61 13.05
3/17/2021 6:45:00 PM 3.54 38.372 0.066 6.55 0.6 13.03
3/17/2021 7:00:00 PM 3.53 38.354 0.066 6.62 0.58 13.01
3/17/2021 7:15:00 PM 3.52 38.336 0.066 6.62 0.68 12.99
3/17/2021 7:30:00 PM 3.5 38.3 0.066 6.55 0.65 12.98
3/17/2021 7:45:00 PM 3.49 38.282 0.066 6.61 0.63 12.97
3/17/2021 8:00:00 PM 3.48 38.264 0.066 6.6 0.66 12.97
3/17/2021 8:15:00 PM 3.47 38.246 0.066 6.58 0.63 12.98
3/17/2021 8:30:00 PM 3.46 38.228 0.066 6.59 0.69 12.97
3/17/2021 8:45:00 PM 3.45 38.21 0.066 6.59 0.63 12.98
3/17/2021 9:00:00 PM 3.44 38.192 0.066 6.58 0.64 12.98
3/17/2021 9:15:00 PM 3.44 38.192 0.066 6.59 0.62 12.98
3/17/2021 9:30:00 PM 3.43 38.174 0.066 6.58 0.65 12.99
3/17/2021 9:45:00 PM 3.42 38.156 0.066 6.57 0.58 12.99
3/17/2021 10:00:00 PM 3.42 38.156 0.066 6.6 0.62 12.99
3/17/2021 10:15:00 PM 3.41 38.138 0.066 6.57 0.66 12.99
3/17/2021 10:30:00 PM 3.41 38.138 0.066 6.59 0.63 13
3/17/2021 10:45:00 PM 3.41 38.138 0.066 6.59 0.69 13
3/17/2021 11:00:00 PM 3.4 38.12 0.066 6.58 0.64 13
3/17/2021 11:15:00 PM 3.4 38.12 0.066 6.55 0.58 13
3/17/2021 11:30:00 PM 3.4 38.12 0.066 6.58 0.63 13
3/17/2021 11:45:00 PM 3.39 38.102 0.066 6.58 0.62 13.01
3/18/2021 12:00:00 AM 3.39 38.102 0.066 6.59 0.62 13
3/18/2021 12:15:00 AM 3.38 38.084 0.066 6.59 0.62 13
3/18/2021 12:30:00 AM 3.38 38.084 0.066 6.52 0.66 13
3/18/2021 12:45:00 AM 3.38 38.084 0.066 6.55 0.61 13
3/18/2021 1:00:00 AM 3.37 38.066 0.066 6.57 0.6 13
3/18/2021 1:15:00 AM 3.37 38.066 0.066 6.58 0.62 13
3/18/2021 1:30:00 AM 3.36 38.048 0.066 6.55 0.64 12.99
3/18/2021 1:45:00 AM 3.36 38.048 0.066 6.58 0.64 12.99
3/18/2021 2:00:00 AM 3.35 38.03 0.066 6.58 0.63 13
3/18/2021 2:15:00 AM 3.35 38.03 0.066 6.57 0.62 12.99
3/18/2021 2:30:00 AM 3.34 38.012 0.066 6.58 0.62 13
3/18/2021 2:45:00 AM 3.34 38.012 0.066 6.56 0.63 13
3/18/2021 3:00:00 AM 3.34 38.012 0.066 6.58 0.62 12.99
3/18/2021 3:15:00 AM 3.33 37.994 0.066 6.57 0.61 13
3/18/2021 3:30:00 AM 3.32 37.976 0.066 6.56 0.65 13
3/18/2021 3:45:00 AM 3.32 37.976 0.066 6.56 0.68 13
3/18/2021 4:00:00 AM 3.31 37.958 0.066 6.58 0.59 13
3/18/2021 4:15:00 AM 3.31 37.958 0.066 6.54 0.61 13
3/18/2021 4:30:00 AM 3.3 37.94 0.065 6.58 0.64 13
3/18/2021 4:45:00 AM 3.3 37.94 0.065 6.53 0.61 13
3/18/2021 5:00:00 AM 3.29 37.922 0.065 6.57 0.67 12.99
3/18/2021 5:15:00 AM 3.29 37.922 0.065 6.57 0.65 12.99
3/18/2021 5:30:00 AM 3.29 37.922 0.065 6.58 0.66 12.99
3/18/2021 5:45:00 AM 3.28 37.904 0.065 6.57 0.66 12.99
3/18/2021 6:00:00 AM 3.28 37.904 0.065 6.55 0.68 12.99
3/18/2021 6:15:00 AM 3.27 37.886 0.065 6.58 0.76 12.99
3/18/2021 6:30:00 AM 3.27 37.886 0.065 6.57 0.63 13
3/18/2021 6:45:00 AM 3.27 37.886 0.065 6.56 0.67 13
3/18/2021 7:00:00 AM 3.26 37.868 0.065 6.57 0.7 12.99
3/18/2021 7:15:00 AM 3.26 37.868 0.065 6.57 0.67 12.99
3/18/2021 7:30:00 AM 3.26 37.868 0.065 6.56 0.61 13
3/18/2021 7:45:00 AM 3.26 37.868 0.065 6.58 0.66 13
3/18/2021 8:00:00 AM 3.26 37.868 0.065 6.57 0.63 13.01
3/18/2021 8:15:00 AM 3.26 37.868 0.065 6.55 0.69 13.02
3/18/2021 8:30:00 AM 3.26 37.868 0.065 6.57 0.87 13.03
3/18/2021 8:45:00 AM 3.26 37.868 0.065 6.59 0.74 13.04
3/18/2021 9:00:00 AM 3.27 37.886 0.065 6.58 0.74 13.04
3/18/2021 9:15:00 AM 3.27 37.886 0.064 6.54 0.82 13.05
3/18/2021 9:30:00 AM 3.28 37.904 0.064 6.6 0.84 13.05
3/18/2021 9:45:00 AM 3.29 37.922 0.064 6.59 0.81 13.06
3/18/2021 10:00:00 AM 3.3 37.94 0.064 6.58 0.86 13.05
3/18/2021 10:15:00 AM 3.31 37.958 0.064 6.59 0.96 13.06
3/18/2021 10:30:00 AM 3.33 37.994 0.064 6.6 1.01 13.06
3/18/2021 10:45:00 AM 3.35 38.03 0.063 6.61 1.23 13.06
3/18/2021 11:00:00 AM 3.37 38.066 0.063 6.6 1.45 13.06
3/18/2021 11:15:00 AM 3.4 38.12 0.063 6.62 1.71 13.06
3/18/2021 11:30:00 AM 3.42 38.156 0.063 6.61 1.88 13.06
3/18/2021 11:45:00 AM 3.46 38.228 0.063 6.57 2.42 13.06
3/18/2021 12:00:00 PM 3.5 38.3 0.063 6.65 3.15 13.05
3/18/2021 12:15:00 PM 3.54 38.372 0.063 6.65 3.86 13.04
3/18/2021 12:30:00 PM 3.57 38.426 0.063 6.65 4.07 13.03
3/18/2021 12:45:00 PM 3.62 38.516 0.062 6.66 4.53 13.01
3/18/2021 1:00:00 PM 3.66 38.588 0.062 6.66 4.78 12.99
3/18/2021 1:15:00 PM 3.7 38.66 0.062 6.67 5.37 12.97
3/18/2021 1:30:00 PM 3.74 38.732 0.062 6.68 5.85 12.97
3/18/2021 1:45:00 PM 3.78 38.804 0.061 6.68 6.52 12.95
3/18/2021 2:00:00 PM 3.82 38.876 0.061 6.66 6.91 12.93
3/18/2021 2:15:00 PM 3.85 38.93 0.061 6.67 6.65 12.9
3/18/2021 2:30:00 PM 3.89 39.002 0.06 6.66 6.07 12.89
3/18/2021 2:45:00 PM 3.92 39.056 0.06 6.67 6.39 12.87
3/18/2021 3:00:00 PM 3.95 39.11 0.06 6.65 6.12 12.86
3/18/2021 3:15:00 PM 3.97 39.146 0.06 6.67 6.22 12.84
3/18/2021 3:30:00 PM 3.99 39.182 0.06 6.65 6.41 12.82
3/18/2021 3:45:00 PM 4.01 39.218 0.059 6.63 6.25 12.82
3/18/2021 4:00:00 PM 4.02 39.236 0.059 6.66 6.59 12.81
3/18/2021 4:15:00 PM 4.03 39.254 0.059 6.65 6.74 12.8
3/18/2021 4:30:00 PM 4.04 39.272 0.059 6.56 6.64 12.8
3/18/2021 4:45:00 PM 4.05 39.29 0.06 6.6 6.66 12.8
3/18/2021 5:00:00 PM 4.06 39.308 0.06 6.63 6.26 12.78
3/18/2021 5:15:00 PM 4.07 39.326 0.061 6.62 5.96 12.77
3/18/2021 5:30:00 PM 4.06 39.308 0.061 6.62 5.91 12.77
3/18/2021 5:45:00 PM 4.06 39.308 0.061 6.6 5.89 12.77
3/18/2021 6:00:00 PM 4.06 39.308 0.061 6.59 6.07 12.77
3/18/2021 6:15:00 PM 4.06 39.308 0.061 6.59 6.11 12.75
3/18/2021 6:30:00 PM 4.05 39.29 0.061 6.58 6.02 12.76
3/18/2021 6:45:00 PM 4.04 39.272 0.061 6.58 6.47 12.76
3/18/2021 7:00:00 PM 4.03 39.254 0.061 6.57 6.02 12.77
3/18/2021 7:15:00 PM 4.02 39.236 0.061 6.46 6.2 12.76
3/18/2021 7:30:00 PM 4 39.2 0.061 6.56 6.16 12.77
3/18/2021 7:45:00 PM 3.98 39.164 0.061 6.52 6.07 12.76
3/18/2021 8:00:00 PM 3.96 39.128 0.061 6.55 6.16 12.78
3/18/2021 8:15:00 PM 3.94 39.092 0.061 6.54 5.82 12.78
3/18/2021 8:30:00 PM 3.92 39.056 0.062 6.54 5.79 12.79
3/18/2021 8:45:00 PM 3.9 39.02 0.062 6.51 5.5 12.79
3/18/2021 9:00:00 PM 3.88 38.984 0.062 6.53 5.35 12.79
3/18/2021 9:15:00 PM 3.86 38.948 0.062 6.5 5.09 12.8
3/18/2021 9:30:00 PM 3.84 38.912 0.062 6.52 5.22 12.81
3/18/2021 9:45:00 PM 3.82 38.876 0.062 6.5 4.67 12.83
3/18/2021 10:00:00 PM 3.8 38.84 0.062 6.5 4.88 12.84
3/18/2021 10:15:00 PM 3.77 38.786 0.062 6.51 4.68 12.85
3/18/2021 10:30:00 PM 3.75 38.75 0.062 6.51 4.69 12.86
3/18/2021 10:45:00 PM 3.72 38.696 0.062 6.5 4.58 12.86
3/18/2021 11:00:00 PM 3.69 38.642 0.063 6.49 4.15 12.88
3/18/2021 11:15:00 PM 3.65 38.57 0.063 6.49 4.02 12.89
3/18/2021 11:30:00 PM 3.61 38.498 0.063 6.47 3.95 12.91
3/18/2021 11:45:00 PM 3.58 38.444 0.063 6.48 4.3 12.92
3/19/2021 12:00:00 AM 3.54 38.372 0.063 6.42 3.8 12.94
3/19/2021 12:15:00 AM 3.5 38.3 0.063 6.49 3.63 12.95
3/19/2021 12:30:00 AM 3.46 38.228 0.063 6.39 3.64 12.97
3/19/2021 12:45:00 AM 3.42 38.156 0.063 6.47 3.61 12.99
3/19/2021 1:00:00 AM 3.38 38.084 0.063 6.46 3.45 13
3/19/2021 1:15:00 AM 3.34 38.012 0.063 6.47 3.31 13.02
3/19/2021 1:30:00 AM 3.3 37.94 0.063 6.47 3.49 13.04
3/19/2021 1:45:00 AM 3.25 37.85 0.063 6.46 3.37 13.06
3/19/2021 2:00:00 AM 3.21 37.778 0.063 6.44 3.28 13.08
3/19/2021 2:15:00 AM 3.17 37.706 0.063 6.43 3.1 13.1
3/19/2021 2:30:00 AM 3.12 37.616 0.063 6.46 3.01 13.12
3/19/2021 2:45:00 AM 3.07 37.526 0.063 6.43 2.96 13.14
3/19/2021 3:00:00 AM 3.02 37.436 0.063 6.45 2.87 13.16
3/19/2021 3:15:00 AM 2.97 37.346 0.063 6.44 3.01 13.18
3/19/2021 3:30:00 AM 2.91 37.238 0.063 6.44 2.79 13.21
3/19/2021 3:45:00 AM 2.85 37.13 0.062 6.44 2.81 13.23
3/19/2021 4:00:00 AM 2.79 37.022 0.062 6.45 2.73 13.24
3/19/2021 4:15:00 AM 2.74 36.932 0.062 6.43 2.73 13.26
3/19/2021 4:30:00 AM 2.67 36.806 0.062 6.44 2.84 13.3
3/19/2021 4:45:00 AM 2.61 36.698 0.062 6.44 2.41 13.32
3/19/2021 5:00:00 AM 2.53 36.554 0.062 6.42 2.49 13.35
3/19/2021 5:15:00 AM 2.47 36.446 0.062 6.34 2.47 13.37
3/19/2021 5:30:00 AM 2.41 36.338 0.062 6.44 2.26 13.4
3/19/2021 5:45:00 AM 2.34 36.212 0.063 6.35 2.28 13.43
3/19/2021 6:00:00 AM 2.27 36.086 0.063 6.44 2.28 13.46
3/19/2021 6:15:00 AM 2.2 35.96 0.063 6.42 2.24 13.49
3/19/2021 6:30:00 AM 2.13 35.834 0.063 6.4 2.28 13.52
3/19/2021 6:45:00 AM 2.07 35.726 0.063 6.41 2.07 13.55
3/19/2021 7:00:00 AM 2.01 35.618 0.063 6.42 2.14 13.57
3/19/2021 7:15:00 AM 1.95 35.51 0.063 6.38 2.12 13.61
3/19/2021 7:30:00 AM 1.88 35.384 0.063 6.37 2.01 13.63
3/19/2021 7:45:00 AM 1.82 35.276 0.063 6.42 1.92 13.69
3/19/2021 8:00:00 AM 1.76 35.168 0.064 6.41 1.98 13.72
3/19/2021 8:15:00 AM 1.71 35.078 0.064 6.43 1.92 13.75
3/19/2021 8:30:00 AM 1.66 34.988 0.064 6.43 1.94 13.78
3/19/2021 8:45:00 AM 1.61 34.898 0.065 6.43 1.88 13.83
3/19/2021 9:00:00 AM 1.59 34.862 0.065 6.44 1.91 13.85
3/19/2021 9:15:00 AM 1.57 34.826 0.065 6.4 1.83 13.9
3/19/2021 9:30:00 AM 1.55 34.79 0.066 6.45 1.83 13.91
3/19/2021 9:45:00 AM 1.54 34.772 0.066 6.44 1.67 13.92
3/19/2021 10:00:00 AM 1.55 34.79 0.066 6.46 1.57 13.93
3/19/2021 10:15:00 AM 1.57 34.826 0.067 6.46 1.69 13.94
3/19/2021 10:30:00 AM 1.61 34.898 0.067 6.46 1.62 13.94
3/19/2021 10:45:00 AM 1.68 35.024 0.067 6.43 1.63 13.94
3/19/2021 11:00:00 AM 1.76 35.168 0.068 6.43 1.47 13.92
3/19/2021 11:15:00 AM 1.86 35.348 0.068 6.48 1.51 13.89
3/19/2021 11:30:00 AM 1.97 35.546 0.068 6.42 1.53 13.86
3/19/2021 11:45:00 AM 2.1 35.78 0.068 6.49 1.65 13.81
3/19/2021 12:00:00 PM 2.24 36.032 0.068 6.48 1.56 13.77
3/19/2021 12:15:00 PM 2.38 36.284 0.069 6.49 1.48 13.73
3/19/2021 12:30:00 PM 2.51 36.518 0.069 6.5 1.45 13.69
3/19/2021 12:45:00 PM 2.62 36.716 0.069 6.48 1.38 13.65
3/19/2021 1:00:00 PM 2.71 36.878 0.068 6.49 1.33 13.62
3/19/2021 1:15:00 PM 2.8 37.04 0.068 6.51 1.29 13.58
3/19/2021 1:30:00 PM 2.88 37.184 0.068 6.48 1.4 13.55
3/19/2021 1:45:00 PM 2.91 37.238 0.068 6.5 1.38 13.53
3/19/2021 2:00:00 PM 2.94 37.292 0.069 6.49 1.57 13.5
3/19/2021 2:15:00 PM 2.97 37.346 0.068 6.5 1.72 13.48
3/19/2021 2:30:00 PM 2.98 37.364 0.066 6.48 1.58 13.47
3/19/2021 2:45:00 PM 2.99 37.382 0.065 6.48 1.58 13.46
3/19/2021 3:00:00 PM 3 37.4 0.065 6.46 1.6 13.44
3/19/2021 3:15:00 PM 3.02 37.436 0.065 6.47 1.71 13.42
3/19/2021 3:30:00 PM 3.04 37.472 0.065 6.44 1.55 13.4
3/19/2021 3:45:00 PM 3.05 37.49 0.064 6.45 1.57 13.4
3/19/2021 4:00:00 PM 3.05 37.49 0.063 6.44 1.67 13.38
3/19/2021 4:15:00 PM 3.05 37.49 0.062 6.45 1.78 13.37
3/19/2021 4:30:00 PM 3.05 37.49 0.063 6.45 1.66 13.37
3/19/2021 4:45:00 PM 3.05 37.49 0.063 6.46 1.75 13.36
3/19/2021 5:00:00 PM 3.04 37.472 0.063 6.41 1.65 13.36
3/19/2021 5:15:00 PM 3.04 37.472 0.063 6.46 1.44 13.35
3/19/2021 5:30:00 PM 3.04 37.472 0.064 6.46 1.57 13.35
3/19/2021 5:45:00 PM 3.03 37.454 0.064 6.43 1.44 13.35
3/19/2021 6:00:00 PM 3.02 37.436 0.064 6.46 1.41 13.34
3/19/2021 6:15:00 PM 3 37.4 0.064 6.46 1.38 13.34
3/19/2021 6:30:00 PM 2.99 37.382 0.064 6.46 1.43 13.34
3/19/2021 6:45:00 PM 2.97 37.346 0.065 6.44 1.38 13.34
3/19/2021 7:00:00 PM 2.96 37.328 0.065 6.46 1.33 13.34
3/19/2021 7:15:00 PM 2.93 37.274 0.065 6.45 1.31 13.34
3/19/2021 7:30:00 PM 2.9 37.22 0.065 6.43 1.27 13.35
3/19/2021 7:45:00 PM 2.87 37.166 0.065 6.44 1.28 13.36
3/19/2021 8:00:00 PM 2.83 37.094 0.065 6.45 1.3 13.37
3/19/2021 8:15:00 PM 2.79 37.022 0.065 6.44 1.23 13.38
3/19/2021 8:30:00 PM 2.75 36.95 0.065 6.42 1.26 13.4
3/19/2021 8:45:00 PM 2.71 36.878 0.065 6.45 1.26 13.41
3/19/2021 9:00:00 PM 2.67 36.806 0.065 6.44 1.25 13.43
3/19/2021 9:15:00 PM 2.64 36.752 0.065 6.45 1.28 13.44
3/19/2021 9:30:00 PM 2.6 36.68 0.065 6.44 1.23 13.46
3/19/2021 9:45:00 PM 2.56 36.608 0.065 6.43 1.24 13.48
3/19/2021 10:00:00 PM 2.52 36.536 0.065 6.44 1.28 13.5
3/19/2021 10:15:00 PM 2.49 36.482 0.065 6.45 1.37 13.51
3/19/2021 10:30:00 PM 2.45 36.41 0.065 6.45 1.19 13.52
3/19/2021 10:45:00 PM 2.41 36.338 0.066 6.44 1.14 13.54
3/19/2021 11:00:00 PM 2.38 36.284 0.066 6.45 1.19 13.56
3/19/2021 11:15:00 PM 2.34 36.212 0.066 6.43 1.14 13.57
3/19/2021 11:30:00 PM 2.31 36.158 0.066 6.45 1.21 13.58
3/19/2021 11:45:00 PM 2.28 36.104 0.066 6.44 1.19 13.6
3/20/2021 12:00:00 AM 2.24 36.032 0.066 6.46 1.17 13.62
3/20/2021 12:15:00 AM 2.2 35.96 0.066 6.45 1.13 13.64
3/20/2021 12:30:00 AM 2.16 35.888 0.066 6.45 1.14 13.65
3/20/2021 12:45:00 AM 2.11 35.798 0.066 6.44 1.13 13.68
3/20/2021 1:00:00 AM 2.07 35.726 0.066 6.36 1.14 13.69
3/20/2021 1:15:00 AM 2.03 35.654 0.066 6.46 1.11 13.72
3/20/2021 1:30:00 AM 1.98 35.564 0.066 6.45 1.18 13.74
3/20/2021 1:45:00 AM 1.94 35.492 0.066 6.36 1.12 13.75
3/20/2021 2:00:00 AM 1.89 35.402 0.066 6.46 1.08 13.78
3/20/2021 2:15:00 AM 1.84 35.312 0.066 6.45 1.04 13.8
3/20/2021 2:30:00 AM 1.8 35.24 0.066 6.46 1.01 13.81
3/20/2021 2:45:00 AM 1.76 35.168 0.066 6.46 1.11 13.84
3/20/2021 3:00:00 AM 1.71 35.078 0.066 6.45 1.06 13.84
3/20/2021 3:15:00 AM 1.67 35.006 0.066 6.45 1.04 13.86
3/20/2021 3:30:00 AM 1.63 34.934 0.066 6.46 0.99 13.88
3/20/2021 3:45:00 AM 1.58 34.844 0.066 6.45 1.07 13.91
3/20/2021 4:00:00 AM 1.54 34.772 0.066 6.42 1.09 13.91
3/20/2021 4:15:00 AM 1.5 34.7 0.066 6.45 1.06 13.93
3/20/2021 4:30:00 AM 1.46 34.628 0.065 6.45 0.96 13.95
3/20/2021 4:45:00 AM 1.41 34.538 0.065 6.46 1.01 13.97
3/20/2021 5:00:00 AM 1.37 34.466 0.065 6.46 0.99 13.99
3/20/2021 5:15:00 AM 1.33 34.394 0.065 6.46 1.05 14.01
3/20/2021 5:30:00 AM 1.29 34.322 0.066 6.46 1.11 14.03
3/20/2021 5:45:00 AM 1.25 34.25 0.066 6.45 1.08 14.04
3/20/2021 6:00:00 AM 1.21 34.178 0.066 6.47 1.13 14.06
3/20/2021 6:15:00 AM 1.17 34.106 0.066 6.46 1.18 14.08
3/20/2021 6:30:00 AM 1.13 34.034 0.066 6.46 1.05 14.09
3/20/2021 6:45:00 AM 1.09 33.962 0.066 6.46 1.1 14.11
3/20/2021 7:00:00 AM 1.05 33.89 0.066 6.46 1.01 14.12
3/20/2021 7:15:00 AM 1.02 33.836 0.066 6.47 1.05 14.15
3/20/2021 7:30:00 AM 0.99 33.782 0.066 6.38 0.94 14.17
3/20/2021 7:45:00 AM 0.96 33.728 0.067 6.48 1.04 14.21
3/20/2021 8:00:00 AM 0.93 33.674 0.067 6.48 0.96 14.23
3/20/2021 8:15:00 AM 0.92 33.656 0.067 6.47 0.89 14.25
3/20/2021 8:30:00 AM 0.91 33.638 0.067 6.49 0.93 14.28
3/20/2021 8:45:00 AM 0.91 33.638 0.067 6.4 0.88 14.29
3/20/2021 9:00:00 AM 0.92 33.656 0.067 6.51 0.91 14.31
3/20/2021 9:15:00 AM 0.95 33.71 0.067 6.46 0.92 14.31
3/20/2021 9:30:00 AM 0.99 33.782 0.067 6.52 0.88 14.32
3/20/2021 9:45:00 AM 1.05 33.89 0.067 6.53 0.92 14.3
3/20/2021 10:00:00 AM 1.13 34.034 0.067 6.53 0.84 14.29
3/20/2021 10:15:00 AM 1.23 34.214 0.067 6.46 0.83 14.27
3/20/2021 10:30:00 AM 1.34 34.412 0.067 6.54 0.81 14.24
3/20/2021 10:45:00 AM 1.47 34.646 0.067 6.48 0.83 14.19
3/20/2021 11:00:00 AM 1.63 34.934 0.067 6.55 0.84 14.15
3/20/2021 11:15:00 AM 1.8 35.24 0.067 6.53 0.82 14.08
3/20/2021 11:30:00 AM 1.98 35.564 0.067 6.56 0.8 14.02
3/20/2021 11:45:00 AM 2.18 35.924 0.067 6.56 0.84 13.93
3/20/2021 12:00:00 PM 2.4 36.32 0.067 6.57 0.82 13.86
3/20/2021 12:15:00 PM 2.6 36.68 0.067 6.57 0.87 13.79
3/20/2021 12:30:00 PM 2.8 37.04 0.066 6.57 0.94 13.71
3/20/2021 12:45:00 PM 2.98 37.364 0.065 6.58 0.89 13.65
3/20/2021 1:00:00 PM 3.14 37.652 0.064 6.57 0.86 13.58
3/20/2021 1:15:00 PM 3.29 37.922 0.064 6.58 0.83 13.52
3/20/2021 1:30:00 PM 3.42 38.156 0.064 6.57 0.83 13.47
3/20/2021 1:45:00 PM 3.55 38.39 0.063 6.58 0.87 13.4
3/20/2021 2:00:00 PM 3.67 38.606 0.063 6.53 0.83 13.35
3/20/2021 2:15:00 PM 3.77 38.786 0.063 6.57 0.89 13.3
3/20/2021 2:30:00 PM 3.87 38.966 0.062 6.58 0.83 13.25
3/20/2021 2:45:00 PM 3.95 39.11 0.062 6.57 0.81 13.21
3/20/2021 3:00:00 PM 4.02 39.236 0.061 6.57 0.83 13.17
3/20/2021 3:15:00 PM 4.08 39.344 0.061 6.51 0.89 13.13
3/20/2021 3:30:00 PM 4.13 39.434 0.061 6.59 0.78 13.1
3/20/2021 3:45:00 PM 4.16 39.488 0.061 6.58 0.83 13.07
3/20/2021 4:00:00 PM 4.2 39.56 0.061 6.57 0.85 13.06
3/20/2021 4:15:00 PM 4.24 39.632 0.061 6.57 0.82 13.03
3/20/2021 4:30:00 PM 4.27 39.686 0.062 6.58 0.84 13.01
3/20/2021 4:45:00 PM 4.3 39.74 0.062 6.58 0.79 12.98
3/20/2021 5:00:00 PM 4.33 39.794 0.062 6.58 0.9 12.96
3/20/2021 5:15:00 PM 4.36 39.848 0.062 6.58 0.84 12.94
3/20/2021 5:30:00 PM 4.39 39.902 0.062 6.57 0.85 12.92
3/20/2021 5:45:00 PM 4.41 39.938 0.062 6.57 0.78 12.9
3/20/2021 6:00:00 PM 4.43 39.974 0.062 6.56 0.86 12.89
3/20/2021 6:15:00 PM 4.44 39.992 0.062 6.56 0.89 12.88
3/20/2021 6:30:00 PM 4.45 40.01 0.062 6.57 0.82 12.86
3/20/2021 6:45:00 PM 4.46 40.028 0.062 6.51 0.8 12.85
3/20/2021 7:00:00 PM 4.46 40.028 0.062 6.55 0.78 12.83
3/20/2021 7:15:00 PM 4.45 40.01 0.062 6.55 0.84 12.82
3/20/2021 7:30:00 PM 4.44 39.992 0.062 6.54 0.91 12.81
3/20/2021 7:45:00 PM 4.42 39.956 0.062 6.55 0.82 12.81
3/20/2021 8:00:00 PM 4.4 39.92 0.062 6.48 0.96 12.81
3/20/2021 8:15:00 PM 4.37 39.866 0.062 6.47 0.93 12.82
3/20/2021 8:30:00 PM 4.33 39.794 0.062 6.54 0.94 12.84
3/20/2021 8:45:00 PM 4.29 39.722 0.062 6.53 0.89 12.85
3/20/2021 9:00:00 PM 4.25 39.65 0.062 6.53 0.82 12.86
3/20/2021 9:15:00 PM 4.2 39.56 0.062 6.52 0.88 12.89
3/20/2021 9:30:00 PM 4.14 39.452 0.062 6.53 0.85 12.91
3/20/2021 9:45:00 PM 4.09 39.362 0.062 6.5 0.9 12.92
3/20/2021 10:00:00 PM 4.03 39.254 0.062 6.49 0.94 12.95
3/20/2021 10:15:00 PM 3.97 39.146 0.062 6.52 0.86 12.97
3/20/2021 10:30:00 PM 3.91 39.038 0.062 6.54 0.89 12.99
3/20/2021 10:45:00 PM 3.85 38.93 0.062 6.52 0.87 13.01
3/20/2021 11:00:00 PM 3.8 38.84 0.062 6.51 0.87 13.03
3/20/2021 11:15:00 PM 3.74 38.732 0.062 6.53 0.94 13.06
3/20/2021 11:30:00 PM 3.68 38.624 0.062 6.51 0.82 13.07
3/20/2021 11:45:00 PM 3.63 38.534 0.062 6.53 0.79 13.09
3/21/2021 12:00:00 AM 3.58 38.444 0.062 6.5 0.88 13.11
3/21/2021 12:15:00 AM 3.53 38.354 0.062 6.52 0.85 13.13
3/21/2021 12:30:00 AM 3.48 38.264 0.062 6.51 0.8 13.15
3/21/2021 12:45:00 AM 3.43 38.174 0.062 6.52 0.92 13.17
3/21/2021 1:00:00 AM 3.38 38.084 0.062 6.52 0.78 13.18
3/21/2021 1:15:00 AM 3.32 37.976 0.062 6.51 0.85 13.21
3/21/2021 1:30:00 AM 3.27 37.886 0.062 6.51 0.81 13.22
3/21/2021 1:45:00 AM 3.22 37.796 0.062 6.5 0.81 13.24
3/21/2021 2:00:00 AM 3.17 37.706 0.062 6.52 0.82 13.26
3/21/2021 2:15:00 AM 3.11 37.598 0.062 6.49 0.84 13.29
3/21/2021 2:30:00 AM 3.06 37.508 0.062 6.52 0.91 13.3
3/21/2021 2:45:00 AM 3.01 37.418 0.062 6.41 0.84 13.32
3/21/2021 3:00:00 AM 2.95 37.31 0.062 6.52 0.87 13.34
3/21/2021 3:15:00 AM 2.9 37.22 0.062 6.51 0.82 13.37
3/21/2021 3:30:00 AM 2.84 37.112 0.062 6.5 0.84 13.39
3/21/2021 3:45:00 AM 2.79 37.022 0.062 6.45 0.87 13.41
3/21/2021 4:00:00 AM 2.74 36.932 0.062 6.46 0.83 13.42
3/21/2021 4:15:00 AM 2.69 36.842 0.062 6.52 0.89 13.44
3/21/2021 4:30:00 AM 2.64 36.752 0.062 6.51 0.88 13.46
3/21/2021 4:45:00 AM 2.59 36.662 0.062 6.48 0.86 13.48
3/21/2021 5:00:00 AM 2.54 36.572 0.062 6.51 0.88 13.5
3/21/2021 5:15:00 AM 2.5 36.5 0.062 6.48 0.8 13.52
3/21/2021 5:30:00 AM 2.45 36.41 0.062 6.51 0.83 13.54
3/21/2021 5:45:00 AM 2.41 36.338 0.062 6.49 0.81 13.55
3/21/2021 6:00:00 AM 2.36 36.248 0.062 6.51 0.77 13.58
3/21/2021 6:15:00 AM 2.32 36.176 0.062 6.51 0.82 13.6
3/21/2021 6:30:00 AM 2.28 36.104 0.062 6.51 0.81 13.61
3/21/2021 6:45:00 AM 2.23 36.014 0.062 6.5 0.86 13.64
3/21/2021 7:00:00 AM 2.2 35.96 0.062 6.5 0.91 13.65
3/21/2021 7:15:00 AM 2.16 35.888 0.062 6.48 0.78 13.67
3/21/2021 7:30:00 AM 2.12 35.816 0.062 6.52 0.83 13.7
3/21/2021 7:45:00 AM 2.09 35.762 0.062 6.51 0.82 13.73
3/21/2021 8:00:00 AM 2.06 35.708 0.062 6.52 0.89 13.76
3/21/2021 8:15:00 AM 2.04 35.672 0.062 6.53 0.74 13.79
3/21/2021 8:30:00 AM 2.03 35.654 0.062 6.53 0.78 13.82
3/21/2021 8:45:00 AM 2.03 35.654 0.062 6.53 0.8 13.83
3/21/2021 9:00:00 AM 2.04 35.672 0.062 6.52 0.75 13.85
3/21/2021 9:15:00 AM 2.06 35.708 0.062 6.55 0.69 13.86
3/21/2021 9:30:00 AM 2.1 35.78 0.061 6.53 0.7 13.87
3/21/2021 9:45:00 AM 2.17 35.906 0.061 6.55 0.74 13.86
3/21/2021 10:00:00 AM 2.25 36.05 0.061 6.56 0.7 13.84
3/21/2021 10:15:00 AM 2.35 36.23 0.061 6.52 0.74 13.82
3/21/2021 10:30:00 AM 2.48 36.464 0.061 6.56 0.68 13.79
3/21/2021 10:45:00 AM 2.62 36.716 0.061 6.51 0.7 13.74
3/21/2021 11:00:00 AM 2.79 37.022 0.061 6.58 0.67 13.69
3/21/2021 11:15:00 AM 2.98 37.364 0.061 6.59 0.66 13.62
3/21/2021 11:30:00 AM 3.18 37.724 0.061 6.59 0.67 13.56
3/21/2021 11:45:00 AM 3.39 38.102 0.061 6.6 0.68 13.48
3/21/2021 12:00:00 PM 3.62 38.516 0.061 6.6 0.69 13.4
3/21/2021 12:15:00 PM 3.87 38.966 0.061 6.61 0.61 13.32
3/21/2021 12:30:00 PM 4.1 39.38 0.061 6.6 0.65 13.24
3/21/2021 12:45:00 PM 4.32 39.776 0.061 6.62 0.67 13.16
3/21/2021 1:00:00 PM 4.52 40.136 0.061 6.63 0.57 13.1
3/21/2021 1:15:00 PM 4.69 40.442 0.061 6.63 0.69 13.03
3/21/2021 1:30:00 PM 4.82 40.676 0.061 6.65 0.64 12.97
3/21/2021 1:45:00 PM 4.94 40.892 0.061 6.64 0.6 12.92
3/21/2021 2:00:00 PM 5.03 41.054 0.061 6.64 0.65 12.88
3/21/2021 2:15:00 PM 5.11 41.198 0.061 6.65 0.61 12.83
3/21/2021 2:30:00 PM 5.18 41.324 0.061 6.64 0.61 12.79
3/21/2021 2:45:00 PM 5.24 41.432 0.061 6.6 0.6 12.75
3/21/2021 3:00:00 PM 5.29 41.522 0.061 6.66 0.67 12.72
3/21/2021 3:15:00 PM 5.33 41.594 0.061 6.65 0.91 12.7
3/21/2021 3:30:00 PM 5.36 41.648 0.061 6.65 0.71 12.67
3/21/2021 3:45:00 PM 5.39 41.702 0.061 6.64 0.66 12.65
3/21/2021 4:00:00 PM 5.4 41.72 0.061 6.66 0.65 12.63
3/21/2021 4:15:00 PM 5.42 41.756 0.061 6.66 0.68 12.61
3/21/2021 4:30:00 PM 5.43 41.774 0.061 6.65 0.7 12.6
3/21/2021 4:45:00 PM 5.43 41.774 0.061 6.63 0.76 12.59
3/21/2021 5:00:00 PM 5.44 41.792 0.061 6.64 0.58 12.57
3/21/2021 5:15:00 PM 5.45 41.81 0.061 6.64 0.7 12.56
3/21/2021 5:30:00 PM 5.46 41.828 0.061 6.64 0.72 12.53
3/21/2021 5:45:00 PM 5.48 41.864 0.061 6.63 0.73 12.52
3/21/2021 6:00:00 PM 5.49 41.882 0.061 6.62 0.71 12.51
3/21/2021 6:15:00 PM 5.5 41.9 0.061 6.62 0.73 12.49
3/21/2021 6:30:00 PM 5.51 41.918 0.061 6.6 0.7 12.47
3/21/2021 6:45:00 PM 5.51 41.918 0.06 6.6 0.69 12.46
3/21/2021 7:00:00 PM 5.52 41.936 0.06 6.6 0.69 12.44
3/21/2021 7:15:00 PM 5.51 41.918 0.06 6.59 0.72 12.42
3/21/2021 7:30:00 PM 5.51 41.918 0.06 6.58 0.73 12.41
3/21/2021 7:45:00 PM 5.49 41.882 0.06 6.59 0.71 12.41
3/21/2021 8:00:00 PM 5.48 41.864 0.06 6.54 0.81 12.42
3/21/2021 8:15:00 PM 5.45 41.81 0.06 6.57 0.8 12.42
3/21/2021 8:30:00 PM 5.42 41.756 0.06 6.56 0.77 12.42
3/21/2021 8:45:00 PM 5.38 41.684 0.06 6.57 0.76 12.44
3/21/2021 9:00:00 PM 5.34 41.612 0.06 6.55 0.78 12.45
3/21/2021 9:15:00 PM 5.29 41.522 0.06 6.49 0.77 12.47
3/21/2021 9:30:00 PM 5.24 41.432 0.06 6.57 0.77 12.48
3/21/2021 9:45:00 PM 5.18 41.324 0.06 6.56 0.78 12.51
3/21/2021 10:00:00 PM 5.12 41.216 0.06 6.57 0.82 12.53
3/21/2021 10:15:00 PM 5.06 41.108 0.06 6.47 0.8 12.55
3/21/2021 10:30:00 PM 4.99 40.982 0.06 6.53 0.9 12.57
3/21/2021 10:45:00 PM 4.92 40.856 0.06 6.57 0.9 12.6
3/21/2021 11:00:00 PM 4.85 40.73 0.06 6.55 1.32 12.61
3/21/2021 11:15:00 PM 4.78 40.604 0.06 6.5 1.18 12.64
3/21/2021 11:30:00 PM 4.71 40.478 0.06 6.55 1.17 12.67
3/21/2021 11:45:00 PM 4.64 40.352 0.06 6.55 1.16 12.69
3/22/2021 12:00:00 AM 4.58 40.244 0.06 6.56 1.19 12.71
3/22/2021 12:15:00 AM 4.51 40.118 0.06 6.55 1.16 12.74
3/22/2021 12:30:00 AM 4.44 39.992 0.06 6.55 1.11 12.76
3/22/2021 12:45:00 AM 4.38 39.884 0.06 6.55 1.19 12.78
3/22/2021 1:00:00 AM 4.31 39.758 0.06 6.55 1.24 12.8
3/22/2021 1:15:00 AM 4.25 39.65 0.06 6.52 1.13 12.83
3/22/2021 1:30:00 AM 4.18 39.524 0.06 6.53 0.91 12.85
3/22/2021 1:45:00 AM 4.11 39.398 0.06 6.53 0.87 12.87
3/22/2021 2:00:00 AM 4.05 39.29 0.06 6.52 0.8 12.9
3/22/2021 2:15:00 AM 3.99 39.182 0.06 6.54 0.83 12.92
3/22/2021 2:30:00 AM 3.93 39.074 0.06 6.53 0.85 12.94
3/22/2021 2:45:00 AM 3.87 38.966 0.06 6.53 0.85 12.96
3/22/2021 3:00:00 AM 3.81 38.858 0.06 6.53 0.81 12.98
3/22/2021 3:15:00 AM 3.75 38.75 0.06 6.52 0.79 13
3/22/2021 3:30:00 AM 3.7 38.66 0.06 6.52 0.86 13.01
3/22/2021 3:45:00 AM 3.64 38.552 0.06 6.53 0.8 13.03
3/22/2021 4:00:00 AM 3.58 38.444 0.06 6.52 0.81 13.06
3/22/2021 4:15:00 AM 3.53 38.354 0.06 6.54 0.76 13.08
3/22/2021 4:30:00 AM 3.47 38.246 0.06 6.51 0.8 13.1
3/22/2021 4:45:00 AM 3.42 38.156 0.06 6.53 0.82 13.12
3/22/2021 5:00:00 AM 3.37 38.066 0.06 6.53 0.77 13.14
3/22/2021 5:15:00 AM 3.32 37.976 0.06 6.52 0.79 13.16
3/22/2021 5:30:00 AM 3.27 37.886 0.06 6.53 0.79 13.17
3/22/2021 5:45:00 AM 3.22 37.796 0.06 6.53 0.79 13.2
3/22/2021 6:00:00 AM 3.17 37.706 0.06 6.54 0.76 13.22
3/22/2021 6:15:00 AM 3.12 37.616 0.06 6.53 0.72 13.23
3/22/2021 6:30:00 AM 3.07 37.526 0.06 6.53 0.83 13.25
3/22/2021 6:45:00 AM 3.02 37.436 0.06 6.52 0.77 13.27
3/22/2021 7:00:00 AM 2.98 37.364 0.06 6.51 0.71 13.29
3/22/2021 7:15:00 AM 2.93 37.274 0.06 6.53 0.72 13.31
3/22/2021 7:30:00 AM 2.89 37.202 0.06 6.52 0.74 13.34
3/22/2021 7:45:00 AM 2.86 37.148 0.06 6.53 0.76 13.38
3/22/2021 8:00:00 AM 2.83 37.094 0.06 6.52 0.74 13.41
3/22/2021 8:15:00 AM 2.8 37.04 0.06 6.47 0.73 13.44
3/22/2021 8:30:00 AM 2.79 37.022 0.06 6.5 0.69 13.47
3/22/2021 8:45:00 AM 2.78 37.004 0.06 6.55 0.69 13.48
3/22/2021 9:00:00 AM 2.79 37.022 0.06 6.52 0.71 13.51
3/22/2021 9:15:00 AM 2.81 37.058 0.06 6.55 0.71 13.52
3/22/2021 9:30:00 AM 2.85 37.13 0.06 6.57 0.69 13.52
3/22/2021 9:45:00 AM 2.91 37.238 0.06 6.57 0.69 13.52
3/22/2021 10:00:00 AM 3 37.4 0.06 6.59 0.65 13.5
3/22/2021 10:15:00 AM 3.1 37.58 0.06 6.58 0.59 13.49
3/22/2021 10:30:00 AM 3.22 37.796 0.06 6.58 0.68 13.45
3/22/2021 10:45:00 AM 3.36 38.048 0.06 6.6 0.61 13.41
3/22/2021 11:00:00 AM 3.52 38.336 0.06 6.61 0.62 13.36
3/22/2021 11:15:00 AM 3.71 38.678 0.06 6.61 0.59 13.3
3/22/2021 11:30:00 AM 3.9 39.02 0.06 6.61 0.66 13.23
3/22/2021 11:45:00 AM 4.12 39.416 0.06 6.63 0.59 13.17
3/22/2021 12:00:00 PM 4.35 39.83 0.06 6.57 0.59 13.09
3/22/2021 12:15:00 PM 4.59 40.262 0.06 6.64 0.62 13.01
3/22/2021 12:30:00 PM 4.83 40.694 0.06 6.65 0.58 12.93
3/22/2021 12:45:00 PM 5.05 41.09 0.06 6.63 0.61 12.86
3/22/2021 1:00:00 PM 5.25 41.45 0.06 6.62 0.56 12.78
3/22/2021 1:15:00 PM 5.42 41.756 0.06 6.66 0.66 12.72
3/22/2021 1:30:00 PM 5.56 42.008 0.06 6.63 0.6 12.67
3/22/2021 1:45:00 PM 5.67 42.206 0.06 6.67 0.64 12.62
3/22/2021 2:00:00 PM 5.76 42.368 0.06 6.67 0.55 12.57
3/22/2021 2:15:00 PM 5.84 42.512 0.06 6.67 0.59 12.53
3/22/2021 2:30:00 PM 5.9 42.62 0.06 6.63 0.58 12.5
3/22/2021 2:45:00 PM 5.96 42.728 0.06 6.67 0.56 12.46
3/22/2021 3:00:00 PM 6 42.8 0.06 6.64 0.59 12.43
3/22/2021 3:15:00 PM 6.03 42.854 0.06 6.68 0.7 12.41
3/22/2021 3:30:00 PM 6.05 42.89 0.06 6.67 0.56 12.38
3/22/2021 3:45:00 PM 6.07 42.926 0.06 6.66 0.6 12.37
3/22/2021 4:00:00 PM 6.08 42.944 0.06 6.65 0.56 12.35
3/22/2021 4:15:00 PM 6.09 42.962 0.06 6.67 0.56 12.34
3/22/2021 4:30:00 PM 6.1 42.98 0.06 6.65 0.6 12.32
3/22/2021 4:45:00 PM 6.09 42.962 0.06 6.67 0.57 12.31
3/22/2021 5:00:00 PM 6.09 42.962 0.06 6.63 0.55 12.3
3/22/2021 5:15:00 PM 6.09 42.962 0.06 6.65 0.6 12.29
3/22/2021 5:30:00 PM 6.09 42.962 0.06 6.53 0.62 12.27
3/22/2021 5:45:00 PM 6.1 42.98 0.059 6.64 0.69 12.26
3/22/2021 6:00:00 PM 6.11 42.998 0.059 6.62 0.64 12.24
3/22/2021 6:15:00 PM 6.11 42.998 0.059 6.62 0.68 12.23
3/22/2021 6:30:00 PM 6.11 42.998 0.059 6.62 0.68 12.21
3/22/2021 6:45:00 PM 6.11 42.998 0.059 6.6 0.67 12.19
3/22/2021 7:00:00 PM 6.11 42.998 0.059 6.6 0.7 12.18
3/22/2021 7:15:00 PM 6.1 42.98 0.059 6.6 0.63 12.17
3/22/2021 7:30:00 PM 6.09 42.962 0.059 6.59 0.71 12.16
3/22/2021 7:45:00 PM 6.08 42.944 0.059 6.58 0.65 12.15
3/22/2021 8:00:00 PM 6.05 42.89 0.059 6.56 0.72 12.15
3/22/2021 8:15:00 PM 6.03 42.854 0.059 6.58 0.69 12.16
3/22/2021 8:30:00 PM 5.99 42.782 0.059 6.55 0.66 12.17
3/22/2021 8:45:00 PM 5.96 42.728 0.059 6.56 0.68 12.18
3/22/2021 9:00:00 PM 5.91 42.638 0.059 6.57 0.69 12.19
3/22/2021 9:15:00 PM 5.86 42.548 0.059 6.56 0.69 12.21
3/22/2021 9:30:00 PM 5.81 42.458 0.059 6.56 0.7 12.22
3/22/2021 9:45:00 PM 5.76 42.368 0.059 6.57 0.68 12.24
3/22/2021 10:00:00 PM 5.7 42.26 0.059 6.55 0.75 12.27
3/22/2021 10:15:00 PM 5.64 42.152 0.059 6.56 0.68 12.28
3/22/2021 10:30:00 PM 5.58 42.044 0.059 6.55 0.74 12.3
3/22/2021 10:45:00 PM 5.51 41.918 0.059 6.54 0.74 12.32
3/22/2021 11:00:00 PM 5.44 41.792 0.059 6.55 0.73 12.34
3/22/2021 11:15:00 PM 5.37 41.666 0.059 6.56 0.71 12.37
3/22/2021 11:30:00 PM 5.3 41.54 0.059 6.55 0.72 12.39
3/22/2021 11:45:00 PM 5.24 41.432 0.059 6.55 0.7 12.43
3/23/2021 12:00:00 AM 5.17 41.306 0.059 6.55 0.72 12.45
3/23/2021 12:15:00 AM 5.1 41.18 0.059 6.54 0.76 12.47
3/23/2021 12:30:00 AM 5.03 41.054 0.059 6.54 0.71 12.49
3/23/2021 12:45:00 AM 4.96 40.928 0.059 6.55 0.73 12.51
3/23/2021 1:00:00 AM 4.89 40.802 0.059 6.53 0.69 12.54
3/23/2021 1:15:00 AM 4.83 40.694 0.059 6.55 0.71 12.56
3/23/2021 1:30:00 AM 4.76 40.568 0.059 6.49 0.71 12.58
3/23/2021 1:45:00 AM 4.69 40.442 0.059 6.54 0.7 12.61
3/23/2021 2:00:00 AM 4.62 40.316 0.059 6.53 0.71 12.63
3/23/2021 2:15:00 AM 4.56 40.208 0.059 6.52 0.72 12.65
3/23/2021 2:30:00 AM 4.49 40.082 0.059 6.54 0.74 12.68
3/23/2021 2:45:00 AM 4.42 39.956 0.059 6.53 0.7 12.71
3/23/2021 3:00:00 AM 4.36 39.848 0.059 6.44 0.7 12.72
3/23/2021 3:15:00 AM 4.3 39.74 0.059 6.53 0.67 12.74
3/23/2021 3:30:00 AM 4.24 39.632 0.059 6.54 0.61 12.77
3/23/2021 3:45:00 AM 4.18 39.524 0.059 6.53 0.65 12.78
3/23/2021 4:00:00 AM 4.12 39.416 0.059 6.53 0.7 12.81
3/23/2021 4:15:00 AM 4.06 39.308 0.059 6.49 0.68 12.83
3/23/2021 4:30:00 AM 4.01 39.218 0.059 6.53 0.64 12.86
3/23/2021 4:45:00 AM 3.95 39.11 0.059 6.48 0.64 12.87
3/23/2021 5:00:00 AM 3.89 39.002 0.059 6.52 0.63 12.89
3/23/2021 5:15:00 AM 3.84 38.912 0.059 6.51 0.68 12.91
3/23/2021 5:30:00 AM 3.78 38.804 0.059 6.44 0.65 12.93
3/23/2021 5:45:00 AM 3.73 38.714 0.059 6.52 0.73 12.95
3/23/2021 6:00:00 AM 3.67 38.606 0.059 6.52 0.65 12.97
3/23/2021 6:15:00 AM 3.62 38.516 0.059 6.52 0.73 12.99
3/23/2021 6:30:00 AM 3.56 38.408 0.059 6.49 0.64 13.01
3/23/2021 6:45:00 AM 3.51 38.318 0.059 6.52 0.59 13.03
3/23/2021 7:00:00 AM 3.46 38.228 0.059 6.5 0.64 13.05
3/23/2021 7:15:00 AM 3.42 38.156 0.059 6.5 0.61 13.07
3/23/2021 7:30:00 AM 3.38 38.084 0.059 6.51 0.64 13.11
3/23/2021 7:45:00 AM 3.34 38.012 0.059 6.51 0.61 13.15
3/23/2021 8:00:00 AM 3.31 37.958 0.059 6.53 0.59 13.18
3/23/2021 8:15:00 AM 3.28 37.904 0.059 6.52 0.55 13.21
3/23/2021 8:30:00 AM 3.27 37.886 0.059 6.53 0.69 13.24
3/23/2021 8:45:00 AM 3.27 37.886 0.059 6.55 0.6 13.26
3/23/2021 9:00:00 AM 3.27 37.886 0.059 6.54 0.62 13.28
3/23/2021 9:15:00 AM 3.3 37.94 0.059 6.56 0.64 13.3
3/23/2021 9:30:00 AM 3.34 38.012 0.059 6.54 0.61 13.3
3/23/2021 9:45:00 AM 3.4 38.12 0.059 6.5 0.57 13.3
3/23/2021 10:00:00 AM 3.48 38.264 0.059 6.58 0.57 13.29
3/23/2021 10:15:00 AM 3.58 38.444 0.059 6.56 0.58 13.27
3/23/2021 10:30:00 AM 3.7 38.66 0.059 6.57 0.55 13.24
3/23/2021 10:45:00 AM 3.84 38.912 0.059 6.59 0.5 13.2
3/23/2021 11:00:00 AM 4 39.2 0.059 6.59 0.65 13.16
3/23/2021 11:15:00 AM 4.17 39.506 0.059 6.61 0.55 13.1
3/23/2021 11:30:00 AM 4.34 39.812 0.059 6.6 0.61 13.04
3/23/2021 11:45:00 AM 4.54 40.172 0.059 6.53 0.54 12.98
3/23/2021 12:00:00 PM 4.76 40.568 0.059 6.63 0.57 12.91
3/23/2021 12:15:00 PM 5 41 0.058 6.63 0.5 12.84
3/23/2021 12:30:00 PM 5.24 41.432 0.058 6.61 0.55 12.77
3/23/2021 12:45:00 PM 5.45 41.81 0.058 6.64 0.5 12.7
3/23/2021 1:00:00 PM 5.63 42.134 0.058 6.64 0.49 12.63
3/23/2021 1:15:00 PM 5.81 42.458 0.058 6.64 0.54 12.57
3/23/2021 1:30:00 PM 5.93 42.674 0.058 6.62 0.53 12.52
3/23/2021 1:45:00 PM 6.01 42.818 0.058 6.67 0.5 12.48
3/23/2021 2:00:00 PM 6.11 42.998 0.058 6.66 0.51 12.44
3/23/2021 2:15:00 PM 6.2 43.16 0.058 6.67 0.51 12.41
3/23/2021 2:30:00 PM 6.28 43.304 0.058 6.66 0.51 12.37
3/23/2021 2:45:00 PM 6.34 43.412 0.058 6.66 0.55 12.34
3/23/2021 3:00:00 PM 6.38 43.484 0.058 6.65 0.6 12.31
3/23/2021 3:15:00 PM 6.44 43.592 0.058 6.66 0.56 12.29
3/23/2021 3:30:00 PM 6.46 43.628 0.058 6.67 0.55 12.27
3/23/2021 3:45:00 PM 6.5 43.7 0.058 6.67 0.58 12.25
3/23/2021 4:00:00 PM 6.52 43.736 0.058 6.65 0.49 12.22
3/23/2021 4:15:00 PM 6.55 43.79 0.058 6.67 0.57 12.21
3/23/2021 4:30:00 PM 6.59 43.862 0.058 6.66 0.62 12.2
3/23/2021 4:45:00 PM 6.61 43.898 0.058 6.67 0.53 12.18
3/23/2021 5:00:00 PM 6.64 43.952 0.058 6.67 0.58 12.16
3/23/2021 5:15:00 PM 6.65 43.97 0.058 6.66 0.54 12.14
3/23/2021 5:30:00 PM 6.68 44.024 0.058 6.54 0.58 12.12
3/23/2021 5:45:00 PM 6.69 44.042 0.058 6.65 0.61 12.09
3/23/2021 6:00:00 PM 6.7 44.06 0.058 6.63 0.62 12.06
3/23/2021 6:15:00 PM 6.72 44.096 0.058 6.61 0.61 12.03
3/23/2021 6:30:00 PM 6.73 44.114 0.058 6.59 0.61 12.02
3/23/2021 6:45:00 PM 6.74 44.132 0.058 6.61 0.68 11.99
3/23/2021 7:00:00 PM 6.75 44.15 0.058 6.6 0.62 11.97
3/23/2021 7:15:00 PM 6.75 44.15 0.058 6.45 0.64 11.95
3/23/2021 7:30:00 PM 6.75 44.15 0.058 6.57 0.65 11.93
3/23/2021 7:45:00 PM 6.74 44.132 0.058 6.56 0.61 11.92
3/23/2021 8:00:00 PM 6.72 44.096 0.058 6.56 0.67 11.92
3/23/2021 8:15:00 PM 6.7 44.06 0.058 6.56 0.59 11.91
3/23/2021 8:30:00 PM 6.68 44.024 0.058 6.54 0.72 11.92
3/23/2021 8:45:00 PM 6.65 43.97 0.058 6.55 0.7 11.93
3/23/2021 9:00:00 PM 6.62 43.916 0.058 6.52 0.72 11.93
3/23/2021 9:15:00 PM 6.59 43.862 0.058 6.54 0.63 11.95
3/23/2021 9:30:00 PM 6.56 43.808 0.058 6.54 0.73 11.96
3/23/2021 9:45:00 PM 6.52 43.736 0.058 6.55 0.69 11.97
3/23/2021 10:00:00 PM 6.49 43.682 0.058 6.54 0.74 11.99
3/23/2021 10:15:00 PM 6.46 43.628 0.058 6.54 0.65 11.99
3/23/2021 10:30:00 PM 6.43 43.574 0.058 6.54 0.67 12
3/23/2021 10:45:00 PM 6.39 43.502 0.058 6.52 0.77 12.01
3/23/2021 11:00:00 PM 6.35 43.43 0.058 6.53 0.69 12.03
3/23/2021 11:15:00 PM 6.31 43.358 0.058 6.54 0.73 12.04
3/23/2021 11:30:00 PM 6.27 43.286 0.058 6.43 0.68 12.05
3/23/2021 11:45:00 PM 6.22 43.196 0.058 6.54 0.75 12.06
3/24/2021 12:00:00 AM 6.18 43.124 0.058 6.52 0.68 12.08
3/24/2021 12:15:00 AM 6.14 43.052 0.058 6.53 0.67 12.09
3/24/2021 12:30:00 AM 6.09 42.962 0.058 6.51 0.64 12.11
3/24/2021 12:45:00 AM 6.04 42.872 0.058 6.53 0.71 12.13
3/24/2021 1:00:00 AM 6 42.8 0.058 6.52 0.73 12.15
3/24/2021 1:15:00 AM 5.95 42.71 0.058 6.49 0.75 12.16
3/24/2021 1:30:00 AM 5.91 42.638 0.058 6.52 0.81 12.18
3/24/2021 1:45:00 AM 5.87 42.566 0.058 6.52 0.76 12.19
3/24/2021 2:00:00 AM 5.83 42.494 0.058 6.51 0.7 12.2
3/24/2021 2:15:00 AM 5.79 42.422 0.058 6.52 0.75 12.21
3/24/2021 2:30:00 AM 5.76 42.368 0.058 6.5 0.73 12.23
3/24/2021 2:45:00 AM 5.73 42.314 0.058 6.51 0.77 12.24
3/24/2021 3:00:00 AM 5.71 42.278 0.058 6.51 0.72 12.24
3/24/2021 3:15:00 AM 5.68 42.224 0.058 6.51 0.72 12.24
3/24/2021 3:30:00 AM 5.66 42.188 0.058 6.49 0.71 12.25
3/24/2021 3:45:00 AM 5.64 42.152 0.058 6.5 0.73 12.25
3/24/2021 4:00:00 AM 5.61 42.098 0.058 6.41 0.79 12.27
3/24/2021 4:15:00 AM 5.59 42.062 0.058 6.51 0.76 12.27
3/24/2021 4:30:00 AM 5.57 42.026 0.058 6.5 0.76 12.27
3/24/2021 4:45:00 AM 5.55 41.99 0.058 6.51 0.69 12.28
3/24/2021 5:00:00 AM 5.53 41.954 0.058 6.45 0.66 12.29
3/24/2021 5:15:00 AM 5.52 41.936 0.058 6.5 0.72 12.29
3/24/2021 5:30:00 AM 5.5 41.9 0.058 6.5 0.7 12.3
3/24/2021 5:45:00 AM 5.49 41.882 0.058 6.49 0.68 12.3
3/24/2021 6:00:00 AM 5.48 41.864 0.058 6.49 0.68 12.31
3/24/2021 6:15:00 AM 5.48 41.864 0.058 6.48 0.73 12.3
3/24/2021 6:30:00 AM 5.47 41.846 0.058 6.48 0.69 12.3
3/24/2021 6:45:00 AM 5.47 41.846 0.057 6.45 0.75 12.31
3/24/2021 7:00:00 AM 5.46 41.828 0.057 6.44 0.72 12.31
3/24/2021 7:15:00 AM 5.46 41.828 0.057 6.49 0.76 12.31
3/24/2021 7:30:00 AM 5.46 41.828 0.057 6.47 0.73 12.31
3/24/2021 7:45:00 AM 5.46 41.828 0.057 6.49 0.67 12.32
3/24/2021 8:00:00 AM 5.47 41.846 0.057 6.48 0.68 12.32
3/24/2021 8:15:00 AM 5.47 41.846 0.057 6.5 0.6 12.33
3/24/2021 8:30:00 AM 5.48 41.864 0.057 6.49 0.62 12.33
3/24/2021 8:45:00 AM 5.49 41.882 0.057 6.48 0.68 12.34
3/24/2021 9:00:00 AM 5.5 41.9 0.057 6.5 0.67 12.35
3/24/2021 9:15:00 AM 5.51 41.918 0.057 6.41 0.82 12.36
3/24/2021 9:30:00 AM 5.52 41.936 0.057 6.49 0.71 12.36
3/24/2021 9:45:00 AM 5.54 41.972 0.057 6.51 0.7 12.38
3/24/2021 10:00:00 AM 5.56 42.008 0.057 6.51 0.77 12.38
3/24/2021 10:15:00 AM 5.58 42.044 0.057 6.52 0.73 12.39
3/24/2021 10:30:00 AM 5.61 42.098 0.057 6.52 0.73 12.39
3/24/2021 10:45:00 AM 5.65 42.17 0.056 6.52 0.8 12.4
3/24/2021 11:00:00 AM 5.68 42.224 0.056 6.53 0.89 12.39
3/24/2021 11:15:00 AM 5.72 42.296 0.056 6.51 0.96 12.38
3/24/2021 11:30:00 AM 5.76 42.368 0.056 6.53 1.01 12.34
3/24/2021 11:45:00 AM 5.8 42.44 0.056 6.49 1.03 12.31
3/24/2021 12:00:00 PM 5.84 42.512 0.056 6.55 1.27 12.3
3/24/2021 12:15:00 PM 5.88 42.584 0.055 6.53 1.56 12.29
3/24/2021 12:30:00 PM 5.94 42.692 0.055 6.51 1.86 12.27
3/24/2021 12:45:00 PM 6.01 42.818 0.055 6.55 2.1 12.26
3/24/2021 1:00:00 PM 6.08 42.944 0.055 6.56 2.9 12.24
3/24/2021 1:15:00 PM 6.16 43.088 0.054 6.57 4.27 12.2
3/24/2021 1:30:00 PM 6.24 43.232 0.054 6.58 6.45 12.17
3/24/2021 1:45:00 PM 6.33 43.394 0.054 6.6 9.29 12.13
3/24/2021 2:00:00 PM 6.4 43.52 0.053 6.59 13.17 12.11
3/24/2021 2:15:00 PM 6.46 43.628 0.052 6.57 17.05 12.07
3/24/2021 2:30:00 PM 6.49 43.682 0.052 6.6 21.03 12.06
3/24/2021 2:45:00 PM 6.52 43.736 0.051 6.57 20.97 12.05
3/24/2021 3:00:00 PM 6.54 43.772 0.05 6.55 21.43 12.04
3/24/2021 3:15:00 PM 6.55 43.79 0.05 6.56 31.11 12.03
3/24/2021 3:30:00 PM 6.56 43.808 0.049 6.43 37.91 12.02
3/24/2021 3:45:00 PM 6.56 43.808 0.049 6.51 25.52 12.02
3/24/2021 4:00:00 PM 6.56 43.808 0.048 6.47 37.26 12.02
3/24/2021 4:15:00 PM 6.53 43.754 0.048 6.46 24.89 12.03
3/24/2021 4:30:00 PM 6.49 43.682 0.048 6.45 23.9 12.04
3/24/2021 4:45:00 PM 6.45 43.61 0.048 6.35 31.14 12.05
3/24/2021 5:00:00 PM 6.4 43.52 0.048 6.42 28.22 12.06
3/24/2021 5:15:00 PM 6.36 43.448 0.047 6.4 25.08 12.08
3/24/2021 5:30:00 PM 6.31 43.358 0.046 6.34 22.91 12.1
3/24/2021 5:45:00 PM 6.26 43.268 0.046 6.27 25.29 12.11
3/24/2021 6:00:00 PM 6.21 43.178 0.045 6.31 28.08 12.12
3/24/2021 6:15:00 PM 6.17 43.106 0.045 6.3 22.83 12.14
3/24/2021 6:30:00 PM 6.13 43.034 0.046 6.26 16.66 12.15
3/24/2021 6:45:00 PM 6.09 42.962 0.046 6.28 16.8 12.16
3/24/2021 7:00:00 PM 6.06 42.908 0.046 6.25 18.27 12.17
3/24/2021 7:15:00 PM 6.04 42.872 0.047 6.23 18.99 12.17
3/24/2021 7:30:00 PM 6.03 42.854 0.047 6.25 18.53 12.18
3/24/2021 7:45:00 PM 6.01 42.818 0.021 6.24 29.11 12.18
3/24/2021 8:00:00 PM 5.99 42.782 0.02 6.15 17.22 12.19
3/24/2021 8:15:00 PM 5.97 42.746 0.021 6.23 14.96 12.19
3/24/2021 8:30:00 PM 5.95 42.71 0.049 6.1 13.93 12.2
3/24/2021 8:45:00 PM 5.94 42.692 0.022 6.19 14.57 12.2
3/24/2021 9:00:00 PM 5.93 42.674 0.049 6.2 14.69 12.2
3/24/2021 9:15:00 PM 5.93 42.674 0.049 6.16 13.17 12.2
3/24/2021 9:30:00 PM 5.92 42.656 0.049 6.2 13.03 12.21
3/24/2021 9:45:00 PM 5.91 42.638 0.05 6.19 12.03 12.21
3/24/2021 10:00:00 PM 5.9 42.62 0.05 6.2 11.75 12.21
3/24/2021 10:15:00 PM 5.9 42.62 0.05 6.17 10.52 12.21
3/24/2021 10:30:00 PM 5.89 42.602 0.025 6.13 10.62 12.21
3/24/2021 10:45:00 PM 5.89 42.602 0.023 6.2 9.84 12.21
3/24/2021 11:00:00 PM 5.89 42.602 0.02 6.19 9.42 12.22
3/24/2021 11:15:00 PM 5.88 42.584 0.05 6.2 9.84 12.21
3/24/2021 11:30:00 PM 5.88 42.584 0.023 6.18 8.92 12.22
3/24/2021 11:45:00 PM 5.88 42.584 0.022 6.1 9.24 12.22
3/25/2021 12:00:00 AM 5.87 42.566 0.025 6.21 7.93 12.22
3/25/2021 12:15:00 AM 5.87 42.566 0.021 6.11 8.67 12.22
3/25/2021 12:30:00 AM 5.86 42.548 0.022 6.2 7.98 12.23
3/25/2021 12:45:00 AM 5.86 42.548 0.023 6.14 7.82 12.22
3/25/2021 1:00:00 AM 5.85 42.53 0.025 6.17 7.64 12.22
3/25/2021 1:15:00 AM 5.85 42.53 0.022 6.16 7.01 12.23
3/25/2021 1:30:00 AM 5.84 42.512 0.024 6.19 6.74 12.22
3/25/2021 1:45:00 AM 5.83 42.494 0.023 6.19 7.11 12.22
3/25/2021 2:00:00 AM 5.83 42.494 0.022 6.13 6.6 12.22
3/25/2021 2:15:00 AM 5.82 42.476 0.027 6.19 6.21 12.22
3/25/2021 2:30:00 AM 5.82 42.476 0.023 6.13 6.57 12.23
3/25/2021 2:45:00 AM 5.81 42.458 0.024 6.17 6.04 12.23
3/25/2021 3:00:00 AM 5.8 42.44 0.023 6.18 6.22 12.23
3/25/2021 3:15:00 AM 5.79 42.422 0.023 6.21 5.88 12.23
3/25/2021 3:30:00 AM 5.78 42.404 0.023 6.15 5.74 12.23
3/25/2021 3:45:00 AM 5.77 42.386 0.023 6.14 5.4 12.23
3/25/2021 4:00:00 AM 5.77 42.386 0.024 6.16 5.27 12.23
3/25/2021 4:15:00 AM 5.76 42.368 0.023 6.17 5.66 12.23
3/25/2021 4:30:00 AM 5.76 42.368 0.024 6.17 5.29 12.23
3/25/2021 4:45:00 AM 5.76 42.368 0.024 6.19 5.54 12.23
3/25/2021 5:00:00 AM 5.75 42.35 0.023 6.2 5.14 12.23
3/25/2021 5:15:00 AM 5.75 42.35 0.024 6.13 4.95 12.24
3/25/2021 5:30:00 AM 5.75 42.35 0.024 6.18 4.65 12.24
3/25/2021 5:45:00 AM 5.74 42.332 0.025 6.19 4.77 12.24
3/25/2021 6:00:00 AM 5.74 42.332 0.024 6.22 4.53 12.25
3/25/2021 6:15:00 AM 5.74 42.332 0.024 6.13 4.74 12.25
3/25/2021 6:30:00 AM 5.74 42.332 0.025 6.18 4.3 12.25
3/25/2021 6:45:00 AM 5.73 42.314 0.024 6.22 4.47 12.25
3/25/2021 7:00:00 AM 5.73 42.314 0.023 6.18 4.25 12.25
3/25/2021 7:15:00 AM 5.73 42.314 0.024 6.15 4.02 12.25
3/25/2021 7:30:00 AM 5.74 42.332 0.024 6.22 3.91 12.26
3/25/2021 7:45:00 AM 5.76 42.368 0.024 6.19 4.02 12.26
3/25/2021 8:00:00 AM 5.77 42.386 0.024 6.18 3.97 12.26
3/25/2021 8:15:00 AM 5.79 42.422 0.022 6.19 3.7 12.26
3/25/2021 8:30:00 AM 5.82 42.476 0.023 6.21 3.79 12.26
3/25/2021 8:45:00 AM 5.85 42.53 0.023 6.24 3.52 12.26
3/25/2021 9:00:00 AM 5.87 42.566 0.023 6.18 3.6 12.26
3/25/2021 9:15:00 AM 5.9 42.62 0.025 6.25 3.42 12.25
3/25/2021 9:30:00 AM 5.94 42.692 0.024 6.22 3.19 12.25
3/25/2021 9:45:00 AM 5.97 42.746 0.022 6.23 3.42 12.23
3/25/2021 10:00:00 AM 6 42.8 0.023 6.27 3.33 12.23
3/25/2021 10:15:00 AM 6.05 42.89 0.024 6.31 3.08 12.22
3/25/2021 10:30:00 AM 6.09 42.962 0.022 6.32 3.06 12.22
3/25/2021 10:45:00 AM 6.13 43.034 0.023 6.27 3.21 12.21
3/25/2021 11:00:00 AM 6.17 43.106 0.023 6.31 3.32 12.21
3/25/2021 11:15:00 AM 6.23 43.214 0.023 6.33 3.03 12.19
3/25/2021 11:30:00 AM 6.29 43.322 0.021 6.33 2.98 12.18
3/25/2021 11:45:00 AM 6.36 43.448 0.022 6.34 3.05 12.15
3/25/2021 12:00:00 PM 6.42 43.556 0.021 6.37 2.92 12.14
3/25/2021 12:15:00 PM 6.51 43.718 0.022 6.32 3.08 12.13
3/25/2021 12:30:00 PM 6.62 43.916 0.023 6.39 2.96 12.09
3/25/2021 12:45:00 PM 6.78 44.204 0.022 6.32 2.83 12.05
3/25/2021 1:00:00 PM 6.87 44.366 0.021 6.39 2.89 12.02
3/25/2021 1:15:00 PM 6.94 44.492 0.021 6.38 2.92 12
3/25/2021 1:30:00 PM 7.06 44.708 0.023 6.41 2.66 11.97
3/25/2021 1:45:00 PM 7.23 45.014 0.023 6.34 2.89 11.92
3/25/2021 2:00:00 PM 7.45 45.41 0.022 6.39 2.84 11.85
3/25/2021 2:15:00 PM 7.56 45.608 0.023 6.39 2.84 11.82
3/25/2021 2:30:00 PM 7.7 45.86 0.021 6.44 2.71 11.77
3/25/2021 2:45:00 PM 7.84 46.112 0.023 6.34 2.65 11.71
3/25/2021 3:00:00 PM 7.96 46.328 0.022 6.35 2.87 11.67
3/25/2021 3:15:00 PM 8.07 46.526 0.023 6.44 2.62 11.64
3/25/2021 3:30:00 PM 8.14 46.652 0.023 6.37 2.55 11.6
3/25/2021 3:45:00 PM 8.22 46.796 0.023 6.42 2.58 11.58
3/25/2021 4:00:00 PM 8.29 46.922 0.023 6.4 2.67 11.55
3/25/2021 4:15:00 PM 8.36 47.048 0.022 6.41 2.71 11.53
3/25/2021 4:30:00 PM 8.43 47.174 0.05 6.45 2.85 11.49
3/25/2021 4:45:00 PM 8.51 47.318 0.023 6.34 2.64 11.47
3/25/2021 5:00:00 PM 8.58 47.444 0.05 6.4 2.62 11.44
3/25/2021 5:15:00 PM 8.65 47.57 0.05 6.38 2.77 11.41
3/25/2021 5:30:00 PM 8.7 47.66 0.024 6.41 2.6 11.39
3/25/2021 5:45:00 PM 8.74 47.732 0.021 6.43 2.61 11.36
3/25/2021 6:00:00 PM 8.77 47.786 0.023 6.42 2.54 11.34
3/25/2021 6:15:00 PM 8.79 47.822 0.05 6.41 2.67 11.32
3/25/2021 6:30:00 PM 8.81 47.858 0.05 6.41 2.55 11.31
3/25/2021 6:45:00 PM 8.81 47.858 0.05 6.39 2.48 11.29
3/25/2021 7:00:00 PM 8.81 47.858 0.05 6.4 2.56 11.29
3/25/2021 7:15:00 PM 8.81 47.858 0.05 6.38 2.51 11.27
3/25/2021 7:30:00 PM 8.8 47.84 0.05 6.39 2.5 11.27
3/25/2021 7:45:00 PM 8.78 47.804 0.05 6.32 2.48 11.27
3/25/2021 8:00:00 PM 8.76 47.768 0.05 6.39 2.69 11.27
3/25/2021 8:15:00 PM 8.74 47.732 0.05 6.36 2.72 11.27
3/25/2021 8:30:00 PM 8.72 47.696 0.05 6.37 2.46 11.28
3/25/2021 8:45:00 PM 8.7 47.66 0.05 6.39 2.46 11.29
3/25/2021 9:00:00 PM 8.68 47.624 0.05 6.38 2.39 11.3
3/25/2021 9:15:00 PM 8.65 47.57 0.05 6.3 2.5 11.31
3/25/2021 9:30:00 PM 8.62 47.516 0.05 6.38 2.57 11.32
3/25/2021 9:45:00 PM 8.59 47.462 0.05 6.37 2.36 11.33
3/25/2021 10:00:00 PM 8.55 47.39 0.05 6.36 2.46 11.33
3/25/2021 10:15:00 PM 8.52 47.336 0.05 6.37 2.41 11.34
3/25/2021 10:30:00 PM 8.48 47.264 0.05 6.26 2.48 11.35
3/25/2021 10:45:00 PM 8.44 47.192 0.05 6.38 2.41 11.36
3/25/2021 11:00:00 PM 8.4 47.12 0.05 6.32 2.27 11.37
3/25/2021 11:15:00 PM 8.36 47.048 0.05 6.36 2.34 11.37
3/25/2021 11:30:00 PM 8.32 46.976 0.05 6.35 2.39 11.39
3/25/2021 11:45:00 PM 8.28 46.904 0.05 6.35 2.46 11.39
3/26/2021 12:00:00 AM 8.24 46.832 0.05 6.34 2.26 11.41
3/26/2021 12:15:00 AM 8.21 46.778 0.05 6.36 2.29 11.41
3/26/2021 12:30:00 AM 8.18 46.724 0.05 6.35 2.24 11.42
3/26/2021 12:45:00 AM 8.15 46.67 0.05 6.34 2.28 11.42
3/26/2021 1:00:00 AM 8.12 46.616 0.05 6.37 2.27 11.44
3/26/2021 1:15:00 AM 8.1 46.58 0.05 6.36 2.26 11.44
3/26/2021 1:30:00 AM 8.07 46.526 0.05 6.35 2.16 11.44
3/26/2021 1:45:00 AM 8.05 46.49 0.05 6.35 2.34 11.44
3/26/2021 2:00:00 AM 8.04 46.472 0.05 6.36 2.23 11.44
3/26/2021 2:15:00 AM 8.02 46.436 0.05 6.35 2.07 11.44
3/26/2021 2:30:00 AM 8.01 46.418 0.05 6.36 2.27 11.44
3/26/2021 2:45:00 AM 8 46.4 0.05 6.35 2.16 11.45
3/26/2021 3:00:00 AM 7.99 46.382 0.05 6.33 2.06 11.44
3/26/2021 3:15:00 AM 7.98 46.364 0.05 6.33 2.13 11.44
3/26/2021 3:30:00 AM 7.98 46.364 0.05 6.31 2.15 11.44
3/26/2021 3:45:00 AM 7.99 46.382 0.05 6.36 2.44 11.44
3/26/2021 4:00:00 AM 8 46.4 0.05 6.34 2.15 11.43
3/26/2021 4:15:00 AM 8.01 46.418 0.05 6.36 2.21 11.42
3/26/2021 4:30:00 AM 8.03 46.454 0.05 6.35 2.05 11.42
3/26/2021 4:45:00 AM 8.03 46.454 0.05 6.35 2.14 11.41
3/26/2021 5:00:00 AM 8.03 46.454 0.05 6.36 2.06 11.41
3/26/2021 5:15:00 AM 8.03 46.454 0.05 6.36 2.15 11.4
3/26/2021 5:30:00 AM 8.02 46.436 0.05 6.36 2.09 11.39
3/26/2021 5:45:00 AM 8.01 46.418 0.05 6.38 2.02 11.41
3/26/2021 6:00:00 AM 8 46.4 0.05 6.34 2.01 11.4
3/26/2021 6:15:00 AM 7.99 46.382 0.05 6.36 1.98 11.4
3/26/2021 6:30:00 AM 7.97 46.346 0.05 6.35 2.05 11.4
3/26/2021 6:45:00 AM 7.96 46.328 0.05 6.36 2.05 11.4
3/26/2021 7:00:00 AM 7.96 46.328 0.05 6.31 1.94 11.4
3/26/2021 7:15:00 AM 7.97 46.346 0.05 6.35 2.17 11.41
3/26/2021 7:30:00 AM 7.98 46.364 0.05 6.38 2.09 11.41
3/26/2021 7:45:00 AM 7.99 46.382 0.05 6.37 2.06 11.41
3/26/2021 8:00:00 AM 8 46.4 0.05 6.31 1.94 11.42
3/26/2021 8:15:00 AM 8.02 46.436 0.05 6.38 1.92 11.42
3/26/2021 8:30:00 AM 8.04 46.472 0.05 6.35 1.87 11.41
3/26/2021 8:45:00 AM 8.08 46.544 0.05 6.41 1.87 11.42
3/26/2021 9:00:00 AM 8.12 46.616 0.05 6.32 1.79 11.42
3/26/2021 9:15:00 AM 8.18 46.724 0.049 6.4 1.75 11.41
3/26/2021 9:30:00 AM 8.24 46.832 0.05 6.41 1.72 11.41
3/26/2021 9:45:00 AM 8.34 47.012 0.05 6.46 1.83 11.4
3/26/2021 10:00:00 AM 8.47 47.246 0.05 6.41 1.86 11.37
3/26/2021 10:15:00 AM 8.6 47.48 0.05 6.48 1.85 11.34
3/26/2021 10:30:00 AM 8.74 47.732 0.05 6.42 1.82 11.31
3/26/2021 10:45:00 AM 8.86 47.948 0.05 6.5 1.81 11.26
3/26/2021 11:00:00 AM 9.01 48.218 0.05 6.49 1.74 11.23
3/26/2021 11:15:00 AM 9.14 48.452 0.05 6.41 1.73 11.19
3/26/2021 11:30:00 AM 9.23 48.614 0.05 6.49 1.78 11.17
3/26/2021 11:45:00 AM 9.32 48.776 0.05 6.5 1.85 11.14
3/26/2021 12:00:00 PM 9.45 49.01 0.05 6.51 1.9 11.11
3/26/2021 12:15:00 PM 9.62 49.316 0.05 6.41 1.69 11.08
3/26/2021 12:30:00 PM 9.84 49.712 0.05 6.49 1.91 11.04
3/26/2021 12:45:00 PM 10.03 50.054 0.05 6.51 1.72 11
3/26/2021 1:00:00 PM 10.16 50.288 0.05 6.53 1.67 10.94
3/26/2021 1:15:00 PM 10.3 50.54 0.05 6.51 1.85 10.91
3/26/2021 1:30:00 PM 10.41 50.738 0.049 6.52 1.85 10.89
3/26/2021 1:45:00 PM 10.4 50.72 0.049 6.52 1.82 10.89
3/26/2021 2:00:00 PM 10.39 50.702 0.049 6.52 1.85 10.86
3/26/2021 2:15:00 PM 10.34 50.612 0.049 6.49 1.84 10.87
3/26/2021 2:30:00 PM 10.28 50.504 0.049 6.49 1.86 10.89
3/26/2021 2:45:00 PM 10.25 50.45 0.049 6.52 1.93 10.9
3/26/2021 3:00:00 PM 10.25 50.45 0.049 6.43 1.83 10.91
3/26/2021 3:15:00 PM 10.33 50.594 0.049 6.53 1.81 10.9
3/26/2021 3:30:00 PM 10.36 50.648 0.049 6.51 1.97 10.89
3/26/2021 3:45:00 PM 10.36 50.648 0.049 6.49 1.99 10.88
3/26/2021 4:00:00 PM 10.34 50.612 0.049 6.52 1.84 10.87
3/26/2021 4:15:00 PM 10.29 50.522 0.049 6.47 2.2 10.88
3/26/2021 4:30:00 PM 10.25 50.45 0.049 6.51 2.01 10.89
3/26/2021 4:45:00 PM 10.21 50.378 0.049 6.5 1.96 10.9
3/26/2021 5:00:00 PM 10.15 50.27 0.05 6.48 2 10.91
3/26/2021 5:15:00 PM 10.07 50.126 0.05 6.5 2.03 10.93
3/26/2021 5:30:00 PM 9.99 49.982 0.05 6.51 1.96 10.95
3/26/2021 5:45:00 PM 9.91 49.838 0.05 6.51 1.97 10.97
3/26/2021 6:00:00 PM 9.85 49.73 0.05 6.42 1.98 11
3/26/2021 6:15:00 PM 9.78 49.604 0.05 6.48 1.97 11.01
3/26/2021 6:30:00 PM 9.72 49.496 0.05 6.41 1.94 11.03
3/26/2021 6:45:00 PM 9.65 49.37 0.05 6.49 1.94 11.05
3/26/2021 7:00:00 PM 9.59 49.262 0.05 6.48 1.95 11.06
3/26/2021 7:15:00 PM 9.51 49.118 0.05 6.47 2.13 11.07
3/26/2021 7:30:00 PM 9.44 48.992 0.05 6.36 2.02 11.08
3/26/2021 7:45:00 PM 9.37 48.866 0.05 6.48 1.99 11.1
3/26/2021 8:00:00 PM 9.3 48.74 0.05 6.45 1.98 11.12
3/26/2021 8:15:00 PM 9.22 48.596 0.05 6.45 2.15 11.14
3/26/2021 8:30:00 PM 9.14 48.452 0.05 6.47 2.07 11.16
3/26/2021 8:45:00 PM 9.06 48.308 0.05 6.39 1.99 11.19
3/26/2021 9:00:00 PM 8.99 48.182 0.05 6.44 1.92 11.22
3/26/2021 9:15:00 PM 8.93 48.074 0.05 6.46 1.88 11.24
3/26/2021 9:30:00 PM 8.87 47.966 0.05 6.39 1.86 11.26
3/26/2021 9:45:00 PM 8.81 47.858 0.05 6.43 1.84 11.28
3/26/2021 10:00:00 PM 8.75 47.75 0.05 6.4 1.83 11.31
3/26/2021 10:15:00 PM 8.68 47.624 0.051 6.46 1.89 11.32
3/26/2021 10:30:00 PM 8.61 47.498 0.051 6.41 1.97 11.34
3/26/2021 10:45:00 PM 8.54 47.372 0.051 6.46 1.76 11.36
3/26/2021 11:00:00 PM 8.47 47.246 0.05 6.44 1.88 11.38
3/26/2021 11:15:00 PM 8.4 47.12 0.05 6.41 1.71 11.4
3/26/2021 11:30:00 PM 8.33 46.994 0.05 6.45 1.69 11.43
3/26/2021 11:45:00 PM 8.26 46.868 0.05 6.41 1.83 11.44
3/27/2021 12:00:00 AM 8.19 46.742 0.05 6.4 1.66 11.47
3/27/2021 12:15:00 AM 8.12 46.616 0.051 6.41 1.78 11.49
3/27/2021 12:30:00 AM 8.05 46.49 0.051 6.45 1.69 11.51
3/27/2021 12:45:00 AM 7.98 46.364 0.051 6.45 1.77 11.54
3/27/2021 1:00:00 AM 7.92 46.256 0.051 6.42 1.59 11.55
3/27/2021 1:15:00 AM 7.85 46.13 0.051 6.37 1.69 11.58
3/27/2021 1:30:00 AM 7.78 46.004 0.051 6.44 1.71 11.59
3/27/2021 1:45:00 AM 7.72 45.896 0.051 6.41 1.71 11.61
3/27/2021 2:00:00 AM 7.66 45.788 0.052 6.39 1.69 11.63
3/27/2021 2:15:00 AM 7.6 45.68 0.052 6.45 1.67 11.65
3/27/2021 2:30:00 AM 7.54 45.572 0.052 6.43 1.7 11.67
3/27/2021 2:45:00 AM 7.48 45.464 0.052 6.45 1.55 11.68
3/27/2021 3:00:00 AM 7.43 45.374 0.052 6.45 1.67 11.7
3/27/2021 3:15:00 AM 7.39 45.302 0.052 6.45 1.59 11.71
3/27/2021 3:30:00 AM 7.34 45.212 0.051 6.35 1.56 11.73
3/27/2021 3:45:00 AM 7.3 45.14 0.051 6.45 1.57 11.74
3/27/2021 4:00:00 AM 7.26 45.068 0.051 6.43 1.62 11.75
3/27/2021 4:15:00 AM 7.22 44.996 0.051 6.39 1.53 11.77
3/27/2021 4:30:00 AM 7.19 44.942 0.051 6.44 1.46 11.78
3/27/2021 4:45:00 AM 7.15 44.87 0.051 6.35 1.49 11.79
3/27/2021 5:00:00 AM 7.12 44.816 0.051 6.44 1.71 11.8
3/27/2021 5:15:00 AM 7.08 44.744 0.051 6.43 1.51 11.81
3/27/2021 5:30:00 AM 7.05 44.69 0.051 6.43 1.61 11.82
3/27/2021 5:45:00 AM 7.02 44.636 0.051 6.43 1.45 11.84
3/27/2021 6:00:00 AM 6.98 44.564 0.051 6.43 1.41 11.84
3/27/2021 6:15:00 AM 6.94 44.492 0.051 6.41 1.49 11.85
3/27/2021 6:30:00 AM 6.9 44.42 0.051 6.44 1.54 11.87
3/27/2021 6:45:00 AM 6.87 44.366 0.051 6.35 1.5 11.88
3/27/2021 7:00:00 AM 6.84 44.312 0.051 6.43 1.57 11.89
3/27/2021 7:15:00 AM 6.81 44.258 0.051 6.42 1.52 11.91
3/27/2021 7:30:00 AM 6.78 44.204 0.051 6.43 1.53 11.93
3/27/2021 7:45:00 AM 6.75 44.15 0.051 6.45 1.48 11.95
3/27/2021 8:00:00 AM 6.72 44.096 0.051 6.45 1.44 11.97
3/27/2021 8:15:00 AM 6.71 44.078 0.051 6.45 1.38 11.99
3/27/2021 8:30:00 AM 6.7 44.06 0.051 6.42 1.39 12.01
3/27/2021 8:45:00 AM 6.7 44.06 0.051 6.43 1.34 12.02
3/27/2021 9:00:00 AM 6.71 44.078 0.051 6.4 1.3 12.03
3/27/2021 9:15:00 AM 6.74 44.132 0.051 6.46 1.3 12.04
3/27/2021 9:30:00 AM 6.78 44.204 0.051 6.51 1.4 12.04
3/27/2021 9:45:00 AM 6.84 44.312 0.051 6.43 1.31 12.03
3/27/2021 10:00:00 AM 6.91 44.438 0.051 6.52 1.28 12.02
3/27/2021 10:15:00 AM 7 44.6 0.051 6.47 1.34 12
3/27/2021 10:30:00 AM 7.1 44.78 0.051 6.52 5 11.98
3/27/2021 10:45:00 AM 7.22 44.996 0.051 6.5 1.25 11.95
3/27/2021 11:00:00 AM 7.36 45.248 0.051 6.51 1.38 11.91
3/27/2021 11:15:00 AM 7.51 45.518 0.051 6.53 1.27 11.87
3/27/2021 11:30:00 AM 7.55 45.59 0.051 6.5 1.3 11.84
3/27/2021 11:45:00 AM 7.6 45.68 0.051 6.55 1.43 11.82
3/27/2021 12:00:00 PM 7.66 45.788 0.051 6.53 1.42 11.8
3/27/2021 12:15:00 PM 7.78 46.004 0.052 6.54 1.27 11.77
3/27/2021 12:30:00 PM 7.89 46.202 0.052 6.5 1.26 11.74
3/27/2021 12:45:00 PM 8 46.4 0.052 6.54 1.35 11.7
3/27/2021 1:00:00 PM 8.26 46.868 0.052 6.55 1.26 11.65
3/27/2021 1:15:00 PM 8.57 47.426 0.052 6.53 1.3 11.57
3/27/2021 1:30:00 PM 8.77 47.786 0.053 6.53 1.29 11.5
3/27/2021 1:45:00 PM 8.89 48.002 0.053 6.58 1.32 11.47
3/27/2021 2:00:00 PM 8.93 48.074 0.053 6.53 1.32 11.45
3/27/2021 2:15:00 PM 8.97 48.146 0.053 6.57 1.22 11.44
3/27/2021 2:30:00 PM 8.99 48.182 0.053 6.57 1.3 11.42
3/27/2021 2:45:00 PM 9.05 48.29 0.053 6.55 1.24 11.39
3/27/2021 3:00:00 PM 9.12 48.416 0.053 6.58 1.16 11.37
3/27/2021 3:15:00 PM 9.17 48.506 0.053 6.59 1.21 11.34
3/27/2021 3:30:00 PM 9.21 48.578 0.053 6.59 1.23 11.33
3/27/2021 3:45:00 PM 9.24 48.632 0.053 6.52 1.2 11.31
3/27/2021 4:00:00 PM 9.25 48.65 0.053 6.6 1.26 11.31
3/27/2021 4:15:00 PM 9.26 48.668 0.053 6.6 1.29 11.31
3/27/2021 4:30:00 PM 9.26 48.668 0.053 6.59 1.31 11.29
3/27/2021 4:45:00 PM 9.27 48.686 0.053 6.53 1.3 11.28
3/27/2021 5:00:00 PM 9.28 48.704 0.053 6.58 1.32 11.27
3/27/2021 5:15:00 PM 9.3 48.74 0.053 6.58 1.44 11.25
3/27/2021 5:30:00 PM 9.31 48.758 0.053 6.59 1.29 11.24
3/27/2021 5:45:00 PM 9.32 48.776 0.053 6.57 1.33 11.23
3/27/2021 6:00:00 PM 9.33 48.794 0.053 6.57 1.35 11.22
3/27/2021 6:15:00 PM 9.34 48.812 0.053 6.49 1.34 11.21
3/27/2021 6:30:00 PM 9.34 48.812 0.053 6.56 1.39 11.19
3/27/2021 6:45:00 PM 9.34 48.812 0.053 6.55 1.35 11.18
3/27/2021 7:00:00 PM 9.32 48.776 0.053 6.52 1.45 11.17
3/27/2021 7:15:00 PM 9.3 48.74 0.053 6.54 1.43 11.17
3/27/2021 7:30:00 PM 9.27 48.686 0.053 6.52 1.32 11.16
3/27/2021 7:45:00 PM 9.23 48.614 0.053 6.48 1.37 11.16
3/27/2021 8:00:00 PM 9.2 48.56 0.054 6.52 1.42 11.17
3/27/2021 8:15:00 PM 9.16 48.488 0.054 6.49 1.43 11.17
3/27/2021 8:30:00 PM 9.12 48.416 0.054 6.51 1.34 11.18
3/27/2021 8:45:00 PM 9.09 48.362 0.054 6.46 1.26 11.19
3/27/2021 9:00:00 PM 9.05 48.29 0.054 6.52 1.34 11.2
3/27/2021 9:15:00 PM 9 48.2 0.054 6.5 1.5 11.2
3/27/2021 9:30:00 PM 8.96 48.128 0.054 6.52 1.34 11.22
3/27/2021 9:45:00 PM 8.91 48.038 0.053 6.45 1.3 11.23
3/27/2021 10:00:00 PM 8.87 47.966 0.053 6.5 1.31 11.25
3/27/2021 10:15:00 PM 8.82 47.876 0.053 6.51 1.22 11.26
3/27/2021 10:30:00 PM 8.77 47.786 0.053 6.42 1.37 11.27
3/27/2021 10:45:00 PM 8.71 47.678 0.053 6.5 1.27 11.28
3/27/2021 11:00:00 PM 8.66 47.588 0.053 6.5 1.26 11.3
3/27/2021 11:15:00 PM 8.61 47.498 0.053 6.52 1.29 11.31
3/27/2021 11:30:00 PM 8.55 47.39 0.053 6.5 1.33 11.33
3/27/2021 11:45:00 PM 8.49 47.282 0.053 6.43 1.24 11.34
3/28/2021 12:00:00 AM 8.43 47.174 0.053 6.52 1.28 11.36
3/28/2021 12:15:00 AM 8.37 47.066 0.053 6.51 1.3 11.38
3/28/2021 12:30:00 AM 8.31 46.958 0.053 6.49 1.33 11.4
3/28/2021 12:45:00 AM 8.25 46.85 0.053 6.51 1.19 11.41
3/28/2021 1:00:00 AM 8.18 46.724 0.053 6.52 1.26 11.43
3/28/2021 1:15:00 AM 8.12 46.616 0.053 6.5 1.24 11.44
3/28/2021 1:30:00 AM 8.06 46.508 0.054 6.46 1.21 11.45
3/28/2021 1:45:00 AM 7.99 46.382 0.054 6.5 1.22 11.47
3/28/2021 2:00:00 AM 7.93 46.274 0.054 6.47 1.25 11.49
3/28/2021 2:15:00 AM 7.87 46.166 0.054 6.52 1.2 11.5
3/28/2021 2:30:00 AM 7.81 46.058 0.054 6.48 1.21 11.52
3/28/2021 2:45:00 AM 7.75 45.95 0.054 6.43 1.27 11.53
3/28/2021 3:00:00 AM 7.69 45.842 0.054 6.52 1.22 11.55
3/28/2021 3:15:00 AM 7.64 45.752 0.054 6.43 1.26 11.56
3/28/2021 3:30:00 AM 7.59 45.662 0.054 6.46 1.19 11.57
3/28/2021 3:45:00 AM 7.54 45.572 0.054 6.52 1.25 11.58
3/28/2021 4:00:00 AM 7.5 45.5 0.054 6.43 1.16 11.6
3/28/2021 4:15:00 AM 7.46 45.428 0.054 6.49 1.23 11.61
3/28/2021 4:30:00 AM 7.43 45.374 0.054 6.49 1.23 11.61
3/28/2021 4:45:00 AM 7.41 45.338 0.054 6.51 1.2 11.62
3/28/2021 5:00:00 AM 7.39 45.302 0.054 6.48 1.24 11.62
3/28/2021 5:15:00 AM 7.37 45.266 0.054 6.5 1.1 11.63
3/28/2021 5:30:00 AM 7.35 45.23 0.054 6.5 1.17 11.63
3/28/2021 5:45:00 AM 7.34 45.212 0.054 6.51 1.28 11.64
3/28/2021 6:00:00 AM 7.33 45.194 0.054 6.5 1.2 11.64
3/28/2021 6:15:00 AM 7.32 45.176 0.054 6.5 1.23 11.64
3/28/2021 6:30:00 AM 7.31 45.158 0.053 6.48 1.15 11.64
3/28/2021 6:45:00 AM 7.3 45.14 0.053 6.49 1.13 11.63
3/28/2021 7:00:00 AM 7.3 45.14 0.053 6.51 1.14 11.63
3/28/2021 7:15:00 AM 7.3 45.14 0.053 6.51 1.12 11.63
3/28/2021 7:30:00 AM 7.3 45.14 0.053 6.5 1.11 11.63
3/28/2021 7:45:00 AM 7.3 45.14 0.053 6.51 1.25 11.63
3/28/2021 8:00:00 AM 7.31 45.158 0.053 6.51 1.22 11.63
3/28/2021 8:15:00 AM 7.32 45.176 0.053 6.52 1.12 11.63
3/28/2021 8:30:00 AM 7.34 45.212 0.053 6.52 1.03 11.63
3/28/2021 8:45:00 AM 7.35 45.23 0.053 6.5 1.09 11.63
3/28/2021 9:00:00 AM 7.37 45.266 0.053 6.5 1.1 11.63
3/28/2021 9:15:00 AM 7.39 45.302 0.053 6.54 1.14 11.62
3/28/2021 9:30:00 AM 7.41 45.338 0.053 6.44 1.25 11.62
3/28/2021 9:45:00 AM 7.43 45.374 0.053 6.5 1.15 11.63
3/28/2021 10:00:00 AM 7.46 45.428 0.053 6.56 1.31 11.62
3/28/2021 10:15:00 AM 7.48 45.464 0.053 6.51 1.18 11.6
3/28/2021 10:30:00 AM 7.49 45.482 0.053 6.56 1.18 11.59
3/28/2021 10:45:00 AM 7.51 45.518 0.053 6.48 1.2 11.58
3/28/2021 11:00:00 AM 7.54 45.572 0.053 6.52 1.24 11.58
3/28/2021 11:15:00 AM 7.57 45.626 0.053 6.55 1.37 11.58
3/28/2021 11:30:00 AM 7.62 45.716 0.053 6.59 1.36 11.58
3/28/2021 11:45:00 AM 7.67 45.806 0.053 6.54 1.43 11.57
3/28/2021 12:00:00 PM 7.71 45.878 0.053 6.6 1.46 11.55
3/28/2021 12:15:00 PM 7.76 45.968 0.053 6.58 1.58 11.53
3/28/2021 12:30:00 PM 7.79 46.022 0.053 6.6 1.54 11.51
3/28/2021 12:45:00 PM 7.82 46.076 0.053 6.56 1.68 11.5
3/28/2021 1:00:00 PM 7.84 46.112 0.053 6.6 1.62 11.49
3/28/2021 1:15:00 PM 7.86 46.148 0.053 6.58 1.78 11.49
3/28/2021 1:30:00 PM 7.87 46.166 0.053 6.59 1.94 11.47
3/28/2021 1:45:00 PM 7.88 46.184 0.053 6.56 1.66 11.46
3/28/2021 2:00:00 PM 7.9 46.22 0.053 6.58 1.7 11.45
3/28/2021 2:15:00 PM 7.91 46.238 0.053 6.53 1.89 11.44
3/28/2021 2:30:00 PM 7.94 46.292 0.053 6.59 1.86 11.43
3/28/2021 2:45:00 PM 7.97 46.346 0.053 6.61 1.92 11.42
3/28/2021 3:00:00 PM 8 46.4 0.053 6.51 1.88 11.4
3/28/2021 3:15:00 PM 8.05 46.49 0.053 6.61 2 11.4
3/28/2021 3:30:00 PM 8.09 46.562 0.054 6.6 1.84 11.38
3/28/2021 3:45:00 PM 8.12 46.616 0.054 6.6 1.96 11.34
3/28/2021 4:00:00 PM 8.14 46.652 0.054 6.57 1.9 11.31
3/28/2021 4:15:00 PM 8.15 46.67 0.054 6.58 1.96 11.31
3/28/2021 4:30:00 PM 8.15 46.67 0.054 6.56 1.86 11.29
3/28/2021 4:45:00 PM 8.17 46.706 0.054 6.58 1.77 11.28
3/28/2021 5:00:00 PM 8.22 46.796 0.053 6.49 2.02 11.31
3/28/2021 5:15:00 PM 8.27 46.886 0.053 6.58 1.94 11.31
3/28/2021 5:30:00 PM 8.3 46.94 0.053 6.6 2.09 11.29
3/28/2021 5:45:00 PM 8.32 46.976 0.053 6.59 2.02 11.26
3/28/2021 6:00:00 PM 8.33 46.994 0.053 6.58 1.86 11.27
3/28/2021 6:15:00 PM 8.34 47.012 0.053 6.51 2.12 11.26
3/28/2021 6:30:00 PM 8.35 47.03 0.053 6.55 2.12 11.26
3/28/2021 6:45:00 PM 8.35 47.03 0.053 6.58 2.3 11.26
3/28/2021 7:00:00 PM 8.35 47.03 0.053 6.53 2.13 11.25
3/28/2021 7:15:00 PM 8.35 47.03 0.053 6.57 2.21 11.25
3/28/2021 7:30:00 PM 8.35 47.03 0.053 6.57 2.3 11.25
3/28/2021 7:45:00 PM 8.33 46.994 0.053 6.53 2.19 11.24
3/28/2021 8:00:00 PM 8.3 46.94 0.053 6.54 2.25 11.25
3/28/2021 8:15:00 PM 8.28 46.904 0.053 6.57 2.21 11.26
3/28/2021 8:30:00 PM 8.26 46.868 0.053 6.52 2.11 11.27
3/28/2021 8:45:00 PM 8.23 46.814 0.053 6.56 2.17 11.28
3/28/2021 9:00:00 PM 8.2 46.76 0.053 6.5 2.32 11.29
3/28/2021 9:15:00 PM 8.17 46.706 0.053 6.57 2.28 11.3
3/28/2021 9:30:00 PM 8.14 46.652 0.053 6.53 2.1 11.31
3/28/2021 9:45:00 PM 8.1 46.58 0.053 6.55 2.11 11.33
3/28/2021 10:00:00 PM 8.05 46.49 0.053 6.51 2.21 11.35
3/28/2021 10:15:00 PM 8 46.4 0.053 6.56 2.14 11.36
3/28/2021 10:30:00 PM 7.94 46.292 0.054 6.57 2.16 11.38
3/28/2021 10:45:00 PM 7.89 46.202 0.054 6.51 2.04 11.39
3/28/2021 11:00:00 PM 7.84 46.112 0.054 6.55 1.87 11.41
3/28/2021 11:15:00 PM 7.79 46.022 0.054 6.47 2.06 11.43
3/28/2021 11:30:00 PM 7.73 45.914 0.054 6.55 1.84 11.45
3/28/2021 11:45:00 PM 7.66 45.788 0.054 6.52 1.86 11.47
3/29/2021 12:00:00 AM 7.6 45.68 0.054 6.55 1.76 11.49
3/29/2021 12:15:00 AM 7.52 45.536 0.054 6.54 1.91 11.52
3/29/2021 12:30:00 AM 7.45 45.41 0.054 6.51 1.83 11.54
3/29/2021 12:45:00 AM 7.39 45.302 0.054 6.55 1.92 11.57
3/29/2021 1:00:00 AM 7.32 45.176 0.054 6.52 1.83 11.58
3/29/2021 1:15:00 AM 7.25 45.05 0.054 6.52 1.77 11.61
3/29/2021 1:30:00 AM 7.19 44.942 0.054 6.54 1.69 11.63
3/29/2021 1:45:00 AM 7.12 44.816 0.054 6.47 1.71 11.65
3/29/2021 2:00:00 AM 7.06 44.708 0.054 6.5 1.8 11.68
3/29/2021 2:15:00 AM 6.98 44.564 0.054 6.51 1.6 11.7
3/29/2021 2:30:00 AM 6.9 44.42 0.054 6.45 1.62 11.73
3/29/2021 2:45:00 AM 6.81 44.258 0.054 6.53 1.56 11.76
3/29/2021 3:00:00 AM 6.72 44.096 0.053 6.52 1.68 11.79
3/29/2021 3:15:00 AM 6.63 43.934 0.053 6.5 1.52 11.81
3/29/2021 3:30:00 AM 6.56 43.808 0.053 6.52 1.5 11.84
3/29/2021 3:45:00 AM 6.49 43.682 0.053 6.5 1.66 11.87
3/29/2021 4:00:00 AM 6.43 43.574 0.053 6.43 1.44 11.89
3/29/2021 4:15:00 AM 6.37 43.466 0.053 6.49 1.43 11.92
3/29/2021 4:30:00 AM 6.31 43.358 0.053 6.5 1.48 11.94
3/29/2021 4:45:00 AM 6.24 43.232 0.053 6.44 1.44 11.96
3/29/2021 5:00:00 AM 6.17 43.106 0.053 6.5 1.48 11.98
3/29/2021 5:15:00 AM 6.1 42.98 0.053 6.48 1.42 12.01
3/29/2021 5:30:00 AM 6.03 42.854 0.053 6.46 1.44 12.04
3/29/2021 5:45:00 AM 5.97 42.746 0.053 6.48 1.37 12.06
3/29/2021 6:00:00 AM 5.9 42.62 0.053 6.5 1.35 12.08
3/29/2021 6:15:00 AM 5.84 42.512 0.053 6.5 1.37 12.12
3/29/2021 6:30:00 AM 5.78 42.404 0.053 6.47 1.4 12.14
3/29/2021 6:45:00 AM 5.73 42.314 0.053 6.47 1.33 12.16
3/29/2021 7:00:00 AM 5.69 42.242 0.053 6.45 1.25 12.18
3/29/2021 7:15:00 AM 5.64 42.152 0.053 6.5 1.31 12.2
3/29/2021 7:30:00 AM 5.6 42.08 0.053 6.47 1.35 12.22
3/29/2021 7:45:00 AM 5.57 42.026 0.053 6.43 1.34 12.25
3/29/2021 8:00:00 AM 5.54 41.972 0.053 6.5 1.28 12.28
3/29/2021 8:15:00 AM 5.51 41.918 0.053 6.51 1.45 12.31
3/29/2021 8:30:00 AM 5.48 41.864 0.054 6.49 1.24 12.33
3/29/2021 8:45:00 AM 5.44 41.792 0.054 6.51 1.27 12.35
3/29/2021 9:00:00 AM 5.41 41.738 0.054 6.51 1.23 12.38
3/29/2021 9:15:00 AM 5.39 41.702 0.054 6.51 1.19 12.39
3/29/2021 9:30:00 AM 5.37 41.666 0.054 6.5 1.15 12.4
3/29/2021 9:45:00 AM 5.34 41.612 0.054 6.52 1.19 12.41
3/29/2021 10:00:00 AM 5.32 41.576 0.054 6.52 1.25 12.43
3/29/2021 10:15:00 AM 5.31 41.558 0.054 6.44 1.2 12.45
3/29/2021 10:30:00 AM 5.33 41.594 0.054 6.53 1.18 12.47
3/29/2021 10:45:00 AM 5.41 41.738 0.054 6.53 1.17 12.48
3/29/2021 11:00:00 AM 5.44 41.792 0.054 6.49 1.18 12.46
3/29/2021 11:15:00 AM 5.53 41.954 0.054 6.54 1.12 12.45
3/29/2021 11:30:00 AM 5.6 42.08 0.054 6.52 1.03 12.43
3/29/2021 11:45:00 AM 5.69 42.242 0.054 6.53 1.05 12.41
3/29/2021 12:00:00 PM 5.82 42.476 0.054 6.49 1.09 12.38
3/29/2021 12:15:00 PM 6 42.8 0.054 6.55 1.04 12.33
3/29/2021 12:30:00 PM 6.22 43.196 0.054 6.5 1.13 12.27
3/29/2021 12:45:00 PM 6.4 43.52 0.054 6.55 1.12 12.22
3/29/2021 1:00:00 PM 6.52 43.736 0.054 6.56 1.01 12.18
3/29/2021 1:15:00 PM 6.61 43.898 0.054 6.56 1.03 12.15
3/29/2021 1:30:00 PM 6.69 44.042 0.054 6.46 1.04 12.12
3/29/2021 1:45:00 PM 6.75 44.15 0.054 6.57 1.05 12.09
3/29/2021 2:00:00 PM 6.79 44.222 0.054 6.57 0.97 12.07
3/29/2021 2:15:00 PM 6.85 44.33 0.054 6.56 1.01 12.04
3/29/2021 2:30:00 PM 6.9 44.42 0.054 6.57 1.01 12.02
3/29/2021 2:45:00 PM 6.94 44.492 0.054 6.55 0.98 12
3/29/2021 3:00:00 PM 6.96 44.528 0.054 6.57 1.06 11.98
3/29/2021 3:15:00 PM 6.96 44.528 0.054 6.57 0.98 11.97
3/29/2021 3:30:00 PM 6.97 44.546 0.054 6.51 1.07 11.96
3/29/2021 3:45:00 PM 6.96 44.528 0.054 6.55 0.98 11.96
3/29/2021 4:00:00 PM 6.95 44.51 0.054 6.56 1.03 11.96
3/29/2021 4:15:00 PM 6.94 44.492 0.054 6.58 0.99 11.95
3/29/2021 4:30:00 PM 6.95 44.51 0.054 6.53 1.03 11.94
3/29/2021 4:45:00 PM 6.94 44.492 0.054 6.5 1.09 11.94
3/29/2021 5:00:00 PM 6.93 44.474 0.054 6.58 1.03 11.93
3/29/2021 5:15:00 PM 6.92 44.456 0.055 6.56 1.07 11.93
3/29/2021 5:30:00 PM 6.9 44.42 0.055 6.54 0.97 11.92
3/29/2021 5:45:00 PM 6.9 44.42 0.055 6.54 1.02 11.93
3/29/2021 6:00:00 PM 6.88 44.384 0.055 6.56 1.3 11.92
3/29/2021 6:15:00 PM 6.86 44.348 0.055 6.54 1.01 11.92
3/29/2021 6:30:00 PM 6.84 44.312 0.055 6.51 1 11.93
3/29/2021 6:45:00 PM 6.81 44.258 0.055 6.54 0.97 11.93
3/29/2021 7:00:00 PM 6.79 44.222 0.055 6.46 0.99 11.93
3/29/2021 7:15:00 PM 6.76 44.168 0.055 6.52 1.02 11.93
3/29/2021 7:30:00 PM 6.73 44.114 0.055 6.47 1.06 11.93
3/29/2021 7:45:00 PM 6.7 44.06 0.055 6.52 1.11 11.94
3/29/2021 8:00:00 PM 6.66 43.988 0.055 6.52 1.08 11.95
3/29/2021 8:15:00 PM 6.62 43.916 0.055 6.51 1.09 11.96
3/29/2021 8:30:00 PM 6.57 43.826 0.055 6.53 1.11 11.97
3/29/2021 8:45:00 PM 6.52 43.736 0.055 6.52 1.08 11.99
3/29/2021 9:00:00 PM 6.47 43.646 0.055 6.45 1.07 12.01
3/29/2021 9:15:00 PM 6.42 43.556 0.055 6.52 1.11 12.03
3/29/2021 9:30:00 PM 6.36 43.448 0.055 6.52 1.16 12.05
3/29/2021 9:45:00 PM 6.3 43.34 0.055 6.49 1.06 12.06
3/29/2021 10:00:00 PM 6.24 43.232 0.055 6.52 1.05 12.09
3/29/2021 10:15:00 PM 6.19 43.142 0.055 6.46 1 12.1
3/29/2021 10:30:00 PM 6.13 43.034 0.055 6.52 1.07 12.12
3/29/2021 10:45:00 PM 6.07 42.926 0.055 6.5 1.07 12.15
3/29/2021 11:00:00 PM 6.02 42.836 0.055 6.5 0.98 12.16
3/29/2021 11:15:00 PM 5.96 42.728 0.055 6.44 1.16 12.18
3/29/2021 11:30:00 PM 5.9 42.62 0.055 6.52 1.03 12.2
3/29/2021 11:45:00 PM 5.85 42.53 0.055 6.49 1.04 12.22
3/30/2021 12:00:00 AM 5.8 42.44 0.055 6.51 1.01 12.23
3/30/2021 12:15:00 AM 5.74 42.332 0.055 6.5 0.94 12.25
3/30/2021 12:30:00 AM 5.69 42.242 0.055 6.47 1.13 12.27
3/30/2021 12:45:00 AM 5.64 42.152 0.055 6.51 0.97 12.29
3/30/2021 1:00:00 AM 5.59 42.062 0.055 6.42 0.94 12.31
3/30/2021 1:15:00 AM 5.53 41.954 0.055 6.51 1 12.32
3/30/2021 1:30:00 AM 5.48 41.864 0.055 6.51 0.99 12.35
3/30/2021 1:45:00 AM 5.42 41.756 0.055 6.5 1.03 12.36
3/30/2021 2:00:00 AM 5.37 41.666 0.056 6.46 0.9 12.38
3/30/2021 2:15:00 AM 5.31 41.558 0.056 6.51 0.98 12.41
3/30/2021 2:30:00 AM 5.25 41.45 0.056 6.5 0.89 12.42
3/30/2021 2:45:00 AM 5.19 41.342 0.056 6.48 0.98 12.44
3/30/2021 3:00:00 AM 5.13 41.234 0.056 6.51 0.9 12.47
3/30/2021 3:15:00 AM 5.08 41.144 0.056 6.5 0.92 12.49
3/30/2021 3:30:00 AM 5.02 41.036 0.056 6.44 0.94 12.51
3/30/2021 3:45:00 AM 4.96 40.928 0.056 6.48 0.93 12.53
3/30/2021 4:00:00 AM 4.9 40.82 0.056 6.46 0.91 12.54
3/30/2021 4:15:00 AM 4.85 40.73 0.056 6.45 1 12.57
3/30/2021 4:30:00 AM 4.79 40.622 0.056 6.5 0.91 12.58
3/30/2021 4:45:00 AM 4.74 40.532 0.056 6.5 0.89 12.6
3/30/2021 5:00:00 AM 4.69 40.442 0.056 6.5 0.94 12.62
3/30/2021 5:15:00 AM 4.64 40.352 0.056 6.45 0.83 12.64
3/30/2021 5:30:00 AM 4.59 40.262 0.056 6.49 0.95 12.66
3/30/2021 5:45:00 AM 4.54 40.172 0.056 6.39 0.87 12.68
3/30/2021 6:00:00 AM 4.5 40.1 0.056 6.5 0.93 12.7
3/30/2021 6:15:00 AM 4.45 40.01 0.056 6.48 0.92 12.72
3/30/2021 6:30:00 AM 4.41 39.938 0.056 6.49 0.97 12.74
3/30/2021 6:45:00 AM 4.37 39.866 0.056 6.47 0.89 12.75
3/30/2021 7:00:00 AM 4.33 39.794 0.056 6.46 0.91 12.76
3/30/2021 7:15:00 AM 4.29 39.722 0.056 6.49 0.94 12.79
3/30/2021 7:30:00 AM 4.26 39.668 0.056 6.5 0.91 12.81
3/30/2021 7:45:00 AM 4.23 39.614 0.056 6.47 0.9 12.84
3/30/2021 8:00:00 AM 4.21 39.578 0.056 6.5 0.86 12.86
3/30/2021 8:15:00 AM 4.2 39.56 0.056 6.49 0.95 12.88
3/30/2021 8:30:00 AM 4.19 39.542 0.056 6.51 0.93 12.9
3/30/2021 8:45:00 AM 4.2 39.56 0.056 6.51 0.86 12.9
3/30/2021 9:00:00 AM 4.22 39.596 0.056 6.45 0.91 12.91
3/30/2021 9:15:00 AM 4.27 39.686 0.056 6.53 0.88 12.91
3/30/2021 9:30:00 AM 4.33 39.794 0.056 6.53 0.86 12.9
3/30/2021 9:45:00 AM 4.42 39.956 0.056 6.53 0.87 12.88
3/30/2021 10:00:00 AM 4.53 40.154 0.056 6.53 0.89 12.86
3/30/2021 10:15:00 AM 4.66 40.388 0.056 6.52 0.85 12.83
3/30/2021 10:30:00 AM 4.8 40.64 0.056 6.55 0.82 12.79
3/30/2021 10:45:00 AM 4.97 40.946 0.056 6.56 0.89 12.74
3/30/2021 11:00:00 AM 5.16 41.288 0.056 6.57 0.93 12.68
3/30/2021 11:15:00 AM 5.36 41.648 0.056 6.57 0.83 12.62
3/30/2021 11:30:00 AM 5.59 42.062 0.056 6.58 0.77 12.55
3/30/2021 11:45:00 AM 5.82 42.476 0.056 6.52 0.75 12.47
3/30/2021 12:00:00 PM 6.07 42.926 0.056 6.6 0.81 12.4
3/30/2021 12:15:00 PM 6.31 43.358 0.056 6.6 0.77 12.32
3/30/2021 12:30:00 PM 6.55 43.79 0.056 6.61 1 12.25
3/30/2021 12:45:00 PM 6.78 44.204 0.056 6.6 0.84 12.18
3/30/2021 1:00:00 PM 6.98 44.564 0.056 6.62 0.87 12.11
3/30/2021 1:15:00 PM 7.15 44.87 0.056 6.59 0.84 12.06
3/30/2021 1:30:00 PM 7.3 45.14 0.056 6.61 0.81 12.01
3/30/2021 1:45:00 PM 7.42 45.356 0.056 6.63 0.76 11.96
3/30/2021 2:00:00 PM 7.54 45.572 0.056 6.63 0.84 11.91
3/30/2021 2:15:00 PM 7.64 45.752 0.056 6.63 0.89 11.86
3/30/2021 2:30:00 PM 7.73 45.914 0.056 6.67 0.81 11.82
3/30/2021 2:45:00 PM 7.81 46.058 0.056 6.64 0.88 11.78
3/30/2021 3:00:00 PM 7.88 46.184 0.056 6.64 0.86 11.75
3/30/2021 3:15:00 PM 7.94 46.292 0.056 6.64 0.85 11.72
3/30/2021 3:30:00 PM 7.98 46.364 0.056 6.63 0.77 11.7
3/30/2021 3:45:00 PM 8.02 46.436 0.056 6.64 0.88 11.68
3/30/2021 4:00:00 PM 8.05 46.49 0.056 6.62 0.9 11.66
3/30/2021 4:15:00 PM 8.08 46.544 0.056 6.64 0.83 11.64
3/30/2021 4:30:00 PM 8.11 46.598 0.056 6.64 0.83 11.63
3/30/2021 4:45:00 PM 8.13 46.634 0.056 6.53 0.84 11.62
3/30/2021 5:00:00 PM 8.14 46.652 0.056 6.64 0.84 11.6
3/30/2021 5:15:00 PM 8.15 46.67 0.056 6.63 0.87 11.58
3/30/2021 5:30:00 PM 8.16 46.688 0.056 6.63 0.91 11.57
3/30/2021 5:45:00 PM 8.2 46.76 0.056 6.61 0.93 11.57
3/30/2021 6:00:00 PM 8.22 46.796 0.056 6.63 0.9 11.55
3/30/2021 6:15:00 PM 8.23 46.814 0.056 6.63 0.85 11.52
3/30/2021 6:30:00 PM 8.24 46.832 0.056 6.55 0.89 11.51
3/30/2021 6:45:00 PM 8.25 46.85 0.056 6.6 0.84 11.5
3/30/2021 7:00:00 PM 8.25 46.85 0.056 6.61 0.89 11.49
3/30/2021 7:15:00 PM 8.25 46.85 0.056 6.62 0.89 11.47
3/30/2021 7:30:00 PM 8.24 46.832 0.056 6.6 0.87 11.46
3/30/2021 7:45:00 PM 8.23 46.814 0.056 6.59 0.98 11.45
3/30/2021 8:00:00 PM 8.22 46.796 0.056 6.6 0.98 11.45
3/30/2021 8:15:00 PM 8.2 46.76 0.056 6.6 1 11.46
3/30/2021 8:30:00 PM 8.19 46.742 0.056 6.55 0.97 11.46
3/30/2021 8:45:00 PM 8.17 46.706 0.056 6.6 0.99 11.47
3/30/2021 9:00:00 PM 8.14 46.652 0.056 6.57 1.07 11.47
3/30/2021 9:15:00 PM 8.12 46.616 0.056 6.55 1 11.48
3/30/2021 9:30:00 PM 8.09 46.562 0.056 6.58 0.91 11.49
3/30/2021 9:45:00 PM 8.07 46.526 0.056 6.59 0.99 11.49
3/30/2021 10:00:00 PM 8.04 46.472 0.056 6.53 0.98 11.51
3/30/2021 10:15:00 PM 8.01 46.418 0.056 6.56 1.14 11.52
3/30/2021 10:30:00 PM 7.98 46.364 0.056 6.57 1.01 11.53
3/30/2021 10:45:00 PM 7.94 46.292 0.056 6.55 0.97 11.54
3/30/2021 11:00:00 PM 7.91 46.238 0.056 6.56 0.93 11.55
3/30/2021 11:15:00 PM 7.88 46.184 0.056 6.58 0.94 11.56
3/30/2021 11:30:00 PM 7.85 46.13 0.056 6.55 0.94 11.57
3/30/2021 11:45:00 PM 7.82 46.076 0.056 6.55 1.03 11.58
3/31/2021 12:00:00 AM 7.79 46.022 0.056 6.56 1 11.58
3/31/2021 12:15:00 AM 7.76 45.968 0.056 6.57 0.93 11.59
3/31/2021 12:30:00 AM 7.72 45.896 0.056 6.58 0.91 11.6
3/31/2021 12:45:00 AM 7.69 45.842 0.056 6.56 0.93 11.61
3/31/2021 1:00:00 AM 7.65 45.77 0.056 6.57 2.37 11.62
3/31/2021 1:15:00 AM 7.61 45.698 0.056 6.58 1.02 11.63
3/31/2021 1:30:00 AM 7.57 45.626 0.056 6.52 1 11.64
3/31/2021 1:45:00 AM 7.53 45.554 0.056 6.56 0.92 11.65
3/31/2021 2:00:00 AM 7.49 45.482 0.056 6.57 1.01 11.66
3/31/2021 2:15:00 AM 7.45 45.41 0.056 6.56 0.99 11.67
3/31/2021 2:30:00 AM 7.41 45.338 0.056 6.57 0.96 11.68
3/31/2021 2:45:00 AM 7.36 45.248 0.056 6.54 0.98 11.69
3/31/2021 3:00:00 AM 7.32 45.176 0.056 6.57 0.94 11.7
3/31/2021 3:15:00 AM 7.27 45.086 0.056 6.55 0.94 11.72
3/31/2021 3:30:00 AM 7.23 45.014 0.056 6.57 0.83 11.72
3/31/2021 3:45:00 AM 7.18 44.924 0.056 6.56 1 11.74
3/31/2021 4:00:00 AM 7.13 44.834 0.056 6.54 1.06 11.75
3/31/2021 4:15:00 AM 7.09 44.762 0.056 6.56 1 11.76
3/31/2021 4:30:00 AM 7.05 44.69 0.056 6.56 0.97 11.77
3/31/2021 4:45:00 AM 7.01 44.618 0.056 6.57 0.89 11.79
3/31/2021 5:00:00 AM 6.97 44.546 0.056 6.57 0.96 11.8
3/31/2021 5:15:00 AM 6.93 44.474 0.056 6.55 0.95 11.81
3/31/2021 5:30:00 AM 6.89 44.402 0.056 6.56 0.93 11.82
3/31/2021 5:45:00 AM 6.84 44.312 0.056 6.51 0.85 11.83
3/31/2021 6:00:00 AM 6.8 44.24 0.056 6.55 0.82 11.84
3/31/2021 6:15:00 AM 6.77 44.186 0.056 6.55 0.98 11.86
3/31/2021 6:30:00 AM 6.74 44.132 0.056 6.56 0.88 11.86
3/31/2021 6:45:00 AM 6.71 44.078 0.056 6.53 0.97 11.87
3/31/2021 7:00:00 AM 6.68 44.024 0.056 6.55 0.89 11.88
3/31/2021 7:15:00 AM 6.66 43.988 0.056 6.53 0.94 11.9
3/31/2021 7:30:00 AM 6.64 43.952 0.056 6.55 0.92 11.92
3/31/2021 7:45:00 AM 6.63 43.934 0.056 6.55 1.05 11.94
3/31/2021 8:00:00 AM 6.62 43.916 0.056 6.53 0.88 11.97
3/31/2021 8:15:00 AM 6.62 43.916 0.056 6.53 0.99 11.98
3/31/2021 8:30:00 AM 6.63 43.934 0.056 6.59 0.97 12
3/31/2021 8:45:00 AM 6.66 43.988 0.056 6.54 0.87 12.01
3/31/2021 9:00:00 AM 6.69 44.042 0.055 6.6 0.87 12.01
3/31/2021 9:15:00 AM 6.73 44.114 0.055 6.61 0.84 12
3/31/2021 9:30:00 AM 6.77 44.186 0.055 6.6 0.84 11.99
3/31/2021 9:45:00 AM 6.81 44.258 0.055 6.6 0.83 11.98
3/31/2021 10:00:00 AM 6.86 44.348 0.055 6.61 0.88 11.97
3/31/2021 10:15:00 AM 6.91 44.438 0.055 6.6 0.82 11.96
3/31/2021 10:30:00 AM 6.97 44.546 0.055 6.59 0.84 11.95
3/31/2021 10:45:00 AM 7.01 44.618 0.055 6.57 0.87 11.92
3/31/2021 11:00:00 AM 7.05 44.69 0.055 6.6 0.91 11.9
3/31/2021 11:15:00 AM 7.08 44.744 0.055 6.62 0.8 11.89
3/31/2021 11:30:00 AM 7.11 44.798 0.055 6.61 0.82 11.86
3/31/2021 11:45:00 AM 7.14 44.852 0.055 6.62 0.81 11.85
3/31/2021 12:00:00 PM 7.19 44.942 0.055 6.61 0.77 11.85
3/31/2021 12:15:00 PM 7.24 45.032 0.055 6.54 0.79 11.83
3/31/2021 12:30:00 PM 7.28 45.104 0.055 6.63 0.79 11.82
3/31/2021 12:45:00 PM 7.34